
Distance (Route):
Temperature : 0°C
Humidity : 0%
Pressure : 0hPa| Receiver | Frames | First received | Last received |
|---|---|---|---|
| SQ6EMJ | 491 | 2026-09-01 23:26:24 | 2026-09-02 00:34:43 |
| KRY50SP | 381 | 2026-09-01 23:37:31 | 2026-09-02 00:34:44 |
| PETON7-10 | 72 | 2026-09-02 00:01:05 | 2026-09-02 00:34:39 |
| POL1PZ | 71 | 2026-09-02 00:07:56 | 2026-09-02 01:23:06 |
| SP3BTT-10 | 39 | 2026-09-01 23:42:01 | 2026-09-02 00:33:46 |
| SP4MAZ | 10 | 2026-09-02 00:10:48 | 2026-09-02 00:31:59 |
| OE5DRO-10 | 9 | 2026-09-02 00:24:35 | 2026-09-02 00:34:19 |
| OK1SLM-15 | 6 | 2026-09-02 00:28:50 | 2026-09-02 00:33:11 |
| Receiver | Date | Latitude | Longitude | Direction | Speed | Altitude | Climb | Temperature | Humidity | Pressure | Voltage | Killtimer | Uptime | BKT | XDATA |
|---|---|---|---|---|---|---|---|---|---|---|---|---|---|---|---|
| POL1PZ | 2026-09-02 01:23:06 | 51.11762 | 18.08448 | 88° | 33km/h | 3515m | -11.6m/s | 0°C | 0% | 0hPa | 0V | 00:00:00 | 00:00:00 | 00:00:00 | |
| POL1PZ | 2026-09-02 01:22:28 | 51.11747 | 18.07920 | 87° | 42km/h | 3917m | -9.6m/s | 0°C | 0% | 0hPa | 0V | 00:00:00 | 00:00:00 | 00:00:00 | |
| POL1PZ | 2026-09-02 00:34:47 | 51.11584 | 17.71834 | 336° | 11km/h | 25651m | 5.4m/s | 0°C | 0% | 0hPa | 0V | 00:00:00 | 00:00:00 | 00:00:00 | |
| KRY50SP | 2026-09-02 00:34:44 | 51.11580 | 17.71835 | 292° | 13km/h | 25642m | 6.1m/s | 0°C | 0% | 0hPa | 0V | 00:00:00 | 00:00:00 | 00:00:00 | |
| SQ6EMJ | 2026-09-02 00:34:43 | 51.11582 | 17.71836 | 247° | 13km/h | 25636m | 3.6m/s | 0°C | 0% | 0hPa | 0V | 00:00:00 | 00:00:00 | 00:00:00 | |
| PETON7-10 | 2026-09-02 00:34:39 | 51.11582 | 17.71847 | 334° | 20km/h | 25613m | 2.7m/s | 0°C | 0% | 0hPa | 0V | 00:00:00 | 00:00:00 | 00:00:00 | |
| KRY50SP | 2026-09-02 00:34:38 | 51.11576 | 17.71853 | 304° | 31km/h | 25611m | 6.8m/s | 0°C | 0% | 0hPa | 0V | 00:00:00 | 00:00:00 | 00:00:00 | |
| KRY50SP | 2026-09-02 00:34:33 | 51.11565 | 17.71894 | 215° | 5km/h | 25583m | 6.3m/s | 0°C | 0% | 0hPa | 0V | 00:00:00 | 00:00:00 | 00:00:00 | |
| SQ6EMJ | 2026-09-02 00:34:27 | 51.11573 | 17.71931 | 283° | 13km/h | 25551m | 2.7m/s | 0°C | 0% | 0hPa | 0V | 00:00:00 | 00:00:00 | 00:00:00 | |
| POL1PZ | 2026-09-02 00:34:25 | 51.11576 | 17.71933 | 303° | 18km/h | 25547m | 11.5m/s | 0°C | 0% | 0hPa | 0V | 00:00:00 | 00:00:00 | 00:00:00 | |
| PETON7-10 | 2026-09-02 00:34:24 | 51.11577 | 17.71937 | 216° | 18km/h | 25536m | 7.5m/s | 0°C | 0% | 0hPa | 0V | 00:00:00 | 00:00:00 | 00:00:00 | |
| KRY50SP | 2026-09-02 00:34:23 | 51.11582 | 17.71942 | 227° | 29km/h | 25529m | 6.8m/s | 0°C | 0% | 0hPa | 0V | 00:00:00 | 00:00:00 | 00:00:00 | |
| SQ6EMJ | 2026-09-02 00:34:22 | 51.11586 | 17.71949 | 230° | 20km/h | 25521m | 6.9m/s | 0°C | 0% | 0hPa | 0V | 00:00:00 | 00:00:00 | 00:00:00 | |
| OE5DRO-10 | 2026-09-02 00:34:19 | 51.11593 | 17.71964 | 255° | 15km/h | 25507m | 3.9m/s | 0°C | 0% | 0hPa | 0V | 00:00:00 | 00:00:00 | 00:00:00 | |
| SQ6EMJ | 2026-09-02 00:34:16 | 51.11599 | 17.71986 | 246° | 15km/h | 25500m | 4.4m/s | 0°C | 0% | 0hPa | 0V | 00:00:00 | 00:00:00 | 00:00:00 | |
| KRY50SP | 2026-09-02 00:34:15 | 51.11601 | 17.71990 | 242° | 11km/h | 25496m | 6.3m/s | 0°C | 0% | 0hPa | 0V | 00:00:00 | 00:00:00 | 00:00:00 | |
| SQ6EMJ | 2026-09-02 00:34:10 | 51.11608 | 17.72014 | 253° | 22km/h | 25468m | 2.5m/s | 0°C | 0% | 0hPa | 0V | 00:00:00 | 00:00:00 | 00:00:00 | |
| PETON7-10 | 2026-09-02 00:34:08 | 51.11612 | 17.72028 | 155° | 13km/h | 25461m | 6.4m/s | 0°C | 0% | 0hPa | 0V | 00:00:00 | 00:00:00 | 00:00:00 | |
| POL1PZ | 2026-09-02 00:34:05 | 51.11615 | 17.72037 | 216° | 16km/h | 25441m | 8.3m/s | 0°C | 0% | 0hPa | 0V | 00:00:00 | 00:00:00 | 00:00:00 | |
| SQ6EMJ | 2026-09-02 00:34:00 | 51.11632 | 17.72045 | 266° | 5km/h | 25386m | 3.5m/s | 0°C | 0% | 0hPa | 0V | 00:00:00 | 00:00:00 | 00:00:00 | |
| SQ6EMJ | 2026-09-02 00:33:55 | 51.11643 | 17.72076 | 204° | 11km/h | 25351m | 3.3m/s | 0°C | 0% | 0hPa | 0V | 00:00:00 | 00:00:00 | 00:00:00 | |
| PETON7-10 | 2026-09-02 00:33:53 | 51.11648 | 17.72075 | 109° | 11km/h | 25345m | 2.8m/s | 0°C | 0% | 0hPa | 0V | 00:00:00 | 00:00:00 | 00:00:00 | |
| SQ6EMJ | 2026-09-02 00:33:48 | 51.11662 | 17.72089 | 239° | 7km/h | 25323m | 4.0m/s | 0°C | 0% | 0hPa | 0V | 00:00:00 | 00:00:00 | 00:00:00 | |
| SP3BTT-10 | 2026-09-02 00:33:46 | 51.11664 | 17.72092 | 160° | 11km/h | 25317m | 2.4m/s | 0°C | 0% | 0hPa | 0V | 00:00:00 | 00:00:00 | 00:00:00 | |
| POL1PZ | 2026-09-02 00:33:44 | 51.11668 | 17.72096 | 210° | 16km/h | 25308m | 5.6m/s | 0°C | 0% | 0hPa | 0V | 00:00:00 | 00:00:00 | 00:00:00 | |
| SQ6EMJ | 2026-09-02 00:33:43 | 51.11673 | 17.72101 | 184° | 9km/h | 25300m | 7.8m/s | 0°C | 0% | 0hPa | 0V | 00:00:00 | 00:00:00 | 00:00:00 | |
| OE5DRO-10 | 2026-09-02 00:33:41 | 51.11674 | 17.72101 | 287° | 11km/h | 25291m | 5.0m/s | 0°C | 0% | 0hPa | 0V | 00:00:00 | 00:00:00 | 00:00:00 | |
| KRY50SP | 2026-09-02 00:33:39 | 51.11674 | 17.72103 | 199° | 11km/h | 25280m | 4.9m/s | 0°C | 0% | 0hPa | 0V | 00:00:00 | 00:00:00 | 00:00:00 | |
| SQ6EMJ | 2026-09-02 00:33:37 | 51.11682 | 17.72104 | 126° | 11km/h | 25265m | 6.7m/s | 0°C | 0% | 0hPa | 0V | 00:00:00 | 00:00:00 | 00:00:00 | |
| KRY50SP | 2026-09-02 00:33:31 | 51.11687 | 17.72101 | 241° | 22km/h | 25228m | 5.5m/s | 0°C | 0% | 0hPa | 0V | 00:00:00 | 00:00:00 | 00:00:00 | |
| SQ6EMJ | 2026-09-02 00:33:25 | 51.11706 | 17.72100 | 169° | 5km/h | 25197m | 4.7m/s | 0°C | 0% | 0hPa | 0V | 00:00:00 | 00:00:00 | 00:00:00 | |
| OE5DRO-10 | 2026-09-02 00:33:23 | 51.11700 | 17.72100 | 12° | 9km/h | 25184m | 4.4m/s | 0°C | 0% | 0hPa | 0V | 00:00:00 | 00:00:00 | 00:00:00 | |
| PETON7-10 | 2026-09-02 00:33:22 | 51.11700 | 17.72100 | 12° | 11km/h | 25184m | 4.4m/s | 0°C | 0% | 0hPa | 0V | 00:00:00 | 00:00:00 | 00:00:00 | |
| SQ6EMJ | 2026-09-02 00:33:19 | 51.11702 | 17.72112 | 202° | 22km/h | 25169m | 7.1m/s | 0°C | 0% | 0hPa | 0V | 00:00:00 | 00:00:00 | 00:00:00 | |
| KRY50SP | 2026-09-02 00:33:16 | 51.11718 | 17.72108 | 137° | 20km/h | 25147m | 3.7m/s | 0°C | 0% | 0hPa | 0V | 00:00:00 | 00:00:00 | 00:00:00 | |
| SQ6EMJ | 2026-09-02 00:33:14 | 51.11721 | 17.72096 | 34° | 5km/h | 25137m | 4.0m/s | 0°C | 0% | 0hPa | 0V | 00:00:00 | 00:00:00 | 00:00:00 | |
| OK1SLM-15 | 2026-09-02 00:33:11 | 51.11723 | 17.72090 | 140° | 4km/h | 25118m | 4.5m/s | 0°C | 0% | 0hPa | 0V | 00:00:00 | 00:00:00 | 00:00:00 | |
| SQ6EMJ | 2026-09-02 00:33:08 | 51.11729 | 17.72090 | 219° | 13km/h | 25105m | 6.0m/s | 0°C | 0% | 0hPa | 0V | 00:00:00 | 00:00:00 | 00:00:00 | |
| KRY50SP | 2026-09-02 00:33:07 | 51.11731 | 17.72093 | 220° | 9km/h | 25099m | 5.7m/s | 0°C | 0% | 0hPa | 0V | 00:00:00 | 00:00:00 | 00:00:00 | |
| OK1SLM-15 | 2026-09-02 00:33:06 | 51.11734 | 17.72095 | 0° | 0km/h | 25093m | 5.4m/s | 0°C | 0% | 0hPa | 0V | 00:00:00 | 00:00:00 | 00:00:00 | |
| SQ6EMJ | 2026-09-02 00:33:03 | 51.11728 | 17.72082 | 41° | 15km/h | 25075m | 4.2m/s | 0°C | 0% | 0hPa | 0V | 00:00:00 | 00:00:00 | 00:00:00 | |
| POL1PZ | 2026-09-02 00:33:02 | 51.11726 | 17.72081 | 346° | 5km/h | 25069m | 4.9m/s | 0°C | 0% | 0hPa | 0V | 00:00:00 | 00:00:00 | 00:00:00 | |
| OK1SLM-15 | 2026-09-02 00:33:00 | 51.11726 | 17.72086 | 238° | 13km/h | 25059m | 6.2m/s | 0°C | 0% | 0hPa | 0V | 00:00:00 | 00:00:00 | 00:00:00 | |
| SQ6EMJ | 2026-09-02 00:32:57 | 51.11732 | 17.72088 | 181° | 9km/h | 25043m | 5.2m/s | 0°C | 0% | 0hPa | 0V | 00:00:00 | 00:00:00 | 00:00:00 | |
| KRY50SP | 2026-09-02 00:32:54 | 51.11732 | 17.72095 | 320° | 15km/h | 25025m | 4.6m/s | 0°C | 0% | 0hPa | 0V | 00:00:00 | 00:00:00 | 00:00:00 | |
| SQ6EMJ | 2026-09-02 00:32:51 | 51.11726 | 17.72094 | 354° | 5km/h | 25006m | 5.5m/s | 0°C | 0% | 0hPa | 0V | 00:00:00 | 00:00:00 | 00:00:00 | |
| PETON7-10 | 2026-09-02 00:32:50 | 51.11726 | 17.72094 | 215° | 13km/h | 24995m | 7.5m/s | 0°C | 0% | 0hPa | 0V | 00:00:00 | 00:00:00 | 00:00:00 | |
| KRY50SP | 2026-09-02 00:32:46 | 51.11729 | 17.72104 | 316° | 5km/h | 24970m | 4.1m/s | 0°C | 0% | 0hPa | 0V | 00:00:00 | 00:00:00 | 00:00:00 | |
| SQ6EMJ | 2026-09-02 00:32:45 | 51.11728 | 17.72106 | 318° | 15km/h | 24965m | 4.8m/s | 0°C | 0% | 0hPa | 0V | 00:00:00 | 00:00:00 | 00:00:00 | |
| POL1PZ | 2026-09-02 00:32:41 | 51.11718 | 17.72121 | 271° | 4km/h | 24942m | 7.2m/s | 0°C | 0% | 0hPa | 0V | 00:00:00 | 00:00:00 | 00:00:00 | |
| KRY50SP | 2026-09-02 00:32:40 | 51.11719 | 17.72120 | 180° | 7km/h | 24934m | 6.1m/s | 0°C | 0% | 0hPa | 0V | 00:00:00 | 00:00:00 | 00:00:00 | |
| SQ6EMJ | 2026-09-02 00:32:39 | 51.11720 | 17.72117 | 250° | 4km/h | 24924m | 2.5m/s | 0°C | 0% | 0hPa | 0V | 00:00:00 | 00:00:00 | 00:00:00 | |
| PETON7-10 | 2026-09-02 00:32:35 | 51.11716 | 17.72140 | 287° | 13km/h | 24909m | 3.7m/s | 0°C | 0% | 0hPa | 0V | 00:00:00 | 00:00:00 | 00:00:00 | |
| SQ6EMJ | 2026-09-02 00:32:33 | 51.11716 | 17.72147 | 305° | 5km/h | 24903m | 4.0m/s | 0°C | 0% | 0hPa | 0V | 00:00:00 | 00:00:00 | 00:00:00 | |
| SP3BTT-10 | 2026-09-02 00:32:31 | 51.11716 | 17.72160 | 289° | 20km/h | 24895m | 7.5m/s | 0°C | 0% | 0hPa | 0V | 00:00:00 | 00:00:00 | 00:00:00 | |
| SQ6EMJ | 2026-09-02 00:32:29 | 51.11715 | 17.72181 | 225° | 7km/h | 24877m | 7.5m/s | 0°C | 0% | 0hPa | 0V | 00:00:00 | 00:00:00 | 00:00:00 | |
| KRY50SP | 2026-09-02 00:32:28 | 51.11715 | 17.72181 | 225° | 7km/h | 24877m | 7.5m/s | 0°C | 0% | 0hPa | 0V | 00:00:00 | 00:00:00 | 00:00:00 | |
| KRY50SP | 2026-09-02 00:32:22 | 51.11717 | 17.72212 | 270° | 4km/h | 24832m | 5.1m/s | 0°C | 0% | 0hPa | 0V | 00:00:00 | 00:00:00 | 00:00:00 | |
| POL1PZ | 2026-09-02 00:32:21 | 51.11719 | 17.72212 | 197° | 11km/h | 24825m | 5.2m/s | 0°C | 0% | 0hPa | 0V | 00:00:00 | 00:00:00 | 00:00:00 | |
| PETON7-10 | 2026-09-02 00:32:20 | 51.11722 | 17.72214 | 214° | 15km/h | 24820m | 3.8m/s | 0°C | 0% | 0hPa | 0V | 00:00:00 | 00:00:00 | 00:00:00 | |
| SQ6EMJ | 2026-09-02 00:32:17 | 51.11730 | 17.72225 | 226° | 20km/h | 24810m | 4.6m/s | 0°C | 0% | 0hPa | 0V | 00:00:00 | 00:00:00 | 00:00:00 | |
| KRY50SP | 2026-09-02 00:32:16 | 51.11734 | 17.72230 | 219° | 15km/h | 24803m | 5.9m/s | 0°C | 0% | 0hPa | 0V | 00:00:00 | 00:00:00 | 00:00:00 | |
| SQ6EMJ | 2026-09-02 00:32:11 | 51.11749 | 17.72242 | 233° | 22km/h | 24777m | 3.7m/s | 0°C | 0% | 0hPa | 0V | 00:00:00 | 00:00:00 | 00:00:00 | |
| KRY50SP | 2026-09-02 00:32:09 | 51.11760 | 17.72246 | 196° | 18km/h | 24765m | 6.6m/s | 0°C | 0% | 0hPa | 0V | 00:00:00 | 00:00:00 | 00:00:00 | |
| SQ6EMJ | 2026-09-02 00:32:06 | 51.11771 | 17.72252 | 220° | 11km/h | 24743m | 5.4m/s | 0°C | 0% | 0hPa | 0V | 00:00:00 | 00:00:00 | 00:00:00 | |
| PETON7-10 | 2026-09-02 00:32:05 | 51.11775 | 17.72253 | 206° | 15km/h | 24738m | 6.1m/s | 0°C | 0% | 0hPa | 0V | 00:00:00 | 00:00:00 | 00:00:00 | |
| KRY50SP | 2026-09-02 00:32:03 | 51.11782 | 17.72256 | 212° | 11km/h | 24725m | 5.8m/s | 0°C | 0% | 0hPa | 0V | 00:00:00 | 00:00:00 | 00:00:00 | |
| SQ6EMJ | 2026-09-02 00:32:01 | 51.11789 | 17.72260 | 241° | 13km/h | 24714m | 5.5m/s | 0°C | 0% | 0hPa | 0V | 00:00:00 | 00:00:00 | 00:00:00 | |
| POL1PZ | 2026-09-02 00:32:00 | 51.11792 | 17.72264 | 206° | 18km/h | 24709m | 5.3m/s | 0°C | 0% | 0hPa | 0V | 00:00:00 | 00:00:00 | 00:00:00 | |
| SP4MAZ | 2026-09-02 00:31:59 | 51.11795 | 17.72266 | 190° | 15km/h | 24703m | 3.0m/s | 0°C | 0% | 0hPa | 0V | 00:00:00 | 00:00:00 | 00:00:00 | |
| SQ6EMJ | 2026-09-02 00:31:56 | 51.11811 | 17.72263 | 202° | 16km/h | 24682m | 6.5m/s | 0°C | 0% | 0hPa | 0V | 00:00:00 | 00:00:00 | 00:00:00 | |
| KRY50SP | 2026-09-02 00:31:51 | 51.11832 | 17.72266 | 195° | 15km/h | 24644m | 3.5m/s | 0°C | 0% | 0hPa | 0V | 00:00:00 | 00:00:00 | 00:00:00 | |
| PETON7-10 | 2026-09-02 00:31:50 | 51.11831 | 17.72266 | 195° | 18km/h | 24644m | 3.5m/s | 0°C | 0% | 0hPa | 0V | 00:00:00 | 00:00:00 | 00:00:00 | |
| SQ6EMJ | 2026-09-02 00:31:49 | 51.11836 | 17.72267 | 196° | 18km/h | 24637m | 2.8m/s | 0°C | 0% | 0hPa | 0V | 00:00:00 | 00:00:00 | 00:00:00 | |
| KRY50SP | 2026-09-02 00:31:44 | 51.11862 | 17.72263 | 147° | 18km/h | 24621m | 1.9m/s | 0°C | 0% | 0hPa | 0V | 00:00:00 | 00:00:00 | 00:00:00 | |
| KRY50SP | 2026-09-02 00:31:39 | 51.11887 | 17.72245 | 172° | 27km/h | 24588m | 6.3m/s | 0°C | 0% | 0hPa | 0V | 00:00:00 | 00:00:00 | 00:00:00 | |
| PETON7-10 | 2026-09-02 00:31:35 | 51.11906 | 17.72240 | 168° | 20km/h | 24571m | 4.3m/s | 0°C | 0% | 0hPa | 0V | 00:00:00 | 00:00:00 | 00:00:00 | |
| SQ6EMJ | 2026-09-02 00:31:33 | 51.11916 | 17.72227 | 135° | 20km/h | 24559m | 4.8m/s | 0°C | 0% | 0hPa | 0V | 00:00:00 | 00:00:00 | 00:00:00 | |
| KRY50SP | 2026-09-02 00:31:31 | 51.11922 | 17.72215 | 154° | 20km/h | 24549m | 5.9m/s | 0°C | 0% | 0hPa | 0V | 00:00:00 | 00:00:00 | 00:00:00 | |
| SP3BTT-10 | 2026-09-02 00:31:30 | 51.11928 | 17.72213 | 173° | 27km/h | 24543m | 5.0m/s | 0°C | 0% | 0hPa | 0V | 00:00:00 | 00:00:00 | 00:00:00 | |
| SQ6EMJ | 2026-09-02 00:31:27 | 51.11945 | 17.72201 | 146° | 22km/h | 24528m | 4.7m/s | 0°C | 0% | 0hPa | 0V | 00:00:00 | 00:00:00 | 00:00:00 | |
| KRY50SP | 2026-09-02 00:31:24 | 51.11957 | 17.72184 | 183° | 11km/h | 24502m | 4.1m/s | 0°C | 0% | 0hPa | 0V | 00:00:00 | 00:00:00 | 00:00:00 | |
| SQ6EMJ | 2026-09-02 00:31:21 | 51.11973 | 17.72175 | 154° | 31km/h | 24491m | 4.4m/s | 0°C | 0% | 0hPa | 0V | 00:00:00 | 00:00:00 | 00:00:00 | |
| PETON7-10 | 2026-09-02 00:31:20 | 51.11980 | 17.72171 | 151° | 22km/h | 24488m | 5.9m/s | 0°C | 0% | 0hPa | 0V | 00:00:00 | 00:00:00 | 00:00:00 | |
| POL1PZ | 2026-09-02 00:31:18 | 51.11995 | 17.72161 | 167° | 18km/h | 24474m | 5.8m/s | 0°C | 0% | 0hPa | 0V | 00:00:00 | 00:00:00 | 00:00:00 | |
| KRY50SP | 2026-09-02 00:31:17 | 51.12001 | 17.72161 | 156° | 24km/h | 24470m | 6.3m/s | 0°C | 0% | 0hPa | 0V | 00:00:00 | 00:00:00 | 00:00:00 | |
| SQ6EMJ | 2026-09-02 00:31:16 | 51.12006 | 17.72156 | 135° | 20km/h | 24464m | 5.0m/s | 0°C | 0% | 0hPa | 0V | 00:00:00 | 00:00:00 | 00:00:00 | |
| SQ6EMJ | 2026-09-02 00:31:10 | 51.12025 | 17.72120 | 127° | 29km/h | 24432m | 9.1m/s | 0°C | 0% | 0hPa | 0V | 00:00:00 | 00:00:00 | 00:00:00 | |
| KRY50SP | 2026-09-02 00:31:09 | 51.12032 | 17.72109 | 132° | 49km/h | 24424m | 6.9m/s | 0°C | 0% | 0hPa | 0V | 00:00:00 | 00:00:00 | 00:00:00 | |
| PETON7-10 | 2026-09-02 00:31:04 | 51.12057 | 17.72073 | 113° | 27km/h | 24390m | 6.4m/s | 0°C | 0% | 0hPa | 0V | 00:00:00 | 00:00:00 | 00:00:00 | |
| KRY50SP | 2026-09-02 00:31:03 | 51.12059 | 17.72063 | 106° | 27km/h | 24383m | 4.8m/s | 0°C | 0% | 0hPa | 0V | 00:00:00 | 00:00:00 | 00:00:00 | |
| SQ6EMJ | 2026-09-02 00:30:59 | 51.12075 | 17.72026 | 129° | 27km/h | 24360m | 5.4m/s | 0°C | 0% | 0hPa | 0V | 00:00:00 | 00:00:00 | 00:00:00 | |
| KRY50SP | 2026-09-02 00:30:57 | 51.12082 | 17.72002 | 109° | 29km/h | 24345m | 4.4m/s | 0°C | 0% | 0hPa | 0V | 00:00:00 | 00:00:00 | 00:00:00 | |
| SQ6EMJ | 2026-09-02 00:30:53 | 51.12089 | 17.71968 | 97° | 20km/h | 24326m | 3.8m/s | 0°C | 0% | 0hPa | 0V | 00:00:00 | 00:00:00 | 00:00:00 | |
| KRY50SP | 2026-09-02 00:30:50 | 51.12095 | 17.71932 | 120° | 31km/h | 24310m | 6.0m/s | 0°C | 0% | 0hPa | 0V | 00:00:00 | 00:00:00 | 00:00:00 | |
| PETON7-10 | 2026-09-02 00:30:48 | 51.12104 | 17.71912 | 130° | 29km/h | 24298m | 6.1m/s | 0°C | 0% | 0hPa | 0V | 00:00:00 | 00:00:00 | 00:00:00 | |
| SQ6EMJ | 2026-09-02 00:30:47 | 51.12108 | 17.71903 | 118° | 27km/h | 24291m | 4.0m/s | 0°C | 0% | 0hPa | 0V | 00:00:00 | 00:00:00 | 00:00:00 | |
| KRY50SP | 2026-09-02 00:30:45 | 51.12109 | 17.71880 | 86° | 33km/h | 24279m | 4.5m/s | 0°C | 0% | 0hPa | 0V | 00:00:00 | 00:00:00 | 00:00:00 | |
| SQ6EMJ | 2026-09-02 00:30:42 | 51.12107 | 17.71842 | 101° | 26km/h | 24260m | 4.2m/s | 0°C | 0% | 0hPa | 0V | 00:00:00 | 00:00:00 | 00:00:00 | |
| POL1PZ | 2026-09-02 00:30:37 | 51.12119 | 17.71781 | 94° | 27km/h | 24236m | 5.3m/s | 0°C | 0% | 0hPa | 0V | 00:00:00 | 00:00:00 | 00:00:00 | |
| PETON7-10 | 2026-09-02 00:30:33 | 51.12109 | 17.71733 | 82° | 31km/h | 24216m | 3.1m/s | 0°C | 0% | 0hPa | 0V | 00:00:00 | 00:00:00 | 00:00:00 | |
| KRY50SP | 2026-09-02 00:30:31 | 51.12110 | 17.71702 | 113° | 31km/h | 24209m | 5.8m/s | 0°C | 0% | 0hPa | 0V | 00:00:00 | 00:00:00 | 00:00:00 | |
| SP4MAZ | 2026-09-02 00:30:28 | 51.12119 | 17.71673 | 97° | 27km/h | 24192m | 6.5m/s | 0°C | 0% | 0hPa | 0V | 00:00:00 | 00:00:00 | 00:00:00 | |
| KRY50SP | 2026-09-02 00:30:25 | 51.12112 | 17.71628 | 65° | 40km/h | 24171m | 4.6m/s | 0°C | 0% | 0hPa | 0V | 00:00:00 | 00:00:00 | 00:00:00 | |
| SQ6EMJ | 2026-09-02 00:30:24 | 51.12107 | 17.71614 | 66° | 33km/h | 24165m | 6.2m/s | 0°C | 0% | 0hPa | 0V | 00:00:00 | 00:00:00 | 00:00:00 | |
| KRY50SP | 2026-09-02 00:30:18 | 51.12102 | 17.71540 | 53° | 20km/h | 24129m | 6.5m/s | 0°C | 0% | 0hPa | 0V | 00:00:00 | 00:00:00 | 00:00:00 | |
| POL1PZ | 2026-09-02 00:30:17 | 51.12098 | 17.71535 | 36° | 26km/h | 24124m | 5.8m/s | 0°C | 0% | 0hPa | 0V | 00:00:00 | 00:00:00 | 00:00:00 | |
| SP3BTT-10 | 2026-09-02 00:30:15 | 51.12093 | 17.71526 | 50° | 15km/h | 24119m | 5.3m/s | 0°C | 0% | 0hPa | 0V | 00:00:00 | 00:00:00 | 00:00:00 | |
| SQ6EMJ | 2026-09-02 00:30:12 | 51.12089 | 17.71492 | 73° | 18km/h | 24103m | 5.4m/s | 0°C | 0% | 0hPa | 0V | 00:00:00 | 00:00:00 | 00:00:00 | |
| KRY50SP | 2026-09-02 00:30:10 | 51.12088 | 17.71480 | 96° | 15km/h | 24094m | 4.1m/s | 0°C | 0% | 0hPa | 0V | 00:00:00 | 00:00:00 | 00:00:00 | |
| SQ6EMJ | 2026-09-02 00:30:06 | 51.12088 | 17.71448 | 74° | 18km/h | 24073m | 7.2m/s | 0°C | 0% | 0hPa | 0V | 00:00:00 | 00:00:00 | 00:00:00 | |
| PETON7-10 | 2026-09-02 00:30:03 | 51.12078 | 17.71437 | 39° | 18km/h | 24052m | 6.2m/s | 0°C | 0% | 0hPa | 0V | 00:00:00 | 00:00:00 | 00:00:00 | |
| SQ6EMJ | 2026-09-02 00:30:00 | 51.12071 | 17.71417 | 77° | 16km/h | 24039m | 6.3m/s | 0°C | 0% | 0hPa | 0V | 00:00:00 | 00:00:00 | 00:00:00 | |
| KRY50SP | 2026-09-02 00:29:58 | 51.12069 | 17.71406 | 60° | 13km/h | 24024m | 5.2m/s | 0°C | 0% | 0hPa | 0V | 00:00:00 | 00:00:00 | 00:00:00 | |
| POL1PZ | 2026-09-02 00:29:56 | 51.12066 | 17.71389 | 77° | 24km/h | 24009m | 4.0m/s | 0°C | 0% | 0hPa | 0V | 00:00:00 | 00:00:00 | 00:00:00 | |
| SQ6EMJ | 2026-09-02 00:29:54 | 51.12058 | 17.71375 | 28° | 16km/h | 24001m | 4.5m/s | 0°C | 0% | 0hPa | 0V | 00:00:00 | 00:00:00 | 00:00:00 | |
| KRY50SP | 2026-09-02 00:29:52 | 51.12052 | 17.71370 | 21° | 22km/h | 23991m | 6.4m/s | 0°C | 0% | 0hPa | 0V | 00:00:00 | 00:00:00 | 00:00:00 | |
| OE5DRO-10 | 2026-09-02 00:29:49 | 51.12045 | 17.71350 | 72° | 13km/h | 23969m | 6.2m/s | 0°C | 0% | 0hPa | 0V | 00:00:00 | 00:00:00 | 00:00:00 | |
| SQ6EMJ | 2026-09-02 00:29:48 | 51.12044 | 17.71346 | 35° | 9km/h | 23960m | 6.7m/s | 0°C | 0% | 0hPa | 0V | 00:00:00 | 00:00:00 | 00:00:00 | |
| PETON7-10 | 2026-09-02 00:29:47 | 51.12043 | 17.71346 | 323° | 13km/h | 23952m | 4.8m/s | 0°C | 0% | 0hPa | 0V | 00:00:00 | 00:00:00 | 00:00:00 | |
| SQ6EMJ | 2026-09-02 00:29:42 | 51.12033 | 17.71340 | 36° | 24km/h | 23912m | -0.3m/s | 0°C | 0% | 0hPa | 0V | 00:00:00 | 00:00:00 | 00:00:00 | |
| KRY50SP | 2026-09-02 00:29:41 | 51.12029 | 17.71334 | 37° | 18km/h | 23916m | -1.1m/s | 0°C | 0% | 0hPa | 0V | 00:00:00 | 00:00:00 | 00:00:00 | |
| SQ6EMJ | 2026-09-02 00:29:36 | 51.12019 | 17.71312 | 340° | 7km/h | 23900m | 5.4m/s | 0°C | 0% | 0hPa | 0V | 00:00:00 | 00:00:00 | 00:00:00 | |
| POL1PZ | 2026-09-02 00:29:35 | 51.12018 | 17.71312 | 353° | 4km/h | 23894m | 2.6m/s | 0°C | 0% | 0hPa | 0V | 00:00:00 | 00:00:00 | 00:00:00 | |
| KRY50SP | 2026-09-02 00:29:34 | 51.12017 | 17.71311 | 36° | 9km/h | 23892m | 4.4m/s | 0°C | 0% | 0hPa | 0V | 00:00:00 | 00:00:00 | 00:00:00 | |
| PETON7-10 | 2026-09-02 00:29:33 | 51.12013 | 17.71303 | 37° | 13km/h | 23883m | 5.7m/s | 0°C | 0% | 0hPa | 0V | 00:00:00 | 00:00:00 | 00:00:00 | |
| SQ6EMJ | 2026-09-02 00:29:31 | 51.12006 | 17.71294 | 29° | 20km/h | 23868m | 4.6m/s | 0°C | 0% | 0hPa | 0V | 00:00:00 | 00:00:00 | 00:00:00 | |
| OE5DRO-10 | 2026-09-02 00:29:30 | 51.12006 | 17.71294 | 28° | 11km/h | 23868m | 4.5m/s | 0°C | 0% | 0hPa | 0V | 00:00:00 | 00:00:00 | 00:00:00 | |
| KRY50SP | 2026-09-02 00:29:27 | 51.11995 | 17.71281 | 54° | 15km/h | 23848m | 4.1m/s | 0°C | 0% | 0hPa | 0V | 00:00:00 | 00:00:00 | 00:00:00 | |
| SQ6EMJ | 2026-09-02 00:29:25 | 51.11992 | 17.71277 | 331° | 2km/h | 23836m | 7.3m/s | 0°C | 0% | 0hPa | 0V | 00:00:00 | 00:00:00 | 00:00:00 | |
| KRY50SP | 2026-09-02 00:29:22 | 51.11992 | 17.71274 | 77° | 15km/h | 23820m | 4.2m/s | 0°C | 0% | 0hPa | 0V | 00:00:00 | 00:00:00 | 00:00:00 | |
| SQ6EMJ | 2026-09-02 00:29:19 | 51.11982 | 17.71257 | 1° | 16km/h | 23806m | 5.3m/s | 0°C | 0% | 0hPa | 0V | 00:00:00 | 00:00:00 | 00:00:00 | |
| PETON7-10 | 2026-09-02 00:29:16 | 51.11974 | 17.71258 | 83° | 7km/h | 23789m | 5.6m/s | 0°C | 0% | 0hPa | 0V | 00:00:00 | 00:00:00 | 00:00:00 | |
| POL1PZ | 2026-09-02 00:29:15 | 51.11975 | 17.71256 | 127° | 7km/h | 23784m | 4.5m/s | 0°C | 0% | 0hPa | 0V | 00:00:00 | 00:00:00 | 00:00:00 | |
| SQ6EMJ | 2026-09-02 00:29:14 | 51.11975 | 17.71253 | 14° | 5km/h | 23780m | 4.4m/s | 0°C | 0% | 0hPa | 0V | 00:00:00 | 00:00:00 | 00:00:00 | |
| KRY50SP | 2026-09-02 00:29:10 | 51.11968 | 17.71249 | 81° | 16km/h | 23761m | 5.5m/s | 0°C | 0% | 0hPa | 0V | 00:00:00 | 00:00:00 | 00:00:00 | |
| OE5DRO-10 | 2026-09-02 00:29:09 | 51.11967 | 17.71242 | 73° | 15km/h | 23756m | 3.1m/s | 0°C | 0% | 0hPa | 0V | 00:00:00 | 00:00:00 | 00:00:00 | |
| KRY50SP | 2026-09-02 00:29:05 | 51.11967 | 17.71233 | 134° | 13km/h | 23730m | 7.3m/s | 0°C | 0% | 0hPa | 0V | 00:00:00 | 00:00:00 | 00:00:00 | |
| SQ6EMJ | 2026-09-02 00:29:04 | 51.11970 | 17.71230 | 123° | 13km/h | 23722m | 7.3m/s | 0°C | 0% | 0hPa | 0V | 00:00:00 | 00:00:00 | 00:00:00 | |
| OK1SLM-15 | 2026-09-02 00:29:02 | 51.11973 | 17.71219 | 88° | 7km/h | 23709m | 5.8m/s | 0°C | 0% | 0hPa | 0V | 00:00:00 | 00:00:00 | 00:00:00 | |
| PETON7-10 | 2026-09-02 00:29:00 | 51.11972 | 17.71213 | 63° | 11km/h | 23699m | 3.9m/s | 0°C | 0% | 0hPa | 0V | 00:00:00 | 00:00:00 | 00:00:00 | |
| KRY50SP | 2026-09-02 00:28:58 | 51.11970 | 17.71202 | 90° | 9km/h | 23692m | 2.4m/s | 0°C | 0% | 0hPa | 0V | 00:00:00 | 00:00:00 | 00:00:00 | |
| OK1SLM-15 | 2026-09-02 00:28:57 | 51.11971 | 17.71198 | 136° | 13km/h | 23691m | 4.5m/s | 0°C | 0% | 0hPa | 0V | 00:00:00 | 00:00:00 | 00:00:00 | |
| POL1PZ | 2026-09-02 00:28:55 | 51.11975 | 17.71198 | 199° | 16km/h | 23680m | 4.2m/s | 0°C | 0% | 0hPa | 0V | 00:00:00 | 00:00:00 | 00:00:00 | |
| KRY50SP | 2026-09-02 00:28:53 | 51.11980 | 17.71199 | 141° | 13km/h | 23671m | 8.1m/s | 0°C | 0% | 0hPa | 0V | 00:00:00 | 00:00:00 | 00:00:00 | |
| OK1SLM-15 | 2026-09-02 00:28:50 | 51.11987 | 17.71182 | 96° | 5km/h | 23649m | 7.2m/s | 0°C | 0% | 0hPa | 0V | 00:00:00 | 00:00:00 | 00:00:00 | |
| SQ6EMJ | 2026-09-02 00:28:48 | 51.11986 | 17.71177 | 90° | 7km/h | 23636m | 6.5m/s | 0°C | 0% | 0hPa | 0V | 00:00:00 | 00:00:00 | 00:00:00 | |
| KRY50SP | 2026-09-02 00:28:47 | 51.11986 | 17.71174 | 125° | 11km/h | 23628m | 7.2m/s | 0°C | 0% | 0hPa | 0V | 00:00:00 | 00:00:00 | 00:00:00 | |
| PETON7-10 | 2026-09-02 00:28:44 | 51.11991 | 17.71165 | 23° | 11km/h | 23614m | 6.7m/s | 0°C | 0% | 0hPa | 0V | 00:00:00 | 00:00:00 | 00:00:00 | |
| SQ6EMJ | 2026-09-02 00:28:42 | 51.11989 | 17.71162 | 84° | 5km/h | 23602m | 6.5m/s | 0°C | 0% | 0hPa | 0V | 00:00:00 | 00:00:00 | 00:00:00 | |
| KRY50SP | 2026-09-02 00:28:41 | 51.11989 | 17.71158 | 95° | 11km/h | 23595m | 5.0m/s | 0°C | 0% | 0hPa | 0V | 00:00:00 | 00:00:00 | 00:00:00 | |
| SQ6EMJ | 2026-09-02 00:28:37 | 51.11983 | 17.71146 | 40° | 7km/h | 23579m | 4.5m/s | 0°C | 0% | 0hPa | 0V | 00:00:00 | 00:00:00 | 00:00:00 | |
| SP4MAZ | 2026-09-02 00:28:36 | 51.11982 | 17.71145 | 55° | 5km/h | 23574m | 6.4m/s | 0°C | 0% | 0hPa | 0V | 00:00:00 | 00:00:00 | 00:00:00 | |
| POL1PZ | 2026-09-02 00:28:34 | 51.11986 | 17.71140 | 129° | 11km/h | 23565m | 2.7m/s | 0°C | 0% | 0hPa | 0V | 00:00:00 | 00:00:00 | 00:00:00 | |
| SQ6EMJ | 2026-09-02 00:28:31 | 51.11983 | 17.71130 | 91° | 13km/h | 23558m | 5.6m/s | 0°C | 0% | 0hPa | 0V | 00:00:00 | 00:00:00 | 00:00:00 | |
| OE5DRO-10 | 2026-09-02 00:28:29 | 51.11984 | 17.71115 | 83° | 13km/h | 23551m | 8.9m/s | 0°C | 0% | 0hPa | 0V | 00:00:00 | 00:00:00 | 00:00:00 | |
| KRY50SP | 2026-09-02 00:28:28 | 51.11984 | 17.71115 | 84° | 9km/h | 23551m | 8.9m/s | 0°C | 0% | 0hPa | 0V | 00:00:00 | 00:00:00 | 00:00:00 | |
| SQ6EMJ | 2026-09-02 00:28:25 | 51.11982 | 17.71104 | 25° | 7km/h | 23523m | 7.3m/s | 0°C | 0% | 0hPa | 0V | 00:00:00 | 00:00:00 | 00:00:00 | |
| PETON7-10 | 2026-09-02 00:28:24 | 51.11981 | 17.71102 | 75° | 20km/h | 23515m | 7.1m/s | 0°C | 0% | 0hPa | 0V | 00:00:00 | 00:00:00 | 00:00:00 | |
| KRY50SP | 2026-09-02 00:28:23 | 51.11982 | 17.71099 | 115° | 13km/h | 23509m | 5.2m/s | 0°C | 0% | 0hPa | 0V | 00:00:00 | 00:00:00 | 00:00:00 | |
| SQ6EMJ | 2026-09-02 00:28:20 | 51.11983 | 17.71081 | 62° | 27km/h | 23491m | 6.0m/s | 0°C | 0% | 0hPa | 0V | 00:00:00 | 00:00:00 | 00:00:00 | |
| KRY50SP | 2026-09-02 00:28:17 | 51.11979 | 17.71054 | 62° | 16km/h | 23469m | 5.4m/s | 0°C | 0% | 0hPa | 0V | 00:00:00 | 00:00:00 | 00:00:00 | |
| POL1PZ | 2026-09-02 00:28:14 | 51.11969 | 17.71051 | 338° | 16km/h | 23447m | 3.4m/s | 0°C | 0% | 0hPa | 0V | 00:00:00 | 00:00:00 | 00:00:00 | |
| KRY50SP | 2026-09-02 00:28:11 | 51.11969 | 17.71041 | 72° | 16km/h | 23428m | 4.4m/s | 0°C | 0% | 0hPa | 0V | 00:00:00 | 00:00:00 | 00:00:00 | |
| SQ6EMJ | 2026-09-02 00:28:09 | 51.11962 | 17.71027 | 43° | 27km/h | 23415m | 2.6m/s | 0°C | 0% | 0hPa | 0V | 00:00:00 | 00:00:00 | 00:00:00 | |
| PETON7-10 | 2026-09-02 00:28:08 | 51.11957 | 17.71020 | 32° | 18km/h | 23412m | 4.5m/s | 0°C | 0% | 0hPa | 0V | 00:00:00 | 00:00:00 | 00:00:00 | |
| SQ6EMJ | 2026-09-02 00:28:04 | 51.11936 | 17.71027 | 357° | 18km/h | 23379m | 3.6m/s | 0°C | 0% | 0hPa | 0V | 00:00:00 | 00:00:00 | 00:00:00 | |
| KRY50SP | 2026-09-02 00:27:59 | 51.11919 | 17.71004 | 48° | 20km/h | 23360m | 5.4m/s | 0°C | 0% | 0hPa | 0V | 00:00:00 | 00:00:00 | 00:00:00 | |
| SQ6EMJ | 2026-09-02 00:27:57 | 51.11912 | 17.70998 | 352° | 15km/h | 23349m | 4.1m/s | 0°C | 0% | 0hPa | 0V | 00:00:00 | 00:00:00 | 00:00:00 | |
| POL1PZ | 2026-09-02 00:27:54 | 51.11907 | 17.71003 | 350° | 7km/h | 23332m | 1.9m/s | 0°C | 0% | 0hPa | 0V | 00:00:00 | 00:00:00 | 00:00:00 | |
| PETON7-10 | 2026-09-02 00:27:51 | 51.11895 | 17.70996 | 36° | 15km/h | 23315m | 5.4m/s | 0°C | 0% | 0hPa | 0V | 00:00:00 | 00:00:00 | 00:00:00 | |
| KRY50SP | 2026-09-02 00:27:49 | 51.11887 | 17.70984 | 28° | 22km/h | 23304m | 6.2m/s | 0°C | 0% | 0hPa | 0V | 00:00:00 | 00:00:00 | 00:00:00 | |
| SQ6EMJ | 2026-09-02 00:27:46 | 51.11879 | 17.70986 | 300° | 18km/h | 23289m | 1.7m/s | 0°C | 0% | 0hPa | 0V | 00:00:00 | 00:00:00 | 00:00:00 | |
| SP3BTT-10 | 2026-09-02 00:27:44 | 51.11875 | 17.70994 | 338° | 15km/h | 23281m | 3.7m/s | 0°C | 0% | 0hPa | 0V | 00:00:00 | 00:00:00 | 00:00:00 | |
| SQ6EMJ | 2026-09-02 00:27:40 | 51.11861 | 17.70983 | 21° | 29km/h | 23260m | 5.3m/s | 0°C | 0% | 0hPa | 0V | 00:00:00 | 00:00:00 | 00:00:00 | |
| KRY50SP | 2026-09-02 00:27:38 | 51.11852 | 17.70976 | 17° | 11km/h | 23250m | 6.6m/s | 0°C | 0% | 0hPa | 0V | 00:00:00 | 00:00:00 | 00:00:00 | |
| PETON7-10 | 2026-09-02 00:27:34 | 51.11845 | 17.70987 | 312° | 13km/h | 23220m | 5.3m/s | 0°C | 0% | 0hPa | 0V | 00:00:00 | 00:00:00 | 00:00:00 | |
| POL1PZ | 2026-09-02 00:27:33 | 51.11842 | 17.70992 | 341° | 11km/h | 23212m | 5.8m/s | 0°C | 0% | 0hPa | 0V | 00:00:00 | 00:00:00 | 00:00:00 | |
| SQ6EMJ | 2026-09-02 00:27:29 | 51.11826 | 17.70993 | 13° | 22km/h | 23191m | 3.2m/s | 0°C | 0% | 0hPa | 0V | 00:00:00 | 00:00:00 | 00:00:00 | |
| KRY50SP | 2026-09-02 00:27:28 | 51.11822 | 17.70992 | 346° | 20km/h | 23190m | 1.7m/s | 0°C | 0% | 0hPa | 0V | 00:00:00 | 00:00:00 | 00:00:00 | |
| OE5DRO-10 | 2026-09-02 00:27:25 | 51.11817 | 17.71003 | 323° | 15km/h | 23171m | 6.3m/s | 0°C | 0% | 0hPa | 0V | 00:00:00 | 00:00:00 | 00:00:00 | |
| SQ6EMJ | 2026-09-02 00:27:23 | 51.11817 | 17.71003 | 323° | 13km/h | 23171m | 6.3m/s | 0°C | 0% | 0hPa | 0V | 00:00:00 | 00:00:00 | 00:00:00 | |
| SQ6EMJ | 2026-09-02 00:27:18 | 51.11805 | 17.70995 | 227° | 5km/h | 23144m | 5.4m/s | 0°C | 0% | 0hPa | 0V | 00:00:00 | 00:00:00 | 00:00:00 | |
| KRY50SP | 2026-09-02 00:27:17 | 51.11805 | 17.70996 | 320° | 9km/h | 23139m | 5.9m/s | 0°C | 0% | 0hPa | 0V | 00:00:00 | 00:00:00 | 00:00:00 | |
| POL1PZ | 2026-09-02 00:27:13 | 51.11809 | 17.71005 | 109° | 4km/h | 23117m | 6.0m/s | 0°C | 0% | 0hPa | 0V | 00:00:00 | 00:00:00 | 00:00:00 | |
| KRY50SP | 2026-09-02 00:27:12 | 51.11808 | 17.71003 | 26° | 11km/h | 23112m | 7.6m/s | 0°C | 0% | 0hPa | 0V | 00:00:00 | 00:00:00 | 00:00:00 | |
| PETON7-10 | 2026-09-02 00:27:10 | 51.11802 | 17.71006 | 2° | 7km/h | 23097m | 4.9m/s | 0°C | 0% | 0hPa | 0V | 00:00:00 | 00:00:00 | 00:00:00 | |
| KRY50SP | 2026-09-02 00:27:06 | 51.11801 | 17.71002 | 65° | 5km/h | 23074m | 5.8m/s | 0°C | 0% | 0hPa | 0V | 00:00:00 | 00:00:00 | 00:00:00 | |
| SQ6EMJ | 2026-09-02 00:27:01 | 51.11802 | 17.70990 | 72° | 11km/h | 23047m | 4.3m/s | 0°C | 0% | 0hPa | 0V | 00:00:00 | 00:00:00 | 00:00:00 | |
| KRY50SP | 2026-09-02 00:27:00 | 51.11801 | 17.70985 | 66° | 15km/h | 23042m | 7.0m/s | 0°C | 0% | 0hPa | 0V | 00:00:00 | 00:00:00 | 00:00:00 | |
| SQ6EMJ | 2026-09-02 00:26:55 | 51.11797 | 17.70976 | 127° | 9km/h | 23025m | 4.1m/s | 0°C | 0% | 0hPa | 0V | 00:00:00 | 00:00:00 | 00:00:00 | |
| PETON7-10 | 2026-09-02 00:26:54 | 51.11798 | 17.70973 | 93° | 13km/h | 23022m | 5.8m/s | 0°C | 0% | 0hPa | 0V | 00:00:00 | 00:00:00 | 00:00:00 | |
| POL1PZ | 2026-09-02 00:26:52 | 51.11796 | 17.70964 | 80° | 16km/h | 23012m | 5.8m/s | 0°C | 0% | 0hPa | 0V | 00:00:00 | 00:00:00 | 00:00:00 | |
| SQ6EMJ | 2026-09-02 00:26:50 | 51.11797 | 17.70953 | 103° | 20km/h | 23004m | 11.4m/s | 0°C | 0% | 0hPa | 0V | 00:00:00 | 00:00:00 | 00:00:00 | |
| KRY50SP | 2026-09-02 00:26:49 | 51.11798 | 17.70945 | 104° | 15km/h | 22990m | 8.1m/s | 0°C | 0% | 0hPa | 0V | 00:00:00 | 00:00:00 | 00:00:00 | |
| KRY50SP | 2026-09-02 00:26:44 | 51.11795 | 17.70927 | 107° | 16km/h | 22954m | 5.4m/s | 0°C | 0% | 0hPa | 0V | 00:00:00 | 00:00:00 | 00:00:00 | |
| KRY50SP | 2026-09-02 00:26:39 | 51.11787 | 17.70893 | 76° | 7km/h | 22929m | 7.3m/s | 0°C | 0% | 0hPa | 0V | 00:00:00 | 00:00:00 | 00:00:00 | |
| PETON7-10 | 2026-09-02 00:26:37 | 51.11789 | 17.70885 | 125° | 15km/h | 22914m | 5.0m/s | 0°C | 0% | 0hPa | 0V | 00:00:00 | 00:00:00 | 00:00:00 | |
| KRY50SP | 2026-09-02 00:26:33 | 51.11782 | 17.70867 | 43° | 18km/h | 22890m | 5.5m/s | 0°C | 0% | 0hPa | 0V | 00:00:00 | 00:00:00 | 00:00:00 | |
| POL1PZ | 2026-09-02 00:26:32 | 51.11779 | 17.70861 | 35° | 24km/h | 22885m | 5.8m/s | 0°C | 0% | 0hPa | 0V | 00:00:00 | 00:00:00 | 00:00:00 | |
| SP3BTT-10 | 2026-09-02 00:26:29 | 51.11768 | 17.70854 | 350° | 15km/h | 22873m | 5.2m/s | 0°C | 0% | 0hPa | 0V | 00:00:00 | 00:00:00 | 00:00:00 | |
| KRY50SP | 2026-09-02 00:26:27 | 51.11762 | 17.70856 | 1° | 7km/h | 22863m | 6.4m/s | 0°C | 0% | 0hPa | 0V | 00:00:00 | 00:00:00 | 00:00:00 | |
| SP4MAZ | 2026-09-02 00:26:23 | 51.11747 | 17.70847 | 17° | 22km/h | 22840m | 5.8m/s | 0°C | 0% | 0hPa | 0V | 00:00:00 | 00:00:00 | 00:00:00 | |
| PETON7-10 | 2026-09-02 00:26:22 | 51.11741 | 17.70845 | 19° | 18km/h | 22835m | 4.9m/s | 0°C | 0% | 0hPa | 0V | 00:00:00 | 00:00:00 | 00:00:00 | |
| KRY50SP | 2026-09-02 00:26:21 | 51.11737 | 17.70843 | 16° | 16km/h | 22829m | 6.3m/s | 0°C | 0% | 0hPa | 0V | 00:00:00 | 00:00:00 | 00:00:00 | |
| KRY50SP | 2026-09-02 00:26:15 | 51.11719 | 17.70860 | 346° | 9km/h | 22798m | 8.0m/s | 0°C | 0% | 0hPa | 0V | 00:00:00 | 00:00:00 | 00:00:00 | |
| POL1PZ | 2026-09-02 00:26:12 | 51.11708 | 17.70860 | 356° | 29km/h | 22778m | 8.7m/s | 0°C | 0% | 0hPa | 0V | 00:00:00 | 00:00:00 | 00:00:00 | |
| SQ6EMJ | 2026-09-02 00:26:10 | 51.11698 | 17.70862 | 348° | 20km/h | 22761m | 5.9m/s | 0°C | 0% | 0hPa | 0V | 00:00:00 | 00:00:00 | 00:00:00 | |
| KRY50SP | 2026-09-02 00:26:09 | 51.11694 | 17.70865 | 336° | 16km/h | 22753m | 5.6m/s | 0°C | 0% | 0hPa | 0V | 00:00:00 | 00:00:00 | 00:00:00 | |
| PETON7-10 | 2026-09-02 00:26:07 | 51.11691 | 17.70869 | 312° | 22km/h | 22743m | 4.6m/s | 0°C | 0% | 0hPa | 0V | 00:00:00 | 00:00:00 | 00:00:00 | |
| KRY50SP | 2026-09-02 00:26:04 | 51.11678 | 17.70883 | 347° | 31km/h | 22729m | 5.0m/s | 0°C | 0% | 0hPa | 0V | 00:00:00 | 00:00:00 | 00:00:00 | |
| SQ6EMJ | 2026-09-02 00:25:59 | 51.11655 | 17.70899 | 327° | 22km/h | 22696m | 7.1m/s | 0°C | 0% | 0hPa | 0V | 00:00:00 | 00:00:00 | 00:00:00 | |
| KRY50SP | 2026-09-02 00:25:57 | 51.11648 | 17.70913 | 296° | 22km/h | 22684m | 4.2m/s | 0°C | 0% | 0hPa | 0V | 00:00:00 | 00:00:00 | 00:00:00 | |
| SQ6EMJ | 2026-09-02 00:25:54 | 51.11641 | 17.70934 | 319° | 22km/h | 22675m | 6.0m/s | 0°C | 0% | 0hPa | 0V | 00:00:00 | 00:00:00 | 00:00:00 | |
| PETON7-10 | 2026-09-02 00:25:52 | 51.11633 | 17.70947 | 319° | 16km/h | 22666m | 5.4m/s | 0°C | 0% | 0hPa | 0V | 00:00:00 | 00:00:00 | 00:00:00 | |
| POL1PZ | 2026-09-02 00:25:51 | 51.11630 | 17.70952 | 308° | 18km/h | 22660m | 6.4m/s | 0°C | 0% | 0hPa | 0V | 00:00:00 | 00:00:00 | 00:00:00 | |
| SQ6EMJ | 2026-09-02 00:25:49 | 51.11627 | 17.70963 | 273° | 18km/h | 22648m | 7.1m/s | 0°C | 0% | 0hPa | 0V | 00:00:00 | 00:00:00 | 00:00:00 | |
| KRY50SP | 2026-09-02 00:25:46 | 51.11626 | 17.70985 | 317° | 20km/h | 22628m | 4.1m/s | 0°C | 0% | 0hPa | 0V | 00:00:00 | 00:00:00 | 00:00:00 | |
| SQ6EMJ | 2026-09-02 00:25:43 | 51.11616 | 17.70990 | 354° | 15km/h | 22614m | 5.1m/s | 0°C | 0% | 0hPa | 0V | 00:00:00 | 00:00:00 | 00:00:00 | |
| KRY50SP | 2026-09-02 00:25:41 | 51.11607 | 17.70998 | 310° | 22km/h | 22601m | 5.7m/s | 0°C | 0% | 0hPa | 0V | 00:00:00 | 00:00:00 | 00:00:00 | |
| SQ6EMJ | 2026-09-02 00:25:38 | 51.11604 | 17.71016 | 244° | 5km/h | 22585m | 5.9m/s | 0°C | 0% | 0hPa | 0V | 00:00:00 | 00:00:00 | 00:00:00 | |
| PETON7-10 | 2026-09-02 00:25:35 | 51.11601 | 17.71023 | 310° | 18km/h | 22564m | 6.5m/s | 0°C | 0% | 0hPa | 0V | 00:00:00 | 00:00:00 | 00:00:00 | |
| SQ6EMJ | 2026-09-02 00:25:33 | 51.11595 | 17.71029 | 329° | 15km/h | 22548m | 5.4m/s | 0°C | 0% | 0hPa | 0V | 00:00:00 | 00:00:00 | 00:00:00 | |
| POL1PZ | 2026-09-02 00:25:30 | 51.11588 | 17.71040 | 299° | 24km/h | 22529m | 3.1m/s | 0°C | 0% | 0hPa | 0V | 00:00:00 | 00:00:00 | 00:00:00 | |
| SP3BTT-10 | 2026-09-02 00:25:28 | 51.11584 | 17.71056 | 287° | 24km/h | 22518m | 2.6m/s | 0°C | 0% | 0hPa | 0V | 00:00:00 | 00:00:00 | 00:00:00 | |
| SQ6EMJ | 2026-09-02 00:25:27 | 51.11582 | 17.71064 | 287° | 18km/h | 22512m | 3.9m/s | 0°C | 0% | 0hPa | 0V | 00:00:00 | 00:00:00 | 00:00:00 | |
| KRY50SP | 2026-09-02 00:25:24 | 51.11576 | 17.71085 | 301° | 20km/h | 22497m | 6.1m/s | 0°C | 0% | 0hPa | 0V | 00:00:00 | 00:00:00 | 00:00:00 | |
| SQ6EMJ | 2026-09-02 00:25:21 | 51.11568 | 17.71107 | 302° | 11km/h | 22480m | 5.4m/s | 0°C | 0% | 0hPa | 0V | 00:00:00 | 00:00:00 | 00:00:00 | |
| PETON7-10 | 2026-09-02 00:25:20 | 51.11568 | 17.71110 | 238° | 18km/h | 22475m | 3.3m/s | 0°C | 0% | 0hPa | 0V | 00:00:00 | 00:00:00 | 00:00:00 | |
| KRY50SP | 2026-09-02 00:25:18 | 51.11569 | 17.71123 | 262° | 18km/h | 22466m | 5.3m/s | 0°C | 0% | 0hPa | 0V | 00:00:00 | 00:00:00 | 00:00:00 | |
| SQ6EMJ | 2026-09-02 00:25:15 | 51.11571 | 17.71140 | 277° | 9km/h | 22451m | 6.2m/s | 0°C | 0% | 0hPa | 0V | 00:00:00 | 00:00:00 | 00:00:00 | |
| KRY50SP | 2026-09-02 00:25:12 | 51.11565 | 17.71154 | 304° | 22km/h | 22438m | 4.9m/s | 0°C | 0% | 0hPa | 0V | 00:00:00 | 00:00:00 | 00:00:00 | |
| POL1PZ | 2026-09-02 00:25:10 | 51.11562 | 17.71167 | 273° | 16km/h | 22428m | 6.3m/s | 0°C | 0% | 0hPa | 0V | 00:00:00 | 00:00:00 | 00:00:00 | |
| SQ6EMJ | 2026-09-02 00:25:09 | 51.11564 | 17.71172 | 221° | 18km/h | 22422m | 5.6m/s | 0°C | 0% | 0hPa | 0V | 00:00:00 | 00:00:00 | 00:00:00 | |
| KRY50SP | 2026-09-02 00:25:06 | 51.11576 | 17.71186 | 240° | 20km/h | 22409m | 4.9m/s | 0°C | 0% | 0hPa | 0V | 00:00:00 | 00:00:00 | 00:00:00 | |
| PETON7-10 | 2026-09-02 00:25:04 | 51.11583 | 17.71198 | 220° | 11km/h | 22401m | 8.5m/s | 0°C | 0% | 0hPa | 0V | 00:00:00 | 00:00:00 | 00:00:00 | |
| SQ6EMJ | 2026-09-02 00:25:03 | 51.11586 | 17.71202 | 214° | 5km/h | 22394m | 7.3m/s | 0°C | 0% | 0hPa | 0V | 00:00:00 | 00:00:00 | 00:00:00 | |
| KRY50SP | 2026-09-02 00:25:01 | 51.11588 | 17.71206 | 166° | 11km/h | 22378m | 6.7m/s | 0°C | 0% | 0hPa | 0V | 00:00:00 | 00:00:00 | 00:00:00 | |
| SQ6EMJ | 2026-09-02 00:24:57 | 51.11595 | 17.71214 | 182° | 18km/h | 22360m | 3.8m/s | 0°C | 0% | 0hPa | 0V | 00:00:00 | 00:00:00 | 00:00:00 | |
| KRY50SP | 2026-09-02 00:24:56 | 51.11601 | 17.71215 | 168° | 27km/h | 22357m | 3.7m/s | 0°C | 0% | 0hPa | 0V | 00:00:00 | 00:00:00 | 00:00:00 | |
| SP4MAZ | 2026-09-02 00:24:54 | 51.11609 | 17.71221 | 171° | 22km/h | 22346m | 5.8m/s | 0°C | 0% | 0hPa | 0V | 00:00:00 | 00:00:00 | 00:00:00 | |
| KRY50SP | 2026-09-02 00:24:51 | 51.11613 | 17.71226 | 130° | 13km/h | 22329m | 5.2m/s | 0°C | 0% | 0hPa | 0V | 00:00:00 | 00:00:00 | 00:00:00 | |
| POL1PZ | 2026-09-02 00:24:50 | 51.11615 | 17.71223 | 132° | 11km/h | 22324m | 4.1m/s | 0°C | 0% | 0hPa | 0V | 00:00:00 | 00:00:00 | 00:00:00 | |
| PETON7-10 | 2026-09-02 00:24:48 | 51.11619 | 17.71220 | 194° | 15km/h | 22312m | 6.2m/s | 0°C | 0% | 0hPa | 0V | 00:00:00 | 00:00:00 | 00:00:00 | |
| KRY50SP | 2026-09-02 00:24:46 | 51.11624 | 17.71221 | 168° | 15km/h | 22298m | 5.2m/s | 0°C | 0% | 0hPa | 0V | 00:00:00 | 00:00:00 | 00:00:00 | |
| KRY50SP | 2026-09-02 00:24:40 | 51.11629 | 17.71211 | 105° | 16km/h | 22266m | 7.0m/s | 0°C | 0% | 0hPa | 0V | 00:00:00 | 00:00:00 | 00:00:00 | |
| OE5DRO-10 | 2026-09-02 00:24:35 | 51.11642 | 17.71173 | 140° | 20km/h | 22240m | 4.8m/s | 0°C | 0% | 0hPa | 0V | 00:00:00 | 00:00:00 | 00:00:00 | |
| KRY50SP | 2026-09-02 00:24:34 | 51.11642 | 17.71173 | 141° | 18km/h | 22240m | 4.9m/s | 0°C | 0% | 0hPa | 0V | 00:00:00 | 00:00:00 | 00:00:00 | |
| PETON7-10 | 2026-09-02 00:24:32 | 51.11645 | 17.71165 | 115° | 20km/h | 22233m | 4.7m/s | 0°C | 0% | 0hPa | 0V | 00:00:00 | 00:00:00 | 00:00:00 | |
| SQ6EMJ | 2026-09-02 00:24:30 | 51.11648 | 17.71151 | 112° | 20km/h | 22225m | 3.3m/s | 0°C | 0% | 0hPa | 0V | 00:00:00 | 00:00:00 | 00:00:00 | |
| KRY50SP | 2026-09-02 00:24:29 | 51.11649 | 17.71143 | 93° | 24km/h | 22221m | 5.7m/s | 0°C | 0% | 0hPa | 0V | 00:00:00 | 00:00:00 | 00:00:00 | |
| SQ6EMJ | 2026-09-02 00:24:25 | 51.11659 | 17.71105 | 147° | 16km/h | 22197m | 5.9m/s | 0°C | 0% | 0hPa | 0V | 00:00:00 | 00:00:00 | 00:00:00 | |
| KRY50SP | 2026-09-02 00:24:23 | 51.11663 | 17.71095 | 106° | 20km/h | 22183m | 6.6m/s | 0°C | 0% | 0hPa | 0V | 00:00:00 | 00:00:00 | 00:00:00 | |
| SQ6EMJ | 2026-09-02 00:24:19 | 51.11662 | 17.71050 | 93° | 18km/h | 22151m | 4.6m/s | 0°C | 0% | 0hPa | 0V | 00:00:00 | 00:00:00 | 00:00:00 | |
| KRY50SP | 2026-09-02 00:24:17 | 51.11664 | 17.71035 | 92° | 24km/h | 22148m | 5.2m/s | 0°C | 0% | 0hPa | 0V | 00:00:00 | 00:00:00 | 00:00:00 | |
| KRY50SP | 2026-09-02 00:24:13 | 51.11673 | 17.70987 | 84° | 22km/h | 22119m | 5.5m/s | 0°C | 0% | 0hPa | 0V | 00:00:00 | 00:00:00 | 00:00:00 | |
| PETON7-10 | 2026-09-02 00:24:12 | 51.11673 | 17.70987 | 84° | 26km/h | 22119m | 5.4m/s | 0°C | 0% | 0hPa | 0V | 00:00:00 | 00:00:00 | 00:00:00 | |
| POL1PZ | 2026-09-02 00:24:09 | 51.11675 | 17.70953 | 97° | 33km/h | 22101m | 5.6m/s | 0°C | 0% | 0hPa | 0V | 00:00:00 | 00:00:00 | 00:00:00 | |
| SQ6EMJ | 2026-09-02 00:24:08 | 51.11677 | 17.70941 | 88° | 29km/h | 22095m | 6.4m/s | 0°C | 0% | 0hPa | 0V | 00:00:00 | 00:00:00 | 00:00:00 | |
| KRY50SP | 2026-09-02 00:24:06 | 51.11675 | 17.70922 | 79° | 24km/h | 22083m | 3.3m/s | 0°C | 0% | 0hPa | 0V | 00:00:00 | 00:00:00 | 00:00:00 | |
| SQ6EMJ | 2026-09-02 00:24:02 | 51.11671 | 17.70869 | 72° | 42km/h | 22065m | 6.3m/s | 0°C | 0% | 0hPa | 0V | 00:00:00 | 00:00:00 | 00:00:00 | |
| SQ6EMJ | 2026-09-02 00:23:56 | 51.11661 | 17.70792 | 74° | 15km/h | 22031m | 6.7m/s | 0°C | 0% | 0hPa | 0V | 00:00:00 | 00:00:00 | 00:00:00 | |
| KRY50SP | 2026-09-02 00:23:55 | 51.11661 | 17.70787 | 63° | 16km/h | 22025m | 4.7m/s | 0°C | 0% | 0hPa | 0V | 00:00:00 | 00:00:00 | 00:00:00 | |
| PETON7-10 | 2026-09-02 00:23:54 | 51.11660 | 17.70779 | 73° | 29km/h | 22020m | 4.6m/s | 0°C | 0% | 0hPa | 0V | 00:00:00 | 00:00:00 | 00:00:00 | |
| SQ6EMJ | 2026-09-02 00:23:50 | 51.11655 | 17.70725 | 69° | 31km/h | 22004m | 3.5m/s | 0°C | 0% | 0hPa | 0V | 00:00:00 | 00:00:00 | 00:00:00 | |
| KRY50SP | 2026-09-02 00:23:49 | 51.11653 | 17.70713 | 66° | 29km/h | 22000m | 1.7m/s | 0°C | 0% | 0hPa | 0V | 00:00:00 | 00:00:00 | 00:00:00 | |
| POL1PZ | 2026-09-02 00:23:48 | 51.11651 | 17.70704 | 72° | 22km/h | 21997m | 3.6m/s | 0°C | 0% | 0hPa | 0V | 00:00:00 | 00:00:00 | 00:00:00 | |
| SQ6EMJ | 2026-09-02 00:23:44 | 51.11653 | 17.70664 | 88° | 27km/h | 21977m | 4.9m/s | 0°C | 0% | 0hPa | 0V | 00:00:00 | 00:00:00 | 00:00:00 | |
| KRY50SP | 2026-09-02 00:23:43 | 51.11651 | 17.70653 | 76° | 29km/h | 21972m | 3.5m/s | 0°C | 0% | 0hPa | 0V | 00:00:00 | 00:00:00 | 00:00:00 | |
| PETON7-10 | 2026-09-02 00:23:38 | 51.11655 | 17.70594 | 103° | 27km/h | 21951m | 4.1m/s | 0°C | 0% | 0hPa | 0V | 00:00:00 | 00:00:00 | 00:00:00 | |
| KRY50SP | 2026-09-02 00:23:37 | 51.11656 | 17.70584 | 97° | 31km/h | 21947m | 5.6m/s | 0°C | 0% | 0hPa | 0V | 00:00:00 | 00:00:00 | 00:00:00 | |
| SQ6EMJ | 2026-09-02 00:23:33 | 51.11651 | 17.70532 | 94° | 24km/h | 21928m | 3.6m/s | 0°C | 0% | 0hPa | 0V | 00:00:00 | 00:00:00 | 00:00:00 | |
| KRY50SP | 2026-09-02 00:23:31 | 51.11650 | 17.70512 | 60° | 20km/h | 21919m | 6.2m/s | 0°C | 0% | 0hPa | 0V | 00:00:00 | 00:00:00 | 00:00:00 | |
| POL1PZ | 2026-09-02 00:23:28 | 51.11647 | 17.70490 | 101° | 27km/h | 21895m | 4.4m/s | 0°C | 0% | 0hPa | 0V | 00:00:00 | 00:00:00 | 00:00:00 | |
| KRY50SP | 2026-09-02 00:23:25 | 51.11653 | 17.70457 | 105° | 31km/h | 21881m | 1.7m/s | 0°C | 0% | 0hPa | 0V | 00:00:00 | 00:00:00 | 00:00:00 | |
| PETON7-10 | 2026-09-02 00:23:23 | 51.11651 | 17.70431 | 58° | 20km/h | 21869m | 4.9m/s | 0°C | 0% | 0hPa | 0V | 00:00:00 | 00:00:00 | 00:00:00 | |
| SQ6EMJ | 2026-09-02 00:23:22 | 51.11649 | 17.70419 | 78° | 26km/h | 21862m | 6.7m/s | 0°C | 0% | 0hPa | 0V | 00:00:00 | 00:00:00 | 00:00:00 | |
| KRY50SP | 2026-09-02 00:23:18 | 51.11647 | 17.70389 | 88° | 18km/h | 21833m | 2.9m/s | 0°C | 0% | 0hPa | 0V | 00:00:00 | 00:00:00 | 00:00:00 | |
| SQ6EMJ | 2026-09-02 00:23:17 | 51.11647 | 17.70381 | 101° | 24km/h | 21830m | 0.8m/s | 0°C | 0% | 0hPa | 0V | 00:00:00 | 00:00:00 | 00:00:00 | |
| SP3BTT-10 | 2026-09-02 00:23:13 | 51.11647 | 17.70336 | 75° | 20km/h | 21813m | 3.7m/s | 0°C | 0% | 0hPa | 0V | 00:00:00 | 00:00:00 | 00:00:00 | |
| SQ6EMJ | 2026-09-02 00:23:11 | 51.11645 | 17.70319 | 111° | 18km/h | 21804m | 5.3m/s | 0°C | 0% | 0hPa | 0V | 00:00:00 | 00:00:00 | 00:00:00 | |
| KRY50SP | 2026-09-02 00:23:08 | 51.11647 | 17.70300 | 108° | 13km/h | 21789m | 6.3m/s | 0°C | 0% | 0hPa | 0V | 00:00:00 | 00:00:00 | 00:00:00 | |
| PETON7-10 | 2026-09-02 00:23:07 | 51.11647 | 17.70293 | 72° | 18km/h | 21783m | 5.5m/s | 0°C | 0% | 0hPa | 0V | 00:00:00 | 00:00:00 | 00:00:00 | |
| SP4MAZ | 2026-09-02 00:23:05 | 51.11647 | 17.70274 | 101° | 27km/h | 21771m | 5.9m/s | 0°C | 0% | 0hPa | 0V | 00:00:00 | 00:00:00 | 00:00:00 | |
| KRY50SP | 2026-09-02 00:23:02 | 51.11647 | 17.70244 | 70° | 18km/h | 21754m | 6.0m/s | 0°C | 0% | 0hPa | 0V | 00:00:00 | 00:00:00 | 00:00:00 | |
| SQ6EMJ | 2026-09-02 00:23:00 | 51.11645 | 17.70237 | 164° | 5km/h | 21744m | 5.7m/s | 0°C | 0% | 0hPa | 0V | 00:00:00 | 00:00:00 | 00:00:00 | |
| KRY50SP | 2026-09-02 00:22:57 | 51.11651 | 17.70227 | 101° | 13km/h | 21729m | 7.2m/s | 0°C | 0% | 0hPa | 0V | 00:00:00 | 00:00:00 | 00:00:00 | |
| SQ6EMJ | 2026-09-02 00:22:54 | 51.11648 | 17.70203 | 92° | 26km/h | 21706m | 4.2m/s | 0°C | 0% | 0hPa | 0V | 00:00:00 | 00:00:00 | 00:00:00 | |
| SQ6EMJ | 2026-09-02 00:22:48 | 51.11649 | 17.70168 | 85° | 15km/h | 21671m | 2.7m/s | 0°C | 0% | 0hPa | 0V | 00:00:00 | 00:00:00 | 00:00:00 | |
| KRY50SP | 2026-09-02 00:22:47 | 51.11649 | 17.70160 | 179° | 27km/h | 21669m | 4.6m/s | 0°C | 0% | 0hPa | 0V | 00:00:00 | 00:00:00 | 00:00:00 | |
| POL1PZ | 2026-09-02 00:22:46 | 51.11658 | 17.70166 | 135° | 20km/h | 21670m | 4.7m/s | 0°C | 0% | 0hPa | 0V | 00:00:00 | 00:00:00 | 00:00:00 | |
| SQ6EMJ | 2026-09-02 00:22:42 | 51.11663 | 17.70145 | 123° | 5km/h | 21653m | 5.9m/s | 0°C | 0% | 0hPa | 0V | 00:00:00 | 00:00:00 | 00:00:00 | |
| KRY50SP | 2026-09-02 00:22:41 | 51.11664 | 17.70143 | 178° | 7km/h | 21648m | 8.5m/s | 0°C | 0% | 0hPa | 0V | 00:00:00 | 00:00:00 | 00:00:00 | |
| KRY50SP | 2026-09-02 00:22:36 | 51.11666 | 17.70141 | 93° | 7km/h | 21616m | 5.9m/s | 0°C | 0% | 0hPa | 0V | 00:00:00 | 00:00:00 | 00:00:00 | |
| SQ6EMJ | 2026-09-02 00:22:30 | 51.11672 | 17.70133 | 166° | 16km/h | 21590m | 6.8m/s | 0°C | 0% | 0hPa | 0V | 00:00:00 | 00:00:00 | 00:00:00 | |
| KRY50SP | 2026-09-02 00:22:29 | 51.11677 | 17.70131 | 169° | 16km/h | 21584m | 5.2m/s | 0°C | 0% | 0hPa | 0V | 00:00:00 | 00:00:00 | 00:00:00 | |
| POL1PZ | 2026-09-02 00:22:25 | 51.11679 | 17.70122 | 78° | 5km/h | 21565m | 5.9m/s | 0°C | 0% | 0hPa | 0V | 00:00:00 | 00:00:00 | 00:00:00 | |
| KRY50SP | 2026-09-02 00:22:23 | 51.11681 | 17.70121 | 122° | 11km/h | 21553m | 5.0m/s | 0°C | 0% | 0hPa | 0V | 00:00:00 | 00:00:00 | 00:00:00 | |
| PETON7-10 | 2026-09-02 00:22:22 | 51.11682 | 17.70117 | 117° | 22km/h | 21547m | 7.3m/s | 0°C | 0% | 0hPa | 0V | 00:00:00 | 00:00:00 | 00:00:00 | |
| SQ6EMJ | 2026-09-02 00:22:19 | 51.11686 | 17.70108 | 150° | 13km/h | 21528m | 7.2m/s | 0°C | 0% | 0hPa | 0V | 00:00:00 | 00:00:00 | 00:00:00 | |
| KRY50SP | 2026-09-02 00:22:18 | 51.11688 | 17.70104 | 118° | 22km/h | 21522m | 6.6m/s | 0°C | 0% | 0hPa | 0V | 00:00:00 | 00:00:00 | 00:00:00 | |
| SQ6EMJ | 2026-09-02 00:22:13 | 51.11692 | 17.70075 | 127° | 31km/h | 21491m | 4.1m/s | 0°C | 0% | 0hPa | 0V | 00:00:00 | 00:00:00 | 00:00:00 | |
| KRY50SP | 2026-09-02 00:22:12 | 51.11695 | 17.70066 | 110° | 16km/h | 21489m | 5.5m/s | 0°C | 0% | 0hPa | 0V | 00:00:00 | 00:00:00 | 00:00:00 | |
| SQ6EMJ | 2026-09-02 00:22:08 | 51.11693 | 17.70037 | 99° | 24km/h | 21454m | 5.1m/s | 0°C | 0% | 0hPa | 0V | 00:00:00 | 00:00:00 | 00:00:00 | |
| KRY50SP | 2026-09-02 00:22:06 | 51.11694 | 17.70014 | 87° | 26km/h | 21446m | 5.7m/s | 0°C | 0% | 0hPa | 0V | 00:00:00 | 00:00:00 | 00:00:00 | |
| POL1PZ | 2026-09-02 00:22:04 | 51.11692 | 17.69998 | 69° | 9km/h | 21433m | 3.1m/s | 0°C | 0% | 0hPa | 0V | 00:00:00 | 00:00:00 | 00:00:00 | |
| SQ6EMJ | 2026-09-02 00:22:02 | 51.11692 | 17.69991 | 111° | 16km/h | 21423m | 3.8m/s | 0°C | 0% | 0hPa | 0V | 00:00:00 | 00:00:00 | 00:00:00 | |
| KRY50SP | 2026-09-02 00:22:00 | 51.11695 | 17.69977 | 83° | 24km/h | 21414m | 6.6m/s | 0°C | 0% | 0hPa | 0V | 00:00:00 | 00:00:00 | 00:00:00 | |
| SP3BTT-10 | 2026-09-02 00:21:57 | 51.11694 | 17.69945 | 84° | 15km/h | 21395m | 5.0m/s | 0°C | 0% | 0hPa | 0V | 00:00:00 | 00:00:00 | 00:00:00 | |
| KRY50SP | 2026-09-02 00:21:55 | 51.11693 | 17.69926 | 74° | 20km/h | 21384m | 5.4m/s | 0°C | 0% | 0hPa | 0V | 00:00:00 | 00:00:00 | 00:00:00 | |
| SQ6EMJ | 2026-09-02 00:21:51 | 51.11681 | 17.69904 | 99° | 16km/h | 21363m | 3.4m/s | 0°C | 0% | 0hPa | 0V | 00:00:00 | 00:00:00 | 00:00:00 | |
| KRY50SP | 2026-09-02 00:21:49 | 51.11678 | 17.69883 | 71° | 27km/h | 21354m | 4.8m/s | 0°C | 0% | 0hPa | 0V | 00:00:00 | 00:00:00 | 00:00:00 | |
| SQ6EMJ | 2026-09-02 00:21:45 | 51.11661 | 17.69849 | 51° | 18km/h | 21343m | 5.7m/s | 0°C | 0% | 0hPa | 0V | 00:00:00 | 00:00:00 | 00:00:00 | |
| POL1PZ | 2026-09-02 00:21:44 | 51.11659 | 17.69844 | 68° | 9km/h | 21338m | 6.0m/s | 0°C | 0% | 0hPa | 0V | 00:00:00 | 00:00:00 | 00:00:00 | |
| KRY50SP | 2026-09-02 00:21:43 | 51.11659 | 17.69840 | 96° | 13km/h | 21333m | 5.0m/s | 0°C | 0% | 0hPa | 0V | 00:00:00 | 00:00:00 | 00:00:00 | |
| SQ6EMJ | 2026-09-02 00:21:40 | 51.11651 | 17.69811 | 48° | 38km/h | 21318m | 6.0m/s | 0°C | 0% | 0hPa | 0V | 00:00:00 | 00:00:00 | 00:00:00 | |
| KRY50SP | 2026-09-02 00:21:38 | 51.11638 | 17.69793 | 36° | 27km/h | 21308m | 4.4m/s | 0°C | 0% | 0hPa | 0V | 00:00:00 | 00:00:00 | 00:00:00 | |
| SP4MAZ | 2026-09-02 00:21:34 | 51.11620 | 17.69764 | 50° | 16km/h | 21287m | 4.3m/s | 0°C | 0% | 0hPa | 0V | 00:00:00 | 00:00:00 | 00:00:00 | |
| KRY50SP | 2026-09-02 00:21:33 | 51.11618 | 17.69759 | 50° | 18km/h | 21281m | 4.7m/s | 0°C | 0% | 0hPa | 0V | 00:00:00 | 00:00:00 | 00:00:00 | |
| SQ6EMJ | 2026-09-02 00:21:30 | 51.11607 | 17.69730 | 65° | 31km/h | 21256m | 6.2m/s | 0°C | 0% | 0hPa | 0V | 00:00:00 | 00:00:00 | 00:00:00 | |
| KRY50SP | 2026-09-02 00:21:27 | 51.11600 | 17.69714 | 42° | 24km/h | 21242m | 4.3m/s | 0°C | 0% | 0hPa | 0V | 00:00:00 | 00:00:00 | 00:00:00 | |
| POL1PZ | 2026-09-02 00:21:23 | 51.11589 | 17.69690 | 54° | 16km/h | 21222m | 6.2m/s | 0°C | 0% | 0hPa | 0V | 00:00:00 | 00:00:00 | 00:00:00 | |
| KRY50SP | 2026-09-02 00:21:21 | 51.11586 | 17.69680 | 76° | 16km/h | 21210m | 4.3m/s | 0°C | 0% | 0hPa | 0V | 00:00:00 | 00:00:00 | 00:00:00 | |
| SQ6EMJ | 2026-09-02 00:21:17 | 51.11583 | 17.69642 | 85° | 24km/h | 21181m | 6.9m/s | 0°C | 0% | 0hPa | 0V | 00:00:00 | 00:00:00 | 00:00:00 | |
| PETON7-10 | 2026-09-02 00:21:15 | 51.11580 | 17.69632 | 29° | 15km/h | 21166m | 7.3m/s | 0°C | 0% | 0hPa | 0V | 00:00:00 | 00:00:00 | 00:00:00 | |
| SQ6EMJ | 2026-09-02 00:21:11 | 51.11575 | 17.69610 | 103° | 15km/h | 21135m | 3.5m/s | 0°C | 0% | 0hPa | 0V | 00:00:00 | 00:00:00 | 00:00:00 | |
| KRY50SP | 2026-09-02 00:21:10 | 51.11576 | 17.69603 | 111° | 18km/h | 21130m | 1.0m/s | 0°C | 0% | 0hPa | 0V | 00:00:00 | 00:00:00 | 00:00:00 | |
| SQ6EMJ | 2026-09-02 00:21:05 | 51.11575 | 17.69573 | 360° | 9km/h | 21117m | 1.9m/s | 0°C | 0% | 0hPa | 0V | 00:00:00 | 00:00:00 | 00:00:00 | |
| KRY50SP | 2026-09-02 00:21:04 | 51.11573 | 17.69573 | 3° | 7km/h | 21114m | 1.8m/s | 0°C | 0% | 0hPa | 0V | 00:00:00 | 00:00:00 | 00:00:00 | |
| POL1PZ | 2026-09-02 00:21:03 | 51.11571 | 17.69572 | 27° | 9km/h | 21111m | 2.8m/s | 0°C | 0% | 0hPa | 0V | 00:00:00 | 00:00:00 | 00:00:00 | |
| KRY50SP | 2026-09-02 00:20:59 | 51.11571 | 17.69543 | 122° | 16km/h | 21094m | 5.2m/s | 0°C | 0% | 0hPa | 0V | 00:00:00 | 00:00:00 | 00:00:00 | |
| PETON7-10 | 2026-09-02 00:20:58 | 51.11571 | 17.69536 | 84° | 13km/h | 21087m | 6.2m/s | 0°C | 0% | 0hPa | 0V | 00:00:00 | 00:00:00 | 00:00:00 | |
| KRY50SP | 2026-09-02 00:20:53 | 51.11563 | 17.69531 | 259° | 5km/h | 21064m | 5.2m/s | 0°C | 0% | 0hPa | 0V | 00:00:00 | 00:00:00 | 00:00:00 | |
| KRY50SP | 2026-09-02 00:20:47 | 51.11568 | 17.69511 | 144° | 11km/h | 21038m | 5.2m/s | 0°C | 0% | 0hPa | 0V | 00:00:00 | 00:00:00 | 00:00:00 | |
| SP3BTT-10 | 2026-09-02 00:20:42 | 51.11568 | 17.69493 | 138° | 11km/h | 21008m | 5.0m/s | 0°C | 0% | 0hPa | 0V | 00:00:00 | 00:00:00 | 00:00:00 | |
| KRY50SP | 2026-09-02 00:20:41 | 51.11570 | 17.69489 | 111° | 18km/h | 21003m | 6.8m/s | 0°C | 0% | 0hPa | 0V | 00:00:00 | 00:00:00 | 00:00:00 | |
| PETON7-10 | 2026-09-02 00:20:36 | 51.11563 | 17.69462 | 35° | 18km/h | 20969m | 4.5m/s | 0°C | 0% | 0hPa | 0V | 00:00:00 | 00:00:00 | 00:00:00 | |
| SQ6EMJ | 2026-09-02 00:20:35 | 51.11560 | 17.69458 | 55° | 20km/h | 20964m | 4.8m/s | 0°C | 0% | 0hPa | 0V | 00:00:00 | 00:00:00 | 00:00:00 | |
| KRY50SP | 2026-09-02 00:20:30 | 51.11556 | 17.69430 | 85° | 15km/h | 20936m | 8.4m/s | 0°C | 0% | 0hPa | 0V | 00:00:00 | 00:00:00 | 00:00:00 | |
| SQ6EMJ | 2026-09-02 00:20:25 | 51.11538 | 17.69394 | 27° | 13km/h | 20907m | 5.0m/s | 0°C | 0% | 0hPa | 0V | 00:00:00 | 00:00:00 | 00:00:00 | |
| POL1PZ | 2026-09-02 00:20:22 | 51.11531 | 17.69379 | 63° | 26km/h | 20890m | 3.7m/s | 0°C | 0% | 0hPa | 0V | 00:00:00 | 00:00:00 | 00:00:00 | |
| KRY50SP | 2026-09-02 00:20:20 | 51.11525 | 17.69363 | 58° | 16km/h | 20881m | 5.0m/s | 0°C | 0% | 0hPa | 0V | 00:00:00 | 00:00:00 | 00:00:00 | |
| SQ6EMJ | 2026-09-02 00:20:19 | 51.11521 | 17.69358 | 32° | 20km/h | 20876m | 3.4m/s | 0°C | 0% | 0hPa | 0V | 00:00:00 | 00:00:00 | 00:00:00 | |
| KRY50SP | 2026-09-02 00:20:15 | 51.11494 | 17.69333 | 8° | 11km/h | 20850m | 5.3m/s | 0°C | 0% | 0hPa | 0V | 00:00:00 | 00:00:00 | 00:00:00 | |
| PETON7-10 | 2026-09-02 00:20:12 | 51.11489 | 17.69327 | 75° | 20km/h | 20836m | 5.5m/s | 0°C | 0% | 0hPa | 0V | 00:00:00 | 00:00:00 | 00:00:00 | |
| KRY50SP | 2026-09-02 00:20:08 | 51.11472 | 17.69312 | 18° | 22km/h | 20822m | 4.6m/s | 0°C | 0% | 0hPa | 0V | 00:00:00 | 00:00:00 | 00:00:00 | |
| KRY50SP | 2026-09-02 00:20:03 | 51.11451 | 17.69291 | 76° | 13km/h | 20796m | 6.3m/s | 0°C | 0% | 0hPa | 0V | 00:00:00 | 00:00:00 | 00:00:00 | |
| SQ6EMJ | 2026-09-02 00:20:02 | 51.11449 | 17.69286 | 57° | 16km/h | 20789m | 5.9m/s | 0°C | 0% | 0hPa | 0V | 00:00:00 | 00:00:00 | 00:00:00 | |
| POL1PZ | 2026-09-02 00:20:01 | 51.11447 | 17.69280 | 70° | 20km/h | 20782m | 6.5m/s | 0°C | 0% | 0hPa | 0V | 00:00:00 | 00:00:00 | 00:00:00 | |
| SP4MAZ | 2026-09-02 00:20:00 | 51.11444 | 17.69272 | 52° | 24km/h | 20775m | 6.1m/s | 0°C | 0% | 0hPa | 0V | 00:00:00 | 00:00:00 | 00:00:00 | |
| PETON7-10 | 2026-09-02 00:19:57 | 51.11422 | 17.69259 | 17° | 16km/h | 20749m | 6.9m/s | 0°C | 0% | 0hPa | 0V | 00:00:00 | 00:00:00 | 00:00:00 | |
| SQ6EMJ | 2026-09-02 00:19:56 | 51.11414 | 17.69255 | 35° | 15km/h | 20737m | 6.9m/s | 0°C | 0% | 0hPa | 0V | 00:00:00 | 00:00:00 | 00:00:00 | |
| KRY50SP | 2026-09-02 00:19:52 | 51.11394 | 17.69228 | 174° | 24km/h | 20706m | -2.5m/s | 0°C | 0% | 0hPa | 0V | 00:00:00 | 00:00:00 | 00:00:00 | |
| SQ6EMJ | 2026-09-02 00:19:51 | 51.11398 | 17.69226 | 38° | 5km/h | 20712m | 0.6m/s | 0°C | 0% | 0hPa | 0V | 00:00:00 | 00:00:00 | 00:00:00 | |
| KRY50SP | 2026-09-02 00:19:46 | 51.11401 | 17.69214 | 218° | 13km/h | 20703m | 1.0m/s | 0°C | 0% | 0hPa | 0V | 00:00:00 | 00:00:00 | 00:00:00 | |
| SQ6EMJ | 2026-09-02 00:19:45 | 51.11402 | 17.69213 | 56° | 5km/h | 20699m | 2.2m/s | 0°C | 0% | 0hPa | 0V | 00:00:00 | 00:00:00 | 00:00:00 | |
| PETON7-10 | 2026-09-02 00:19:42 | 51.11393 | 17.69206 | 29° | 11km/h | 20682m | 7.5m/s | 0°C | 0% | 0hPa | 0V | 00:00:00 | 00:00:00 | 00:00:00 | |
| KRY50SP | 2026-09-02 00:19:41 | 51.11390 | 17.69204 | 23° | 15km/h | 20676m | 5.7m/s | 0°C | 0% | 0hPa | 0V | 00:00:00 | 00:00:00 | 00:00:00 | |
| POL1PZ | 2026-09-02 00:19:40 | 51.11387 | 17.69201 | 38° | 11km/h | 20670m | 6.6m/s | 0°C | 0% | 0hPa | 0V | 00:00:00 | 00:00:00 | 00:00:00 | |
| KRY50SP | 2026-09-02 00:19:36 | 51.11383 | 17.69184 | 28° | 7km/h | 20648m | 8.2m/s | 0°C | 0% | 0hPa | 0V | 00:00:00 | 00:00:00 | 00:00:00 | |
| SQ6EMJ | 2026-09-02 00:19:35 | 51.11381 | 17.69184 | 337° | 11km/h | 20646m | 6.3m/s | 0°C | 0% | 0hPa | 0V | 00:00:00 | 00:00:00 | 00:00:00 | |
| KRY50SP | 2026-09-02 00:19:30 | 51.11377 | 17.69176 | 84° | 7km/h | 20615m | 3.4m/s | 0°C | 0% | 0hPa | 0V | 00:00:00 | 00:00:00 | 00:00:00 | |
| SQ6EMJ | 2026-09-02 00:19:29 | 51.11377 | 17.69173 | 111° | 7km/h | 20611m | 3.4m/s | 0°C | 0% | 0hPa | 0V | 00:00:00 | 00:00:00 | 00:00:00 | |
| SP3BTT-10 | 2026-09-02 00:19:26 | 51.11379 | 17.69163 | 38° | 15km/h | 20597m | 5.0m/s | 0°C | 0% | 0hPa | 0V | 00:00:00 | 00:00:00 | 00:00:00 | |
| PETON7-10 | 2026-09-02 00:19:25 | 51.11377 | 17.69166 | 325° | 7km/h | 20590m | 7.3m/s | 0°C | 0% | 0hPa | 0V | 00:00:00 | 00:00:00 | 00:00:00 | |
| KRY50SP | 2026-09-02 00:19:24 | 51.11376 | 17.69169 | 297° | 9km/h | 20582m | 3.4m/s | 0°C | 0% | 0hPa | 0V | 00:00:00 | 00:00:00 | 00:00:00 | |
| POL1PZ | 2026-09-02 00:19:19 | 51.11377 | 17.69156 | 121° | 9km/h | 20558m | 3.7m/s | 0°C | 0% | 0hPa | 0V | 00:00:00 | 00:00:00 | 00:00:00 | |
| KRY50SP | 2026-09-02 00:19:18 | 51.11378 | 17.69154 | 77° | 4km/h | 20554m | 3.4m/s | 0°C | 0% | 0hPa | 0V | 00:00:00 | 00:00:00 | 00:00:00 | |
| SQ6EMJ | 2026-09-02 00:19:14 | 51.11380 | 17.69148 | 243° | 13km/h | 20539m | 4.7m/s | 0°C | 0% | 0hPa | 0V | 00:00:00 | 00:00:00 | 00:00:00 | |
| KRY50SP | 2026-09-02 00:19:13 | 51.11380 | 17.69148 | 243° | 13km/h | 20539m | 4.7m/s | 0°C | 0% | 0hPa | 0V | 00:00:00 | 00:00:00 | 00:00:00 | |
| PETON7-10 | 2026-09-02 00:19:10 | 51.11378 | 17.69153 | 66° | 9km/h | 20522m | 6.6m/s | 0°C | 0% | 0hPa | 0V | 00:00:00 | 00:00:00 | 00:00:00 | |
| KRY50SP | 2026-09-02 00:19:08 | 51.11373 | 17.69142 | 360° | 4km/h | 20505m | 5.6m/s | 0°C | 0% | 0hPa | 0V | 00:00:00 | 00:00:00 | 00:00:00 | |
| POL1PZ | 2026-09-02 00:18:58 | 51.11364 | 17.69129 | 58° | 22km/h | 20467m | 5.2m/s | 0°C | 0% | 0hPa | 0V | 00:00:00 | 00:00:00 | 00:00:00 | |
| SQ6EMJ | 2026-09-02 00:18:57 | 51.11362 | 17.69124 | 47° | 11km/h | 20463m | 5.3m/s | 0°C | 0% | 0hPa | 0V | 00:00:00 | 00:00:00 | 00:00:00 | |
| KRY50SP | 2026-09-02 00:18:56 | 51.11360 | 17.69122 | 27° | 9km/h | 20458m | 6.2m/s | 0°C | 0% | 0hPa | 0V | 00:00:00 | 00:00:00 | 00:00:00 | |
| PETON7-10 | 2026-09-02 00:18:55 | 51.11357 | 17.69121 | 355° | 15km/h | 20451m | 4.1m/s | 0°C | 0% | 0hPa | 0V | 00:00:00 | 00:00:00 | 00:00:00 | |
| KRY50SP | 2026-09-02 00:18:51 | 51.11353 | 17.69103 | 66° | 18km/h | 20433m | 3.3m/s | 0°C | 0% | 0hPa | 0V | 00:00:00 | 00:00:00 | 00:00:00 | |
| KRY50SP | 2026-09-02 00:18:47 | 51.11329 | 17.69084 | 70° | 11km/h | 20407m | 6.7m/s | 0°C | 0% | 0hPa | 0V | 00:00:00 | 00:00:00 | 00:00:00 | |
| SQ6EMJ | 2026-09-02 00:18:41 | 51.11323 | 17.69079 | 39° | 5km/h | 20381m | 4.8m/s | 0°C | 0% | 0hPa | 0V | 00:00:00 | 00:00:00 | 00:00:00 | |
| KRY50SP | 2026-09-02 00:18:40 | 51.11321 | 17.69076 | 68° | 11km/h | 20376m | 4.9m/s | 0°C | 0% | 0hPa | 0V | 00:00:00 | 00:00:00 | 00:00:00 | |
| PETON7-10 | 2026-09-02 00:18:39 | 51.11318 | 17.69071 | 20° | 22km/h | 20371m | 3.1m/s | 0°C | 0% | 0hPa | 0V | 00:00:00 | 00:00:00 | 00:00:00 | |
| POL1PZ | 2026-09-02 00:18:37 | 51.11308 | 17.69064 | 16° | 26km/h | 20364m | 2.0m/s | 0°C | 0% | 0hPa | 0V | 00:00:00 | 00:00:00 | 00:00:00 | |
| SQ6EMJ | 2026-09-02 00:18:35 | 51.11297 | 17.69054 | 44° | 20km/h | 20357m | 4.6m/s | 0°C | 0% | 0hPa | 0V | 00:00:00 | 00:00:00 | 00:00:00 | |
| KRY50SP | 2026-09-02 00:18:34 | 51.11294 | 17.69049 | 46° | 20km/h | 20354m | 6.5m/s | 0°C | 0% | 0hPa | 0V | 00:00:00 | 00:00:00 | 00:00:00 | |
| KRY50SP | 2026-09-02 00:18:29 | 51.11279 | 17.69038 | 27° | 16km/h | 20319m | 4.3m/s | 0°C | 0% | 0hPa | 0V | 00:00:00 | 00:00:00 | 00:00:00 | |
| SP3BTT-10 | 2026-09-02 00:18:25 | 51.11257 | 17.69027 | 34° | 16km/h | 20286m | 7.2m/s | 0°C | 0% | 0hPa | 0V | 00:00:00 | 00:00:00 | 00:00:00 | |
| PETON7-10 | 2026-09-02 00:18:23 | 51.11249 | 17.69016 | 21° | 16km/h | 20271m | 4.9m/s | 0°C | 0% | 0hPa | 0V | 00:00:00 | 00:00:00 | 00:00:00 | |
| POL1PZ | 2026-09-02 00:18:17 | 51.11234 | 17.69012 | 42° | 29km/h | 20244m | 2.8m/s | 0°C | 0% | 0hPa | 0V | 00:00:00 | 00:00:00 | 00:00:00 | |
| KRY50SP | 2026-09-02 00:18:11 | 51.11204 | 17.69003 | 351° | 13km/h | 20219m | 5.0m/s | 0°C | 0% | 0hPa | 0V | 00:00:00 | 00:00:00 | 00:00:00 | |
| SP4MAZ | 2026-09-02 00:18:08 | 51.11192 | 17.68994 | 35° | 22km/h | 20200m | 4.4m/s | 0°C | 0% | 0hPa | 0V | 00:00:00 | 00:00:00 | 00:00:00 | |
| SQ6EMJ | 2026-09-02 00:18:06 | 51.11187 | 17.68990 | 20° | 22km/h | 20195m | 3.6m/s | 0°C | 0% | 0hPa | 0V | 00:00:00 | 00:00:00 | 00:00:00 | |
| KRY50SP | 2026-09-02 00:18:05 | 51.11181 | 17.68988 | 7° | 27km/h | 20190m | 5.2m/s | 0°C | 0% | 0hPa | 0V | 00:00:00 | 00:00:00 | 00:00:00 | |
| SQ6EMJ | 2026-09-02 00:18:01 | 51.11165 | 17.68995 | 41° | 11km/h | 20173m | 5.3m/s | 0°C | 0% | 0hPa | 0V | 00:00:00 | 00:00:00 | 00:00:00 | |
| KRY50SP | 2026-09-02 00:18:00 | 51.11164 | 17.68990 | 77° | 16km/h | 20167m | 4.4m/s | 0°C | 0% | 0hPa | 0V | 00:00:00 | 00:00:00 | 00:00:00 | |
| POL1PZ | 2026-09-02 00:17:57 | 51.11159 | 17.68980 | 1° | 11km/h | 20151m | 3.4m/s | 0°C | 0% | 0hPa | 0V | 00:00:00 | 00:00:00 | 00:00:00 | |
| SQ6EMJ | 2026-09-02 00:17:56 | 51.11156 | 17.68980 | 7° | 7km/h | 20146m | 5.0m/s | 0°C | 0% | 0hPa | 0V | 00:00:00 | 00:00:00 | 00:00:00 | |
| KRY50SP | 2026-09-02 00:17:55 | 51.11155 | 17.68980 | 65° | 4km/h | 20140m | 5.6m/s | 0°C | 0% | 0hPa | 0V | 00:00:00 | 00:00:00 | 00:00:00 | |
| SQ6EMJ | 2026-09-02 00:17:50 | 51.11142 | 17.68970 | 50° | 13km/h | 20112m | 6.1m/s | 0°C | 0% | 0hPa | 0V | 00:00:00 | 00:00:00 | 00:00:00 | |
| KRY50SP | 2026-09-02 00:17:49 | 51.11140 | 17.68967 | 61° | 11km/h | 20106m | 4.4m/s | 0°C | 0% | 0hPa | 0V | 00:00:00 | 00:00:00 | 00:00:00 | |
| KRY50SP | 2026-09-02 00:17:44 | 51.11131 | 17.68956 | 51° | 13km/h | 20082m | 5.9m/s | 0°C | 0% | 0hPa | 0V | 00:00:00 | 00:00:00 | 00:00:00 | |
| PETON7-10 | 2026-09-02 00:17:43 | 51.11129 | 17.68952 | 38° | 20km/h | 20076m | 5.6m/s | 0°C | 0% | 0hPa | 0V | 00:00:00 | 00:00:00 | 00:00:00 | |
| SQ6EMJ | 2026-09-02 00:17:39 | 51.11118 | 17.68941 | 100° | 16km/h | 20055m | 5.4m/s | 0°C | 0% | 0hPa | 0V | 00:00:00 | 00:00:00 | 00:00:00 | |
| KRY50SP | 2026-09-02 00:17:38 | 51.11119 | 17.68935 | 98° | 15km/h | 20050m | 4.6m/s | 0°C | 0% | 0hPa | 0V | 00:00:00 | 00:00:00 | 00:00:00 | |
| POL1PZ | 2026-09-02 00:17:36 | 51.11119 | 17.68926 | 78° | 11km/h | 20039m | 4.8m/s | 0°C | 0% | 0hPa | 0V | 00:00:00 | 00:00:00 | 00:00:00 | |
| SQ6EMJ | 2026-09-02 00:17:33 | 51.11115 | 17.68905 | 65° | 22km/h | 20018m | 4.7m/s | 0°C | 0% | 0hPa | 0V | 00:00:00 | 00:00:00 | 00:00:00 | |
| KRY50SP | 2026-09-02 00:17:32 | 51.11112 | 17.68899 | 34° | 22km/h | 20012m | 5.1m/s | 0°C | 0% | 0hPa | 0V | 00:00:00 | 00:00:00 | 00:00:00 | |
| PETON7-10 | 2026-09-02 00:17:27 | 51.11109 | 17.68877 | 92° | 9km/h | 19988m | 5.1m/s | 0°C | 0% | 0hPa | 0V | 00:00:00 | 00:00:00 | 00:00:00 | |
| SP3BTT-10 | 2026-09-02 00:17:25 | 51.11108 | 17.68866 | 54° | 26km/h | 19976m | 5.3m/s | 0°C | 0% | 0hPa | 0V | 00:00:00 | 00:00:00 | 00:00:00 | |
| SQ6EMJ | 2026-09-02 00:17:21 | 51.11099 | 17.68835 | 49° | 16km/h | 19955m | 5.4m/s | 0°C | 0% | 0hPa | 0V | 00:00:00 | 00:00:00 | 00:00:00 | |
| KRY50SP | 2026-09-02 00:17:20 | 51.11097 | 17.68831 | 40° | 9km/h | 19949m | 5.2m/s | 0°C | 0% | 0hPa | 0V | 00:00:00 | 00:00:00 | 00:00:00 | |
| KRY50SP | 2026-09-02 00:17:14 | 51.11098 | 17.68804 | 75° | 5km/h | 19912m | 4.3m/s | 0°C | 0% | 0hPa | 0V | 00:00:00 | 00:00:00 | 00:00:00 | |
| PETON7-10 | 2026-09-02 00:17:10 | 51.11103 | 17.68791 | 141° | 11km/h | 19889m | 4.6m/s | 0°C | 0% | 0hPa | 0V | 00:00:00 | 00:00:00 | 00:00:00 | |
| KRY50SP | 2026-09-02 00:17:09 | 51.11106 | 17.68789 | 171° | 11km/h | 19885m | 4.7m/s | 0°C | 0% | 0hPa | 0V | 00:00:00 | 00:00:00 | 00:00:00 | |
| SQ6EMJ | 2026-09-02 00:17:04 | 51.11118 | 17.68773 | 129° | 18km/h | 19858m | 5.0m/s | 0°C | 0% | 0hPa | 0V | 00:00:00 | 00:00:00 | 00:00:00 | |
| KRY50SP | 2026-09-02 00:17:03 | 51.11121 | 17.68769 | 143° | 9km/h | 19853m | 5.0m/s | 0°C | 0% | 0hPa | 0V | 00:00:00 | 00:00:00 | 00:00:00 | |
| SQ6EMJ | 2026-09-02 00:16:59 | 51.11124 | 17.68756 | 116° | 13km/h | 19832m | 2.8m/s | 0°C | 0% | 0hPa | 0V | 00:00:00 | 00:00:00 | 00:00:00 | |
| KRY50SP | 2026-09-02 00:16:57 | 51.11124 | 17.68748 | 86° | 7km/h | 19823m | 4.3m/s | 0°C | 0% | 0hPa | 0V | 00:00:00 | 00:00:00 | 00:00:00 | |
| PETON7-10 | 2026-09-02 00:16:55 | 51.11126 | 17.68739 | 128° | 16km/h | 19813m | 5.5m/s | 0°C | 0% | 0hPa | 0V | 00:00:00 | 00:00:00 | 00:00:00 | |
| SQ6EMJ | 2026-09-02 00:16:54 | 51.11129 | 17.68733 | 131° | 16km/h | 19808m | 4.1m/s | 0°C | 0% | 0hPa | 0V | 00:00:00 | 00:00:00 | 00:00:00 | |
| KRY50SP | 2026-09-02 00:16:52 | 51.11135 | 17.68727 | 169° | 15km/h | 19797m | 4.9m/s | 0°C | 0% | 0hPa | 0V | 00:00:00 | 00:00:00 | 00:00:00 | |
| SQ6EMJ | 2026-09-02 00:16:48 | 51.11148 | 17.68711 | 132° | 11km/h | 19776m | 6.9m/s | 0°C | 0% | 0hPa | 0V | 00:00:00 | 00:00:00 | 00:00:00 | |
| KRY50SP | 2026-09-02 00:16:46 | 51.11149 | 17.68707 | 99° | 9km/h | 19764m | 4.3m/s | 0°C | 0% | 0hPa | 0V | 00:00:00 | 00:00:00 | 00:00:00 | |
| SQ6EMJ | 2026-09-02 00:16:43 | 51.11155 | 17.68693 | 153° | 13km/h | 19748m | 5.3m/s | 0°C | 0% | 0hPa | 0V | 00:00:00 | 00:00:00 | 00:00:00 | |
| KRY50SP | 2026-09-02 00:16:41 | 51.11160 | 17.68692 | 186° | 11km/h | 19737m | 4.4m/s | 0°C | 0% | 0hPa | 0V | 00:00:00 | 00:00:00 | 00:00:00 | |
| SQ6EMJ | 2026-09-02 00:16:37 | 51.11169 | 17.68677 | 118° | 9km/h | 19712m | 6.8m/s | 0°C | 0% | 0hPa | 0V | 00:00:00 | 00:00:00 | 00:00:00 | |
| KRY50SP | 2026-09-02 00:16:36 | 51.11170 | 17.68674 | 127° | 13km/h | 19706m | 4.0m/s | 0°C | 0% | 0hPa | 0V | 00:00:00 | 00:00:00 | 00:00:00 | |
| POL1PZ | 2026-09-02 00:16:35 | 51.11172 | 17.68669 | 129° | 16km/h | 19701m | 6.2m/s | 0°C | 0% | 0hPa | 0V | 00:00:00 | 00:00:00 | 00:00:00 | |
| SQ6EMJ | 2026-09-02 00:16:31 | 51.11187 | 17.68654 | 156° | 13km/h | 19682m | -0.1m/s | 0°C | 0% | 0hPa | 0V | 00:00:00 | 00:00:00 | 00:00:00 | |
| KRY50SP | 2026-09-02 00:16:30 | 51.11190 | 17.68652 | 159° | 16km/h | 19681m | 1.2m/s | 0°C | 0% | 0hPa | 0V | 00:00:00 | 00:00:00 | 00:00:00 | |
| SQ6EMJ | 2026-09-02 00:16:26 | 51.11201 | 17.68622 | 131° | 22km/h | 19662m | 4.9m/s | 0°C | 0% | 0hPa | 0V | 00:00:00 | 00:00:00 | 00:00:00 | |
| KRY50SP | 2026-09-02 00:16:25 | 51.11205 | 17.68616 | 127° | 20km/h | 19658m | 5.1m/s | 0°C | 0% | 0hPa | 0V | 00:00:00 | 00:00:00 | 00:00:00 | |
| PETON7-10 | 2026-09-02 00:16:24 | 51.11207 | 17.68608 | 116° | 27km/h | 19653m | 5.9m/s | 0°C | 0% | 0hPa | 0V | 00:00:00 | 00:00:00 | 00:00:00 | |
| KRY50SP | 2026-09-02 00:16:20 | 51.11219 | 17.68586 | 154° | 18km/h | 19633m | 4.3m/s | 0°C | 0% | 0hPa | 0V | 00:00:00 | 00:00:00 | 00:00:00 | |
| SQ6EMJ | 2026-09-02 00:16:15 | 51.11242 | 17.68533 | 129° | 24km/h | 19600m | 4.9m/s | 0°C | 0% | 0hPa | 0V | 00:00:00 | 00:00:00 | 00:00:00 | |
| POL1PZ | 2026-09-02 00:16:13 | 51.11246 | 17.68523 | 121° | 27km/h | 19594m | 6.0m/s | 0°C | 0% | 0hPa | 0V | 00:00:00 | 00:00:00 | 00:00:00 | |
| SP3BTT-10 | 2026-09-02 00:16:10 | 51.11258 | 17.68493 | 134° | 35km/h | 19577m | 6.2m/s | 0°C | 0% | 0hPa | 0V | 00:00:00 | 00:00:00 | 00:00:00 | |
| SQ6EMJ | 2026-09-02 00:16:09 | 51.11264 | 17.68483 | 132° | 33km/h | 19574m | 3.9m/s | 0°C | 0% | 0hPa | 0V | 00:00:00 | 00:00:00 | 00:00:00 | |
| KRY50SP | 2026-09-02 00:16:04 | 51.11282 | 17.68415 | 107° | 27km/h | 19553m | 4.2m/s | 0°C | 0% | 0hPa | 0V | 00:00:00 | 00:00:00 | 00:00:00 | |
| SQ6EMJ | 2026-09-02 00:16:03 | 51.11286 | 17.68403 | 121° | 27km/h | 19550m | 6.1m/s | 0°C | 0% | 0hPa | 0V | 00:00:00 | 00:00:00 | 00:00:00 | |
| PETON7-10 | 2026-09-02 00:16:02 | 51.11290 | 17.68392 | 117° | 31km/h | 19543m | 5.7m/s | 0°C | 0% | 0hPa | 0V | 00:00:00 | 00:00:00 | 00:00:00 | |
| KRY50SP | 2026-09-02 00:15:58 | 51.11304 | 17.68349 | 97° | 20km/h | 19524m | 4.1m/s | 0°C | 0% | 0hPa | 0V | 00:00:00 | 00:00:00 | 00:00:00 | |
| SQ6EMJ | 2026-09-02 00:15:57 | 51.11305 | 17.68340 | 111° | 29km/h | 19518m | 5.2m/s | 0°C | 0% | 0hPa | 0V | 00:00:00 | 00:00:00 | 00:00:00 | |
| POL1PZ | 2026-09-02 00:15:53 | 51.11316 | 17.68298 | 107° | 22km/h | 19494m | 4.7m/s | 0°C | 0% | 0hPa | 0V | 00:00:00 | 00:00:00 | 00:00:00 | |
| SQ6EMJ | 2026-09-02 00:15:52 | 51.11317 | 17.68290 | 98° | 20km/h | 19490m | 4.0m/s | 0°C | 0% | 0hPa | 0V | 00:00:00 | 00:00:00 | 00:00:00 | |
| SQ6EMJ | 2026-09-02 00:15:47 | 51.11323 | 17.68242 | 112° | 29km/h | 19467m | 4.8m/s | 0°C | 0% | 0hPa | 0V | 00:00:00 | 00:00:00 | 00:00:00 | |
| KRY50SP | 2026-09-02 00:15:42 | 51.11332 | 17.68185 | 107° | 16km/h | 19445m | 3.3m/s | 0°C | 0% | 0hPa | 0V | 00:00:00 | 00:00:00 | 00:00:00 | |
| SQ6EMJ | 2026-09-02 00:15:41 | 51.11332 | 17.68179 | 94° | 16km/h | 19440m | 6.7m/s | 0°C | 0% | 0hPa | 0V | 00:00:00 | 00:00:00 | 00:00:00 | |
| PETON7-10 | 2026-09-02 00:15:35 | 51.11343 | 17.68108 | 90° | 31km/h | 19409m | 5.1m/s | 0°C | 0% | 0hPa | 0V | 00:00:00 | 00:00:00 | 00:00:00 | |
| KRY50SP | 2026-09-02 00:15:30 | 51.11338 | 17.68057 | 101° | 27km/h | 19389m | 5.6m/s | 0°C | 0% | 0hPa | 0V | 00:00:00 | 00:00:00 | 00:00:00 | |
| POL1PZ | 2026-09-02 00:15:29 | 51.11340 | 17.68044 | 105° | 35km/h | 19385m | 4.1m/s | 0°C | 0% | 0hPa | 0V | 00:00:00 | 00:00:00 | 00:00:00 | |
| KRY50SP | 2026-09-02 00:15:25 | 51.11343 | 17.67999 | 90° | 31km/h | 19363m | 6.0m/s | 0°C | 0% | 0hPa | 0V | 00:00:00 | 00:00:00 | 00:00:00 | |
| SQ6EMJ | 2026-09-02 00:15:24 | 51.11342 | 17.67987 | 80° | 24km/h | 19357m | 4.7m/s | 0°C | 0% | 0hPa | 0V | 00:00:00 | 00:00:00 | 00:00:00 | |
| KRY50SP | 2026-09-02 00:15:20 | 51.11338 | 17.67959 | 105° | 33km/h | 19333m | 5.9m/s | 0°C | 0% | 0hPa | 0V | 00:00:00 | 00:00:00 | 00:00:00 | |
| PETON7-10 | 2026-09-02 00:15:19 | 51.11339 | 17.67936 | 98° | 33km/h | 19323m | 7.3m/s | 0°C | 0% | 0hPa | 0V | 00:00:00 | 00:00:00 | 00:00:00 | |
| KRY50SP | 2026-09-02 00:15:15 | 51.11339 | 17.67898 | 83° | 37km/h | 19299m | 6.4m/s | 0°C | 0% | 0hPa | 0V | 00:00:00 | 00:00:00 | 00:00:00 | |
| SQ6EMJ | 2026-09-02 00:15:12 | 51.11334 | 17.67868 | 73° | 18km/h | 19278m | 3.9m/s | 0°C | 0% | 0hPa | 0V | 00:00:00 | 00:00:00 | 00:00:00 | |
| KRY50SP | 2026-09-02 00:15:10 | 51.11333 | 17.67851 | 82° | 29km/h | 19270m | 5.8m/s | 0°C | 0% | 0hPa | 0V | 00:00:00 | 00:00:00 | 00:00:00 | |
| POL1PZ | 2026-09-02 00:15:08 | 51.11330 | 17.67819 | 85° | 46km/h | 19259m | 5.7m/s | 0°C | 0% | 0hPa | 0V | 00:00:00 | 00:00:00 | 00:00:00 | |
| SQ6EMJ | 2026-09-02 00:15:07 | 51.11328 | 17.67802 | 79° | 44km/h | 19255m | 6.4m/s | 0°C | 0% | 0hPa | 0V | 00:00:00 | 00:00:00 | 00:00:00 | |
| KRY50SP | 2026-09-02 00:15:04 | 51.11319 | 17.67760 | 70° | 31km/h | 19237m | 6.4m/s | 0°C | 0% | 0hPa | 0V | 00:00:00 | 00:00:00 | 00:00:00 | |
| KRY50SP | 2026-09-02 00:14:58 | 51.11296 | 17.67708 | 77° | 49km/h | 19209m | 6.1m/s | 0°C | 0% | 0hPa | 0V | 00:00:00 | 00:00:00 | 00:00:00 | |
| PETON7-10 | 2026-09-02 00:14:57 | 51.11293 | 17.67689 | 84° | 37km/h | 19205m | 4.5m/s | 0°C | 0% | 0hPa | 0V | 00:00:00 | 00:00:00 | 00:00:00 | |
| SQ6EMJ | 2026-09-02 00:14:56 | 51.11291 | 17.67671 | 77° | 47km/h | 19200m | 7.4m/s | 0°C | 0% | 0hPa | 0V | 00:00:00 | 00:00:00 | 00:00:00 | |
| SP3BTT-10 | 2026-09-02 00:14:54 | 51.11284 | 17.67649 | 52° | 22km/h | 19188m | 7.2m/s | 0°C | 0% | 0hPa | 0V | 00:00:00 | 00:00:00 | 00:00:00 | |
| KRY50SP | 2026-09-02 00:14:52 | 51.11277 | 17.67636 | 46° | 24km/h | 19172m | 6.5m/s | 0°C | 0% | 0hPa | 0V | 00:00:00 | 00:00:00 | 00:00:00 | |
| SQ6EMJ | 2026-09-02 00:14:50 | 51.11268 | 17.67619 | 51° | 29km/h | 19161m | 4.7m/s | 0°C | 0% | 0hPa | 0V | 00:00:00 | 00:00:00 | 00:00:00 | |
| POL1PZ | 2026-09-02 00:14:47 | 51.11258 | 17.67595 | 58° | 24km/h | 19145m | 4.1m/s | 0°C | 0% | 0hPa | 0V | 00:00:00 | 00:00:00 | 00:00:00 | |
| KRY50SP | 2026-09-02 00:14:46 | 51.11255 | 17.67586 | 64° | 29km/h | 19140m | 6.3m/s | 0°C | 0% | 0hPa | 0V | 00:00:00 | 00:00:00 | 00:00:00 | |
| SQ6EMJ | 2026-09-02 00:14:45 | 51.11247 | 17.67564 | 53° | 27km/h | 19129m | 5.8m/s | 0°C | 0% | 0hPa | 0V | 00:00:00 | 00:00:00 | 00:00:00 | |
| KRY50SP | 2026-09-02 00:14:40 | 51.11223 | 17.67538 | 28° | 33km/h | 19108m | 5.2m/s | 0°C | 0% | 0hPa | 0V | 00:00:00 | 00:00:00 | 00:00:00 | |
| PETON7-10 | 2026-09-02 00:14:39 | 51.11217 | 17.67532 | 35° | 24km/h | 19103m | 6.7m/s | 0°C | 0% | 0hPa | 0V | 00:00:00 | 00:00:00 | 00:00:00 | |
| SQ6EMJ | 2026-09-02 00:14:38 | 51.11212 | 17.67526 | 45° | 22km/h | 19096m | 6.8m/s | 0°C | 0% | 0hPa | 0V | 00:00:00 | 00:00:00 | 00:00:00 | |
| KRY50SP | 2026-09-02 00:14:34 | 51.11201 | 17.67496 | 64° | 27km/h | 19075m | 2.8m/s | 0°C | 0% | 0hPa | 0V | 00:00:00 | 00:00:00 | 00:00:00 | |
| SQ6EMJ | 2026-09-02 00:14:32 | 51.11195 | 17.67482 | 60° | 18km/h | 19066m | 3.7m/s | 0°C | 0% | 0hPa | 0V | 00:00:00 | 00:00:00 | 00:00:00 | |
| KRY50SP | 2026-09-02 00:14:29 | 51.11184 | 17.67458 | 70° | 29km/h | 19056m | 4.7m/s | 0°C | 0% | 0hPa | 0V | 00:00:00 | 00:00:00 | 00:00:00 | |
| POL1PZ | 2026-09-02 00:14:26 | 51.11181 | 17.67432 | 83° | 18km/h | 19042m | 3.9m/s | 0°C | 0% | 0hPa | 0V | 00:00:00 | 00:00:00 | 00:00:00 | |
| PETON7-10 | 2026-09-02 00:14:24 | 51.11178 | 17.67415 | 67° | 26km/h | 19032m | 5.8m/s | 0°C | 0% | 0hPa | 0V | 00:00:00 | 00:00:00 | 00:00:00 | |
| KRY50SP | 2026-09-02 00:14:23 | 51.11175 | 17.67403 | 57° | 35km/h | 19028m | 4.4m/s | 0°C | 0% | 0hPa | 0V | 00:00:00 | 00:00:00 | 00:00:00 | |
| SQ6EMJ | 2026-09-02 00:14:20 | 51.11162 | 17.67375 | 72° | 26km/h | 19014m | 6.2m/s | 0°C | 0% | 0hPa | 0V | 00:00:00 | 00:00:00 | 00:00:00 | |
| KRY50SP | 2026-09-02 00:14:17 | 51.11157 | 17.67345 | 75° | 24km/h | 18998m | 7.0m/s | 0°C | 0% | 0hPa | 0V | 00:00:00 | 00:00:00 | 00:00:00 | |
| SQ6EMJ | 2026-09-02 00:14:15 | 51.11148 | 17.67322 | 62° | 29km/h | 18981m | 7.6m/s | 0°C | 0% | 0hPa | 0V | 00:00:00 | 00:00:00 | 00:00:00 | |
| KRY50SP | 2026-09-02 00:14:12 | 51.11143 | 17.67301 | 69° | 24km/h | 18970m | 7.1m/s | 0°C | 0% | 0hPa | 0V | 00:00:00 | 00:00:00 | 00:00:00 | |
| SQ6EMJ | 2026-09-02 00:14:10 | 51.11137 | 17.67275 | 70° | 26km/h | 18953m | 6.7m/s | 0°C | 0% | 0hPa | 0V | 00:00:00 | 00:00:00 | 00:00:00 | |
| PETON7-10 | 2026-09-02 00:14:08 | 51.11134 | 17.67265 | 71° | 24km/h | 18948m | 4.2m/s | 0°C | 0% | 0hPa | 0V | 00:00:00 | 00:00:00 | 00:00:00 | |
| POL1PZ | 2026-09-02 00:14:06 | 51.11129 | 17.67245 | 65° | 22km/h | 18938m | 6.6m/s | 0°C | 0% | 0hPa | 0V | 00:00:00 | 00:00:00 | 00:00:00 | |
| SQ6EMJ | 2026-09-02 00:14:03 | 51.11121 | 17.67221 | 69° | 26km/h | 18921m | 5.4m/s | 0°C | 0% | 0hPa | 0V | 00:00:00 | 00:00:00 | 00:00:00 | |
| KRY50SP | 2026-09-02 00:14:01 | 51.11118 | 17.67203 | 83° | 24km/h | 18912m | 5.1m/s | 0°C | 0% | 0hPa | 0V | 00:00:00 | 00:00:00 | 00:00:00 | |
| SQ6EMJ | 2026-09-02 00:13:58 | 51.11118 | 17.67169 | 89° | 33km/h | 18897m | 5.0m/s | 0°C | 0% | 0hPa | 0V | 00:00:00 | 00:00:00 | 00:00:00 | |
| KRY50SP | 2026-09-02 00:13:55 | 51.11112 | 17.67142 | 57° | 16km/h | 18882m | 5.0m/s | 0°C | 0% | 0hPa | 0V | 00:00:00 | 00:00:00 | 00:00:00 | |
| SQ6EMJ | 2026-09-02 00:13:53 | 51.11106 | 17.67129 | 65° | 24km/h | 18873m | 5.4m/s | 0°C | 0% | 0hPa | 0V | 00:00:00 | 00:00:00 | 00:00:00 | |
| SQ6EMJ | 2026-09-02 00:13:47 | 51.11098 | 17.67080 | 52° | 29km/h | 18845m | 4.4m/s | 0°C | 0% | 0hPa | 0V | 00:00:00 | 00:00:00 | 00:00:00 | |
| KRY50SP | 2026-09-02 00:13:45 | 51.11088 | 17.67065 | 35° | 24km/h | 18835m | 3.9m/s | 0°C | 0% | 0hPa | 0V | 00:00:00 | 00:00:00 | 00:00:00 | |
| SQ6EMJ | 2026-09-02 00:13:42 | 51.11075 | 17.67046 | 58° | 20km/h | 18821m | 6.3m/s | 0°C | 0% | 0hPa | 0V | 00:00:00 | 00:00:00 | 00:00:00 | |
| SP3BTT-10 | 2026-09-02 00:13:39 | 51.11066 | 17.67027 | 47° | 22km/h | 18806m | 4.8m/s | 0°C | 0% | 0hPa | 0V | 00:00:00 | 00:00:00 | 00:00:00 | |
| KRY50SP | 2026-09-02 00:13:38 | 51.11061 | 17.67019 | 51° | 33km/h | 18801m | 6.9m/s | 0°C | 0% | 0hPa | 0V | 00:00:00 | 00:00:00 | 00:00:00 | |
| SQ6EMJ | 2026-09-02 00:13:36 | 51.11050 | 17.66997 | 45° | 29km/h | 18791m | 5.9m/s | 0°C | 0% | 0hPa | 0V | 00:00:00 | 00:00:00 | 00:00:00 | |
| SQ6EMJ | 2026-09-02 00:13:32 | 51.11031 | 17.66957 | 64° | 24km/h | 18766m | 4.7m/s | 0°C | 0% | 0hPa | 0V | 00:00:00 | 00:00:00 | 00:00:00 | |
| KRY50SP | 2026-09-02 00:13:28 | 51.11010 | 17.66927 | 42° | 35km/h | 18743m | 7.0m/s | 0°C | 0% | 0hPa | 0V | 00:00:00 | 00:00:00 | 00:00:00 | |
| SQ6EMJ | 2026-09-02 00:13:25 | 51.10997 | 17.66913 | 37° | 27km/h | 18732m | 6.3m/s | 0°C | 0% | 0hPa | 0V | 00:00:00 | 00:00:00 | 00:00:00 | |
| POL1PZ | 2026-09-02 00:13:24 | 51.10992 | 17.66908 | 27° | 24km/h | 18727m | 4.2m/s | 0°C | 0% | 0hPa | 0V | 00:00:00 | 00:00:00 | 00:00:00 | |
| KRY50SP | 2026-09-02 00:13:21 | 51.10979 | 17.66889 | 47° | 27km/h | 18710m | 3.0m/s | 0°C | 0% | 0hPa | 0V | 00:00:00 | 00:00:00 | 00:00:00 | |
| SQ6EMJ | 2026-09-02 00:13:19 | 51.10968 | 17.66878 | 39° | 22km/h | 18701m | 5.9m/s | 0°C | 0% | 0hPa | 0V | 00:00:00 | 00:00:00 | 00:00:00 | |
| KRY50SP | 2026-09-02 00:13:15 | 51.10947 | 17.66860 | 37° | 20km/h | 18679m | 6.0m/s | 0°C | 0% | 0hPa | 0V | 00:00:00 | 00:00:00 | 00:00:00 | |
| SQ6EMJ | 2026-09-02 00:13:13 | 51.10941 | 17.66852 | 22° | 15km/h | 18668m | 4.0m/s | 0°C | 0% | 0hPa | 0V | 00:00:00 | 00:00:00 | 00:00:00 | |
| KRY50SP | 2026-09-02 00:13:10 | 51.10931 | 17.66841 | 37° | 16km/h | 18656m | 1.3m/s | 0°C | 0% | 0hPa | 0V | 00:00:00 | 00:00:00 | 00:00:00 | |
| SP3BTT-10 | 2026-09-02 00:13:09 | 51.10927 | 17.66837 | 41° | 15km/h | 18652m | 5.3m/s | 0°C | 0% | 0hPa | 0V | 00:00:00 | 00:00:00 | 00:00:00 | |
| SQ6EMJ | 2026-09-02 00:13:07 | 51.10919 | 17.66833 | 20° | 22km/h | 18641m | 4.0m/s | 0°C | 0% | 0hPa | 0V | 00:00:00 | 00:00:00 | 00:00:00 | |
| POL1PZ | 2026-09-02 00:13:04 | 51.10903 | 17.66818 | 36° | 20km/h | 18628m | 5.5m/s | 0°C | 0% | 0hPa | 0V | 00:00:00 | 00:00:00 | 00:00:00 | |
| KRY50SP | 2026-09-02 00:13:03 | 51.10899 | 17.66814 | 45° | 15km/h | 18621m | 4.6m/s | 0°C | 0% | 0hPa | 0V | 00:00:00 | 00:00:00 | 00:00:00 | |
| PETON7-10 | 2026-09-02 00:13:02 | 51.10897 | 17.66811 | 40° | 29km/h | 18617m | 4.1m/s | 0°C | 0% | 0hPa | 0V | 00:00:00 | 00:00:00 | 00:00:00 | |
| KRY50SP | 2026-09-02 00:12:57 | 51.10882 | 17.66788 | 9° | 20km/h | 18594m | 5.5m/s | 0°C | 0% | 0hPa | 0V | 00:00:00 | 00:00:00 | 00:00:00 | |
| KRY50SP | 2026-09-02 00:12:52 | 51.10867 | 17.66776 | 72° | 11km/h | 18569m | 4.1m/s | 0°C | 0% | 0hPa | 0V | 00:00:00 | 00:00:00 | 00:00:00 | |
| SQ6EMJ | 2026-09-02 00:12:50 | 51.10864 | 17.66768 | 30° | 11km/h | 18560m | 7.8m/s | 0°C | 0% | 0hPa | 0V | 00:00:00 | 00:00:00 | 00:00:00 | |
| KRY50SP | 2026-09-02 00:12:46 | 51.10853 | 17.66759 | 349° | 11km/h | 18536m | 7.3m/s | 0°C | 0% | 0hPa | 0V | 00:00:00 | 00:00:00 | 00:00:00 | |
| SQ6EMJ | 2026-09-02 00:12:44 | 51.10850 | 17.66763 | 53° | 2km/h | 18526m | 7.1m/s | 0°C | 0% | 0hPa | 0V | 00:00:00 | 00:00:00 | 00:00:00 | |
| POL1PZ | 2026-09-02 00:12:43 | 51.10850 | 17.66760 | 86° | 11km/h | 18519m | 6.3m/s | 0°C | 0% | 0hPa | 0V | 00:00:00 | 00:00:00 | 00:00:00 | |
| KRY50SP | 2026-09-02 00:12:40 | 51.10849 | 17.66748 | 41° | 7km/h | 18505m | 2.8m/s | 0°C | 0% | 0hPa | 0V | 00:00:00 | 00:00:00 | 00:00:00 | |
| SQ6EMJ | 2026-09-02 00:12:39 | 51.10847 | 17.66746 | 39° | 11km/h | 18501m | 5.8m/s | 0°C | 0% | 0hPa | 0V | 00:00:00 | 00:00:00 | 00:00:00 | |
| KRY50SP | 2026-09-02 00:12:35 | 51.10841 | 17.66752 | 224° | 9km/h | 18482m | 3.5m/s | 0°C | 0% | 0hPa | 0V | 00:00:00 | 00:00:00 | 00:00:00 | |
| SQ6EMJ | 2026-09-02 00:12:33 | 51.10843 | 17.66752 | 103° | 13km/h | 18471m | 3.8m/s | 0°C | 0% | 0hPa | 0V | 00:00:00 | 00:00:00 | 00:00:00 | |
| KRY50SP | 2026-09-02 00:12:29 | 51.10837 | 17.66731 | 8° | 11km/h | 18450m | 4.2m/s | 0°C | 0% | 0hPa | 0V | 00:00:00 | 00:00:00 | 00:00:00 | |
| SQ6EMJ | 2026-09-02 00:12:27 | 51.10834 | 17.66731 | 132° | 7km/h | 18439m | 6.0m/s | 0°C | 0% | 0hPa | 0V | 00:00:00 | 00:00:00 | 00:00:00 | |
| KRY50SP | 2026-09-02 00:12:24 | 51.10839 | 17.66725 | 133° | 9km/h | 18418m | 4.0m/s | 0°C | 0% | 0hPa | 0V | 00:00:00 | 00:00:00 | 00:00:00 | |
| SP3BTT-10 | 2026-09-02 00:12:23 | 51.10842 | 17.66722 | 134° | 35km/h | 18413m | 3.4m/s | 0°C | 0% | 0hPa | 0V | 00:00:00 | 00:00:00 | 00:00:00 | |
| SQ6EMJ | 2026-09-02 00:12:21 | 51.10845 | 17.66714 | 116° | 20km/h | 18404m | 5.3m/s | 0°C | 0% | 0hPa | 0V | 00:00:00 | 00:00:00 | 00:00:00 | |
| KRY50SP | 2026-09-02 00:12:17 | 51.10843 | 17.66695 | 103° | 9km/h | 18380m | 7.2m/s | 0°C | 0% | 0hPa | 0V | 00:00:00 | 00:00:00 | 00:00:00 | |
| SQ6EMJ | 2026-09-02 00:12:16 | 51.10844 | 17.66692 | 148° | 15km/h | 18373m | 6.0m/s | 0°C | 0% | 0hPa | 0V | 00:00:00 | 00:00:00 | 00:00:00 | |
| KRY50SP | 2026-09-02 00:12:12 | 51.10850 | 17.66682 | 104° | 22km/h | 18350m | 6.5m/s | 0°C | 0% | 0hPa | 0V | 00:00:00 | 00:00:00 | 00:00:00 | |
| SQ6EMJ | 2026-09-02 00:12:10 | 51.10852 | 17.66660 | 98° | 26km/h | 18338m | 4.7m/s | 0°C | 0% | 0hPa | 0V | 00:00:00 | 00:00:00 | 00:00:00 | |
| KRY50SP | 2026-09-02 00:12:06 | 51.10863 | 17.66643 | 141° | 7km/h | 18325m | 6.1m/s | 0°C | 0% | 0hPa | 0V | 00:00:00 | 00:00:00 | 00:00:00 | |
| SQ6EMJ | 2026-09-02 00:12:04 | 51.10871 | 17.66636 | 0° | 0km/h | 18317m | 3.4m/s | 0°C | 0% | 0hPa | 0V | 00:00:00 | 00:00:00 | 00:00:00 | |
| POL1PZ | 2026-09-02 00:12:02 | 51.10873 | 17.66630 | 117° | 15km/h | 18310m | 3.4m/s | 0°C | 0% | 0hPa | 0V | 00:00:00 | 00:00:00 | 00:00:00 | |
| KRY50SP | 2026-09-02 00:12:01 | 51.10875 | 17.66623 | 105° | 16km/h | 18308m | 5.9m/s | 0°C | 0% | 0hPa | 0V | 00:00:00 | 00:00:00 | 00:00:00 | |
| SQ6EMJ | 2026-09-02 00:11:59 | 51.10883 | 17.66601 | 121° | 35km/h | 18300m | 3.4m/s | 0°C | 0% | 0hPa | 0V | 00:00:00 | 00:00:00 | 00:00:00 | |
| KRY50SP | 2026-09-02 00:11:56 | 51.10894 | 17.66575 | 118° | 5km/h | 18289m | 5.6m/s | 0°C | 0% | 0hPa | 0V | 00:00:00 | 00:00:00 | 00:00:00 | |
| SQ6EMJ | 2026-09-02 00:11:53 | 51.10895 | 17.66560 | 100° | 26km/h | 18277m | 4.4m/s | 0°C | 0% | 0hPa | 0V | 00:00:00 | 00:00:00 | 00:00:00 | |
| KRY50SP | 2026-09-02 00:11:50 | 51.10904 | 17.66526 | 134° | 29km/h | 18261m | 7.2m/s | 0°C | 0% | 0hPa | 0V | 00:00:00 | 00:00:00 | 00:00:00 | |
| SQ6EMJ | 2026-09-02 00:11:47 | 51.10912 | 17.66509 | 102° | 20km/h | 18238m | 4.3m/s | 0°C | 0% | 0hPa | 0V | 00:00:00 | 00:00:00 | 00:00:00 | |
| KRY50SP | 2026-09-02 00:11:45 | 51.10914 | 17.66489 | 114° | 37km/h | 18228m | 4.8m/s | 0°C | 0% | 0hPa | 0V | 00:00:00 | 00:00:00 | 00:00:00 | |
| POL1PZ | 2026-09-02 00:11:41 | 51.10936 | 17.66444 | 122° | 37km/h | 18208m | 5.9m/s | 0°C | 0% | 0hPa | 0V | 00:00:00 | 00:00:00 | 00:00:00 | |
| KRY50SP | 2026-09-02 00:11:39 | 51.10943 | 17.66414 | 106° | 38km/h | 18197m | 4.3m/s | 0°C | 0% | 0hPa | 0V | 00:00:00 | 00:00:00 | 00:00:00 | |
| SQ6EMJ | 2026-09-02 00:11:36 | 51.10950 | 17.66377 | 119° | 35km/h | 18179m | 4.5m/s | 0°C | 0% | 0hPa | 0V | 00:00:00 | 00:00:00 | 00:00:00 | |
| KRY50SP | 2026-09-02 00:11:33 | 51.10958 | 17.66336 | 101° | 40km/h | 18158m | 3.1m/s | 0°C | 0% | 0hPa | 0V | 00:00:00 | 00:00:00 | 00:00:00 | |
| SQ6EMJ | 2026-09-02 00:11:31 | 51.10962 | 17.66307 | 108° | 33km/h | 18149m | 2.2m/s | 0°C | 0% | 0hPa | 0V | 00:00:00 | 00:00:00 | 00:00:00 | |
| KRY50SP | 2026-09-02 00:11:28 | 51.10968 | 17.66264 | 104° | 51km/h | 18138m | 6.8m/s | 0°C | 0% | 0hPa | 0V | 00:00:00 | 00:00:00 | 00:00:00 | |
| SQ6EMJ | 2026-09-02 00:11:25 | 51.10981 | 17.66211 | 117° | 46km/h | 18120m | 2.2m/s | 0°C | 0% | 0hPa | 0V | 00:00:00 | 00:00:00 | 00:00:00 | |
| SP3BTT-10 | 2026-09-02 00:11:23 | 51.10991 | 17.66177 | 111° | 49km/h | 18113m | 1.9m/s | 0°C | 0% | 0hPa | 0V | 00:00:00 | 00:00:00 | 00:00:00 | |
| KRY50SP | 2026-09-02 00:11:22 | 51.10994 | 17.66162 | 109° | 37km/h | 18109m | 3.8m/s | 0°C | 0% | 0hPa | 0V | 00:00:00 | 00:00:00 | 00:00:00 | |
| POL1PZ | 2026-09-02 00:11:21 | 51.10997 | 17.66148 | 102° | 33km/h | 18104m | 2.6m/s | 0°C | 0% | 0hPa | 0V | 00:00:00 | 00:00:00 | 00:00:00 | |
| SQ6EMJ | 2026-09-02 00:11:20 | 51.11000 | 17.66117 | 100° | 44km/h | 18096m | 5.2m/s | 0°C | 0% | 0hPa | 0V | 00:00:00 | 00:00:00 | 00:00:00 | |
| KRY50SP | 2026-09-02 00:11:17 | 51.11003 | 17.66080 | 107° | 49km/h | 18087m | 4.2m/s | 0°C | 0% | 0hPa | 0V | 00:00:00 | 00:00:00 | 00:00:00 | |
| SQ6EMJ | 2026-09-02 00:11:13 | 51.11018 | 17.66016 | 99° | 38km/h | 18073m | 5.4m/s | 0°C | 0% | 0hPa | 0V | 00:00:00 | 00:00:00 | 00:00:00 | |
| KRY50SP | 2026-09-02 00:11:12 | 51.11017 | 17.66002 | 85° | 35km/h | 18068m | 3.4m/s | 0°C | 0% | 0hPa | 0V | 00:00:00 | 00:00:00 | 00:00:00 | |
| SQ6EMJ | 2026-09-02 00:11:08 | 51.11016 | 17.65943 | 99° | 55km/h | 18054m | 5.2m/s | 0°C | 0% | 0hPa | 0V | 00:00:00 | 00:00:00 | 00:00:00 | |
| KRY50SP | 2026-09-02 00:11:06 | 51.11024 | 17.65897 | 111° | 62km/h | 18048m | 4.0m/s | 0°C | 0% | 0hPa | 0V | 00:00:00 | 00:00:00 | 00:00:00 | |
| SQ6EMJ | 2026-09-02 00:11:03 | 51.11038 | 17.65843 | 100° | 42km/h | 18043m | 6.7m/s | 0°C | 0% | 0hPa | 0V | 00:00:00 | 00:00:00 | 00:00:00 | |
| KRY50SP | 2026-09-02 00:11:02 | 51.11037 | 17.65806 | 76° | 53km/h | 18034m | 5.8m/s | 0°C | 0% | 0hPa | 0V | 00:00:00 | 00:00:00 | 00:00:00 | |
| POL1PZ | 2026-09-02 00:11:01 | 51.11037 | 17.65806 | 76° | 53km/h | 18034m | 5.8m/s | 0°C | 0% | 0hPa | 0V | 00:00:00 | 00:00:00 | 00:00:00 | |
| SQ6EMJ | 2026-09-02 00:10:57 | 51.11037 | 17.65730 | 108° | 51km/h | 18005m | 6.2m/s | 0°C | 0% | 0hPa | 0V | 00:00:00 | 00:00:00 | 00:00:00 | |
| KRY50SP | 2026-09-02 00:10:55 | 51.11045 | 17.65688 | 104° | 57km/h | 17991m | 4.8m/s | 0°C | 0% | 0hPa | 0V | 00:00:00 | 00:00:00 | 00:00:00 | |
| SQ6EMJ | 2026-09-02 00:10:51 | 51.11052 | 17.65610 | 92° | 53km/h | 17972m | 6.5m/s | 0°C | 0% | 0hPa | 0V | 00:00:00 | 00:00:00 | 00:00:00 | |
| KRY50SP | 2026-09-02 00:10:50 | 51.11052 | 17.65588 | 90° | 53km/h | 17965m | 4.4m/s | 0°C | 0% | 0hPa | 0V | 00:00:00 | 00:00:00 | 00:00:00 | |
| SP4MAZ | 2026-09-02 00:10:48 | 51.11054 | 17.65544 | 98° | 55km/h | 17957m | 4.5m/s | 0°C | 0% | 0hPa | 0V | 00:00:00 | 00:00:00 | 00:00:00 | |
| KRY50SP | 2026-09-02 00:10:45 | 51.11057 | 17.65473 | 90° | 60km/h | 17943m | 1.8m/s | 0°C | 0% | 0hPa | 0V | 00:00:00 | 00:00:00 | 00:00:00 | |
| POL1PZ | 2026-09-02 00:10:41 | 51.11052 | 17.65393 | 79° | 49km/h | 17927m | 5.5m/s | 0°C | 0% | 0hPa | 0V | 00:00:00 | 00:00:00 | 00:00:00 | |
| KRY50SP | 2026-09-02 00:10:39 | 51.11048 | 17.65353 | 86° | 55km/h | 17918m | 5.2m/s | 0°C | 0% | 0hPa | 0V | 00:00:00 | 00:00:00 | 00:00:00 | |
| SQ6EMJ | 2026-09-02 00:10:34 | 51.11048 | 17.65238 | 81° | 57km/h | 17895m | 3.0m/s | 0°C | 0% | 0hPa | 0V | 00:00:00 | 00:00:00 | 00:00:00 | |
| KRY50SP | 2026-09-02 00:10:32 | 51.11043 | 17.65196 | 88° | 49km/h | 17887m | 5.6m/s | 0°C | 0% | 0hPa | 0V | 00:00:00 | 00:00:00 | 00:00:00 | |
| SQ6EMJ | 2026-09-02 00:10:29 | 51.11042 | 17.65132 | 87° | 60km/h | 17873m | 4.9m/s | 0°C | 0% | 0hPa | 0V | 00:00:00 | 00:00:00 | 00:00:00 | |
| KRY50SP | 2026-09-02 00:10:26 | 51.11040 | 17.65060 | 90° | 51km/h | 17863m | 4.3m/s | 0°C | 0% | 0hPa | 0V | 00:00:00 | 00:00:00 | 00:00:00 | |
| SP3BTT-10 | 2026-09-02 00:10:23 | 51.11038 | 17.65001 | 77° | 47km/h | 17850m | 5.6m/s | 0°C | 0% | 0hPa | 0V | 00:00:00 | 00:00:00 | 00:00:00 | |
| POL1PZ | 2026-09-02 00:10:20 | 51.11029 | 17.64940 | 80° | 47km/h | 17834m | 3.5m/s | 0°C | 0% | 0hPa | 0V | 00:00:00 | 00:00:00 | 00:00:00 | |
| SQ6EMJ | 2026-09-02 00:10:18 | 51.11024 | 17.64901 | 81° | 55km/h | 17826m | 6.8m/s | 0°C | 0% | 0hPa | 0V | 00:00:00 | 00:00:00 | 00:00:00 | |
| KRY50SP | 2026-09-02 00:10:14 | 51.11014 | 17.64822 | 76° | 40km/h | 17807m | 3.7m/s | 0°C | 0% | 0hPa | 0V | 00:00:00 | 00:00:00 | 00:00:00 | |
| SQ6EMJ | 2026-09-02 00:10:12 | 51.11008 | 17.64784 | 79° | 53km/h | 17796m | 7.2m/s | 0°C | 0% | 0hPa | 0V | 00:00:00 | 00:00:00 | 00:00:00 | |
| KRY50SP | 2026-09-02 00:10:09 | 51.11002 | 17.64721 | 85° | 47km/h | 17781m | 4.7m/s | 0°C | 0% | 0hPa | 0V | 00:00:00 | 00:00:00 | 00:00:00 | |
| SQ6EMJ | 2026-09-02 00:10:06 | 51.10995 | 17.64659 | 80° | 55km/h | 17767m | 4.0m/s | 0°C | 0% | 0hPa | 0V | 00:00:00 | 00:00:00 | 00:00:00 | |
| KRY50SP | 2026-09-02 00:10:03 | 51.10989 | 17.64598 | 82° | 51km/h | 17753m | 4.1m/s | 0°C | 0% | 0hPa | 0V | 00:00:00 | 00:00:00 | 00:00:00 | |
| POL1PZ | 2026-09-02 00:10:00 | 51.10977 | 17.64534 | 67° | 53km/h | 17739m | 6.3m/s | 0°C | 0% | 0hPa | 0V | 00:00:00 | 00:00:00 | 00:00:00 | |
| KRY50SP | 2026-09-02 00:09:58 | 51.10969 | 17.64495 | 71° | 49km/h | 17728m | 5.4m/s | 0°C | 0% | 0hPa | 0V | 00:00:00 | 00:00:00 | 00:00:00 | |
| SQ6EMJ | 2026-09-02 00:09:55 | 51.10960 | 17.64436 | 83° | 46km/h | 17713m | 5.1m/s | 0°C | 0% | 0hPa | 0V | 00:00:00 | 00:00:00 | 00:00:00 | |
| KRY50SP | 2026-09-02 00:09:51 | 51.10950 | 17.64364 | 67° | 55km/h | 17696m | 4.5m/s | 0°C | 0% | 0hPa | 0V | 00:00:00 | 00:00:00 | 00:00:00 | |
| SQ6EMJ | 2026-09-02 00:09:50 | 51.10945 | 17.64343 | 65° | 57km/h | 17692m | 3.8m/s | 0°C | 0% | 0hPa | 0V | 00:00:00 | 00:00:00 | 00:00:00 | |
| KRY50SP | 2026-09-02 00:09:46 | 51.10934 | 17.64269 | 85° | 51km/h | 17675m | 5.8m/s | 0°C | 0% | 0hPa | 0V | 00:00:00 | 00:00:00 | 00:00:00 | |
| SQ6EMJ | 2026-09-02 00:09:44 | 51.10930 | 17.64232 | 80° | 42km/h | 17667m | 4.4m/s | 0°C | 0% | 0hPa | 0V | 00:00:00 | 00:00:00 | 00:00:00 | |
| KRY50SP | 2026-09-02 00:09:40 | 51.10919 | 17.64165 | 82° | 47km/h | 17650m | 4.6m/s | 0°C | 0% | 0hPa | 0V | 00:00:00 | 00:00:00 | 00:00:00 | |
| POL1PZ | 2026-09-02 00:09:39 | 51.10918 | 17.64147 | 83° | 40km/h | 17644m | 4.6m/s | 0°C | 0% | 0hPa | 0V | 00:00:00 | 00:00:00 | 00:00:00 | |
| SP3BTT-10 | 2026-09-02 00:09:38 | 51.10917 | 17.64132 | 86° | 46km/h | 17639m | 4.3m/s | 0°C | 0% | 0hPa | 0V | 00:00:00 | 00:00:00 | 00:00:00 | |
| KRY50SP | 2026-09-02 00:09:34 | 51.10909 | 17.64066 | 76° | 49km/h | 17621m | 5.8m/s | 0°C | 0% | 0hPa | 0V | 00:00:00 | 00:00:00 | 00:00:00 | |
| SQ6EMJ | 2026-09-02 00:09:32 | 51.10905 | 17.64034 | 83° | 37km/h | 17612m | 4.8m/s | 0°C | 0% | 0hPa | 0V | 00:00:00 | 00:00:00 | 00:00:00 | |
| SQ6EMJ | 2026-09-02 00:09:29 | 51.10896 | 17.63949 | 86° | 38km/h | 17589m | 5.6m/s | 0°C | 0% | 0hPa | 0V | 00:00:00 | 00:00:00 | 00:00:00 | |
| KRY50SP | 2026-09-02 00:09:22 | 51.10890 | 17.63876 | 84° | 37km/h | 17572m | 5.7m/s | 0°C | 0% | 0hPa | 0V | 00:00:00 | 00:00:00 | 00:00:00 | |
| SQ6EMJ | 2026-09-02 00:09:20 | 51.10888 | 17.63850 | 82° | 35km/h | 17563m | 6.2m/s | 0°C | 0% | 0hPa | 0V | 00:00:00 | 00:00:00 | 00:00:00 | |
| POL1PZ | 2026-09-02 00:09:19 | 51.10888 | 17.63836 | 87° | 37km/h | 17558m | 5.5m/s | 0°C | 0% | 0hPa | 0V | 00:00:00 | 00:00:00 | 00:00:00 | |
| SQ6EMJ | 2026-09-02 00:09:14 | 51.10882 | 17.63759 | 83° | 37km/h | 17532m | 4.8m/s | 0°C | 0% | 0hPa | 0V | 00:00:00 | 00:00:00 | 00:00:00 | |
| KRY50SP | 2026-09-02 00:09:11 | 51.10882 | 17.63706 | 94° | 46km/h | 17517m | 6.2m/s | 0°C | 0% | 0hPa | 0V | 00:00:00 | 00:00:00 | 00:00:00 | |
| SQ6EMJ | 2026-09-02 00:09:09 | 51.10883 | 17.63675 | 89° | 37km/h | 17508m | 4.2m/s | 0°C | 0% | 0hPa | 0V | 00:00:00 | 00:00:00 | 00:00:00 | |
| KRY50SP | 2026-09-02 00:09:05 | 51.10878 | 17.63613 | 77° | 46km/h | 17494m | 3.6m/s | 0°C | 0% | 0hPa | 0V | 00:00:00 | 00:00:00 | 00:00:00 | |
| SQ6EMJ | 2026-09-02 00:09:04 | 51.10876 | 17.63596 | 75° | 38km/h | 17489m | 6.9m/s | 0°C | 0% | 0hPa | 0V | 00:00:00 | 00:00:00 | 00:00:00 | |
| KRY50SP | 2026-09-02 00:08:59 | 51.10863 | 17.63525 | 82° | 42km/h | 17462m | 5.7m/s | 0°C | 0% | 0hPa | 0V | 00:00:00 | 00:00:00 | 00:00:00 | |
| POL1PZ | 2026-09-02 00:08:58 | 51.10862 | 17.63508 | 88° | 38km/h | 17456m | 5.3m/s | 0°C | 0% | 0hPa | 0V | 00:00:00 | 00:00:00 | 00:00:00 | |
| KRY50SP | 2026-09-02 00:08:53 | 51.10855 | 17.63422 | 79° | 35km/h | 17432m | 7.0m/s | 0°C | 0% | 0hPa | 0V | 00:00:00 | 00:00:00 | 00:00:00 | |
| SQ6EMJ | 2026-09-02 00:08:52 | 51.10852 | 17.63408 | 72° | 37km/h | 17426m | 4.7m/s | 0°C | 0% | 0hPa | 0V | 00:00:00 | 00:00:00 | 00:00:00 | |
| KRY50SP | 2026-09-02 00:08:48 | 51.10845 | 17.63339 | 88° | 46km/h | 17405m | 4.8m/s | 0°C | 0% | 0hPa | 0V | 00:00:00 | 00:00:00 | 00:00:00 | |
| SQ6EMJ | 2026-09-02 00:08:47 | 51.10845 | 17.63321 | 89° | 49km/h | 17400m | 4.8m/s | 0°C | 0% | 0hPa | 0V | 00:00:00 | 00:00:00 | 00:00:00 | |
| KRY50SP | 2026-09-02 00:08:43 | 51.10837 | 17.63253 | 73° | 35km/h | 17380m | 4.9m/s | 0°C | 0% | 0hPa | 0V | 00:00:00 | 00:00:00 | 00:00:00 | |
| SQ6EMJ | 2026-09-02 00:08:41 | 51.10832 | 17.63224 | 79° | 44km/h | 17370m | 5.8m/s | 0°C | 0% | 0hPa | 0V | 00:00:00 | 00:00:00 | 00:00:00 | |
| POL1PZ | 2026-09-02 00:08:38 | 51.10827 | 17.63170 | 87° | 42km/h | 17354m | 4.8m/s | 0°C | 0% | 0hPa | 0V | 00:00:00 | 00:00:00 | 00:00:00 | |
| SQ6EMJ | 2026-09-02 00:08:37 | 51.10824 | 17.63133 | 80° | 51km/h | 17344m | 5.6m/s | 0°C | 0% | 0hPa | 0V | 00:00:00 | 00:00:00 | 00:00:00 | |
| KRY50SP | 2026-09-02 00:08:31 | 51.10813 | 17.63042 | 82° | 46km/h | 17318m | 6.4m/s | 0°C | 0% | 0hPa | 0V | 00:00:00 | 00:00:00 | 00:00:00 | |
| SQ6EMJ | 2026-09-02 00:08:30 | 51.10811 | 17.63024 | 79° | 47km/h | 17313m | 3.5m/s | 0°C | 0% | 0hPa | 0V | 00:00:00 | 00:00:00 | 00:00:00 | |
| PETON7-10 | 2026-09-02 00:08:26 | 51.10799 | 17.62951 | 74° | 51km/h | 17296m | 5.2m/s | 0°C | 0% | 0hPa | 0V | 00:00:00 | 00:00:00 | 00:00:00 | |
| KRY50SP | 2026-09-02 00:08:25 | 51.10795 | 17.62931 | 71° | 53km/h | 17291m | 2.6m/s | 0°C | 0% | 0hPa | 0V | 00:00:00 | 00:00:00 | 00:00:00 | |
| SQ6EMJ | 2026-09-02 00:08:24 | 51.10790 | 17.62912 | 69° | 49km/h | 17287m | 4.5m/s | 0°C | 0% | 0hPa | 0V | 00:00:00 | 00:00:00 | 00:00:00 | |
| SP3BTT-10 | 2026-09-02 00:08:22 | 51.10783 | 17.62875 | 79° | 46km/h | 17277m | 4.3m/s | 0°C | 0% | 0hPa | 0V | 00:00:00 | 00:00:00 | 00:00:00 | |
| KRY50SP | 2026-09-02 00:08:20 | 51.10778 | 17.62834 | 80° | 57km/h | 17268m | 4.8m/s | 0°C | 0% | 0hPa | 0V | 00:00:00 | 00:00:00 | 00:00:00 | |
| SQ6EMJ | 2026-09-02 00:08:19 | 51.10776 | 17.62812 | 75° | 51km/h | 17264m | 4.1m/s | 0°C | 0% | 0hPa | 0V | 00:00:00 | 00:00:00 | 00:00:00 | |
| POL1PZ | 2026-09-02 00:08:17 | 51.10768 | 17.62774 | 72° | 51km/h | 17255m | 4.7m/s | 0°C | 0% | 0hPa | 0V | 00:00:00 | 00:00:00 | 00:00:00 | |
| KRY50SP | 2026-09-02 00:08:15 | 51.10760 | 17.62732 | 78° | 58km/h | 17246m | 4.1m/s | 0°C | 0% | 0hPa | 0V | 00:00:00 | 00:00:00 | 00:00:00 | |
| SQ6EMJ | 2026-09-02 00:08:13 | 51.10753 | 17.62690 | 76° | 47km/h | 17237m | 4.5m/s | 0°C | 0% | 0hPa | 0V | 00:00:00 | 00:00:00 | 00:00:00 | |
| KRY50SP | 2026-09-02 00:08:09 | 51.10734 | 17.62618 | 69° | 53km/h | 17216m | 5.9m/s | 0°C | 0% | 0hPa | 0V | 00:00:00 | 00:00:00 | 00:00:00 | |
| SQ6EMJ | 2026-09-02 00:08:08 | 51.10729 | 17.62599 | 66° | 49km/h | 17210m | 7.0m/s | 0°C | 0% | 0hPa | 0V | 00:00:00 | 00:00:00 | 00:00:00 | |
| PETON7-10 | 2026-09-02 00:08:04 | 51.10717 | 17.62520 | 82° | 46km/h | 17191m | 4.7m/s | 0°C | 0% | 0hPa | 0V | 00:00:00 | 00:00:00 | 00:00:00 | |
| SQ6EMJ | 2026-09-02 00:08:02 | 51.10711 | 17.62482 | 68° | 46km/h | 17182m | 3.1m/s | 0°C | 0% | 0hPa | 0V | 00:00:00 | 00:00:00 | 00:00:00 | |
| KRY50SP | 2026-09-02 00:07:59 | 51.10692 | 17.62425 | 59° | 55km/h | 17168m | 3.9m/s | 0°C | 0% | 0hPa | 0V | 00:00:00 | 00:00:00 | 00:00:00 | |
| POL1PZ | 2026-09-02 00:07:56 | 51.10675 | 17.62373 | 68° | 51km/h | 17154m | 4.9m/s | 0°C | 0% | 0hPa | 0V | 00:00:00 | 00:00:00 | 00:00:00 | |
| KRY50SP | 2026-09-02 00:07:53 | 51.10660 | 17.62315 | 71° | 47km/h | 17138m | 5.2m/s | 0°C | 0% | 0hPa | 0V | 00:00:00 | 00:00:00 | 00:00:00 | |
| SQ6EMJ | 2026-09-02 00:07:51 | 51.10651 | 17.62282 | 62° | 47km/h | 17129m | 4.8m/s | 0°C | 0% | 0hPa | 0V | 00:00:00 | 00:00:00 | 00:00:00 | |
| KRY50SP | 2026-09-02 00:07:47 | 51.10626 | 17.62211 | 61° | 44km/h | 17111m | 4.9m/s | 0°C | 0% | 0hPa | 0V | 00:00:00 | 00:00:00 | 00:00:00 | |
| SQ6EMJ | 2026-09-02 00:07:45 | 51.10616 | 17.62181 | 64° | 44km/h | 17102m | 4.7m/s | 0°C | 0% | 0hPa | 0V | 00:00:00 | 00:00:00 | 00:00:00 | |
| KRY50SP | 2026-09-02 00:07:41 | 51.10596 | 17.62114 | 67° | 44km/h | 17083m | 4.5m/s | 0°C | 0% | 0hPa | 0V | 00:00:00 | 00:00:00 | 00:00:00 | |
| SQ6EMJ | 2026-09-02 00:07:39 | 51.10585 | 17.62079 | 63° | 51km/h | 17073m | 4.1m/s | 0°C | 0% | 0hPa | 0V | 00:00:00 | 00:00:00 | 00:00:00 | |
| KRY50SP | 2026-09-02 00:07:35 | 51.10563 | 17.62015 | 68° | 44km/h | 17055m | 5.7m/s | 0°C | 0% | 0hPa | 0V | 00:00:00 | 00:00:00 | 00:00:00 | |
| SQ6EMJ | 2026-09-02 00:07:34 | 51.10558 | 17.61998 | 66° | 49km/h | 17051m | 4.6m/s | 0°C | 0% | 0hPa | 0V | 00:00:00 | 00:00:00 | 00:00:00 | |
| KRY50SP | 2026-09-02 00:07:29 | 51.10539 | 17.61910 | 72° | 49km/h | 17025m | 5.7m/s | 0°C | 0% | 0hPa | 0V | 00:00:00 | 00:00:00 | 00:00:00 | |
| KRY50SP | 2026-09-02 00:07:23 | 51.10512 | 17.61815 | 75° | 44km/h | 16997m | 4.0m/s | 0°C | 0% | 0hPa | 0V | 00:00:00 | 00:00:00 | 00:00:00 | |
| SQ6EMJ | 2026-09-02 00:07:22 | 51.10509 | 17.61799 | 76° | 44km/h | 16993m | 5.5m/s | 0°C | 0% | 0hPa | 0V | 00:00:00 | 00:00:00 | 00:00:00 | |
| KRY50SP | 2026-09-02 00:07:18 | 51.10498 | 17.61730 | 74° | 46km/h | 16972m | 5.9m/s | 0°C | 0% | 0hPa | 0V | 00:00:00 | 00:00:00 | 00:00:00 | |
| SQ6EMJ | 2026-09-02 00:07:16 | 51.10490 | 17.61701 | 68° | 38km/h | 16959m | 4.1m/s | 0°C | 0% | 0hPa | 0V | 00:00:00 | 00:00:00 | 00:00:00 | |
| KRY50SP | 2026-09-02 00:07:12 | 51.10481 | 17.61636 | 90° | 44km/h | 16939m | 5.7m/s | 0°C | 0% | 0hPa | 0V | 00:00:00 | 00:00:00 | 00:00:00 | |
| SQ6EMJ | 2026-09-02 00:07:10 | 51.10481 | 17.61602 | 86° | 44km/h | 16929m | 4.9m/s | 0°C | 0% | 0hPa | 0V | 00:00:00 | 00:00:00 | 00:00:00 | |
| SP3BTT-10 | 2026-09-02 00:07:07 | 51.10475 | 17.61551 | 74° | 40km/h | 16915m | 4.1m/s | 0°C | 0% | 0hPa | 0V | 00:00:00 | 00:00:00 | 00:00:00 | |
| SQ6EMJ | 2026-09-02 00:07:04 | 51.10466 | 17.61499 | 73° | 42km/h | 16901m | 4.5m/s | 0°C | 0% | 0hPa | 0V | 00:00:00 | 00:00:00 | 00:00:00 | |
| KRY50SP | 2026-09-02 00:07:01 | 51.10459 | 17.61454 | 81° | 42km/h | 16888m | 5.4m/s | 0°C | 0% | 0hPa | 0V | 00:00:00 | 00:00:00 | 00:00:00 | |
| SQ6EMJ | 2026-09-02 00:06:58 | 51.10449 | 17.61402 | 83° | 44km/h | 16871m | 5.4m/s | 0°C | 0% | 0hPa | 0V | 00:00:00 | 00:00:00 | 00:00:00 | |
| KRY50SP | 2026-09-02 00:06:53 | 51.10440 | 17.61312 | 80° | 42km/h | 16848m | 6.2m/s | 0°C | 0% | 0hPa | 0V | 00:00:00 | 00:00:00 | 00:00:00 | |
| SQ6EMJ | 2026-09-02 00:06:52 | 51.10438 | 17.61296 | 80° | 37km/h | 16842m | 4.7m/s | 0°C | 0% | 0hPa | 0V | 00:00:00 | 00:00:00 | 00:00:00 | |
| KRY50SP | 2026-09-02 00:06:48 | 51.10428 | 17.61232 | 78° | 42km/h | 16826m | 5.6m/s | 0°C | 0% | 0hPa | 0V | 00:00:00 | 00:00:00 | 00:00:00 | |
| SQ6EMJ | 2026-09-02 00:06:46 | 51.10423 | 17.61199 | 78° | 44km/h | 16815m | 5.3m/s | 0°C | 0% | 0hPa | 0V | 00:00:00 | 00:00:00 | 00:00:00 | |
| KRY50SP | 2026-09-02 00:06:42 | 51.10411 | 17.61137 | 77° | 38km/h | 16796m | 3.7m/s | 0°C | 0% | 0hPa | 0V | 00:00:00 | 00:00:00 | 00:00:00 | |
| SQ6EMJ | 2026-09-02 00:06:41 | 51.10408 | 17.61121 | 81° | 44km/h | 16791m | 5.7m/s | 0°C | 0% | 0hPa | 0V | 00:00:00 | 00:00:00 | 00:00:00 | |
| KRY50SP | 2026-09-02 00:06:37 | 51.10395 | 17.61049 | 67° | 40km/h | 16773m | 6.0m/s | 0°C | 0% | 0hPa | 0V | 00:00:00 | 00:00:00 | 00:00:00 | |
| SQ6EMJ | 2026-09-02 00:06:35 | 51.10384 | 17.61017 | 62° | 49km/h | 16762m | 4.4m/s | 0°C | 0% | 0hPa | 0V | 00:00:00 | 00:00:00 | 00:00:00 | |
| KRY50SP | 2026-09-02 00:06:31 | 51.10371 | 17.60952 | 82° | 42km/h | 16742m | 3.3m/s | 0°C | 0% | 0hPa | 0V | 00:00:00 | 00:00:00 | 00:00:00 | |
| SQ6EMJ | 2026-09-02 00:06:29 | 51.10366 | 17.60914 | 80° | 53km/h | 16735m | 2.8m/s | 0°C | 0% | 0hPa | 0V | 00:00:00 | 00:00:00 | 00:00:00 | |
| KRY50SP | 2026-09-02 00:06:26 | 51.10358 | 17.60859 | 72° | 42km/h | 16722m | 5.5m/s | 0°C | 0% | 0hPa | 0V | 00:00:00 | 00:00:00 | 00:00:00 | |
| SQ6EMJ | 2026-09-02 00:06:24 | 51.10347 | 17.60810 | 74° | 44km/h | 16707m | 6.1m/s | 0°C | 0% | 0hPa | 0V | 00:00:00 | 00:00:00 | 00:00:00 | |
| KRY50SP | 2026-09-02 00:06:19 | 51.10333 | 17.60742 | 73° | 49km/h | 16685m | 3.4m/s | 0°C | 0% | 0hPa | 0V | 00:00:00 | 00:00:00 | 00:00:00 | |
| SQ6EMJ | 2026-09-02 00:06:17 | 51.10327 | 17.60706 | 74° | 40km/h | 16674m | 3.8m/s | 0°C | 0% | 0hPa | 0V | 00:00:00 | 00:00:00 | 00:00:00 | |
| KRY50SP | 2026-09-02 00:06:14 | 51.10317 | 17.60653 | 72° | 49km/h | 16663m | 5.7m/s | 0°C | 0% | 0hPa | 0V | 00:00:00 | 00:00:00 | 00:00:00 | |
| SQ6EMJ | 2026-09-02 00:06:11 | 51.10302 | 17.60607 | 60° | 46km/h | 16647m | 5.4m/s | 0°C | 0% | 0hPa | 0V | 00:00:00 | 00:00:00 | 00:00:00 | |
| KRY50SP | 2026-09-02 00:06:08 | 51.10287 | 17.60556 | 75° | 40km/h | 16632m | 5.8m/s | 0°C | 0% | 0hPa | 0V | 00:00:00 | 00:00:00 | 00:00:00 | |
| SQ6EMJ | 2026-09-02 00:06:06 | 51.10284 | 17.60524 | 80° | 42km/h | 16621m | 7.3m/s | 0°C | 0% | 0hPa | 0V | 00:00:00 | 00:00:00 | 00:00:00 | |
| KRY50SP | 2026-09-02 00:06:02 | 51.10267 | 17.60460 | 57° | 47km/h | 16597m | 4.6m/s | 0°C | 0% | 0hPa | 0V | 00:00:00 | 00:00:00 | 00:00:00 | |
| SQ6EMJ | 2026-09-02 00:06:00 | 51.10253 | 17.60424 | 62° | 49km/h | 16590m | 2.5m/s | 0°C | 0% | 0hPa | 0V | 00:00:00 | 00:00:00 | 00:00:00 | |
| SQ6EMJ | 2026-09-02 00:05:56 | 51.10240 | 17.60359 | 68° | 31km/h | 16563m | 6.0m/s | 0°C | 0% | 0hPa | 0V | 00:00:00 | 00:00:00 | 00:00:00 | |
| SP3BTT-10 | 2026-09-02 00:05:52 | 51.10230 | 17.60316 | 81° | 46km/h | 16551m | 5.3m/s | 0°C | 0% | 0hPa | 0V | 00:00:00 | 00:00:00 | 00:00:00 | |
| KRY50SP | 2026-09-02 00:05:49 | 51.10230 | 17.60276 | 87° | 33km/h | 16534m | 5.3m/s | 0°C | 0% | 0hPa | 0V | 00:00:00 | 00:00:00 | 00:00:00 | |
| KRY50SP | 2026-09-02 00:05:43 | 51.10219 | 17.60201 | 80° | 31km/h | 16504m | 3.0m/s | 0°C | 0% | 0hPa | 0V | 00:00:00 | 00:00:00 | 00:00:00 | |
| KRY50SP | 2026-09-02 00:05:33 | 51.10214 | 17.60076 | 84° | 27km/h | 16456m | 4.9m/s | 0°C | 0% | 0hPa | 0V | 00:00:00 | 00:00:00 | 00:00:00 | |
| KRY50SP | 2026-09-02 00:05:26 | 51.10216 | 17.60012 | 103° | 18km/h | 16424m | 3.9m/s | 0°C | 0% | 0hPa | 0V | 00:00:00 | 00:00:00 | 00:00:00 | |
| KRY50SP | 2026-09-02 00:05:22 | 51.10223 | 17.59970 | 116° | 33km/h | 16404m | 6.2m/s | 0°C | 0% | 0hPa | 0V | 00:00:00 | 00:00:00 | 00:00:00 | |
| SQ6EMJ | 2026-09-02 00:05:21 | 51.10227 | 17.59958 | 118° | 33km/h | 16398m | 5.4m/s | 0°C | 0% | 0hPa | 0V | 00:00:00 | 00:00:00 | 00:00:00 | |
| SQ6EMJ | 2026-09-02 00:05:15 | 51.10238 | 17.59905 | 112° | 29km/h | 16373m | 3.2m/s | 0°C | 0% | 0hPa | 0V | 00:00:00 | 00:00:00 | 00:00:00 | |
| KRY50SP | 2026-09-02 00:05:09 | 51.10253 | 17.59832 | 126° | 27km/h | 16350m | 6.3m/s | 0°C | 0% | 0hPa | 0V | 00:00:00 | 00:00:00 | 00:00:00 | |
| SQ6EMJ | 2026-09-02 00:05:03 | 51.10271 | 17.59770 | 101° | 38km/h | 16324m | 6.4m/s | 0°C | 0% | 0hPa | 0V | 00:00:00 | 00:00:00 | 00:00:00 | |
| KRY50SP | 2026-09-02 00:04:58 | 51.10287 | 17.59682 | 95° | 33km/h | 16296m | 5.1m/s | 0°C | 0% | 0hPa | 0V | 00:00:00 | 00:00:00 | 00:00:00 | |
| KRY50SP | 2026-09-02 00:04:52 | 51.10301 | 17.59578 | 104° | 40km/h | 16265m | 3.0m/s | 0°C | 0% | 0hPa | 0V | 00:00:00 | 00:00:00 | 00:00:00 | |
| KRY50SP | 2026-09-02 00:04:45 | 51.10314 | 17.59475 | 96° | 42km/h | 16237m | 3.8m/s | 0°C | 0% | 0hPa | 0V | 00:00:00 | 00:00:00 | 00:00:00 | |
| KRY50SP | 2026-09-02 00:04:40 | 51.10323 | 17.59356 | 97° | 57km/h | 16205m | 6.2m/s | 0°C | 0% | 0hPa | 0V | 00:00:00 | 00:00:00 | 00:00:00 | |
| SP3BTT-10 | 2026-09-02 00:04:36 | 51.10327 | 17.59292 | 98° | 53km/h | 16190m | 3.2m/s | 0°C | 0% | 0hPa | 0V | 00:00:00 | 00:00:00 | 00:00:00 | |
| SQ6EMJ | 2026-09-02 00:04:35 | 51.10329 | 17.59273 | 103° | 49km/h | 16187m | 3.5m/s | 0°C | 0% | 0hPa | 0V | 00:00:00 | 00:00:00 | 00:00:00 | |
| KRY50SP | 2026-09-02 00:04:33 | 51.10335 | 17.59229 | 101° | 57km/h | 16181m | 2.2m/s | 0°C | 0% | 0hPa | 0V | 00:00:00 | 00:00:00 | 00:00:00 | |
| SQ6EMJ | 2026-09-02 00:04:29 | 51.10340 | 17.59142 | 91° | 55km/h | 16160m | 5.3m/s | 0°C | 0% | 0hPa | 0V | 00:00:00 | 00:00:00 | 00:00:00 | |
| KRY50SP | 2026-09-02 00:04:27 | 51.10341 | 17.59096 | 92° | 57km/h | 16153m | 5.0m/s | 0°C | 0% | 0hPa | 0V | 00:00:00 | 00:00:00 | 00:00:00 | |
| SQ6EMJ | 2026-09-02 00:04:23 | 51.10347 | 17.59008 | 101° | 60km/h | 16137m | 2.1m/s | 0°C | 0% | 0hPa | 0V | 00:00:00 | 00:00:00 | 00:00:00 | |
| KRY50SP | 2026-09-02 00:04:22 | 51.10349 | 17.58984 | 98° | 60km/h | 16134m | 5.9m/s | 0°C | 0% | 0hPa | 0V | 00:00:00 | 00:00:00 | 00:00:00 | |
| SQ6EMJ | 2026-09-02 00:04:18 | 51.10353 | 17.58890 | 90° | 60km/h | 16114m | 4.6m/s | 0°C | 0% | 0hPa | 0V | 00:00:00 | 00:00:00 | 00:00:00 | |
| KRY50SP | 2026-09-02 00:04:17 | 51.10353 | 17.58865 | 91° | 60km/h | 16110m | 5.7m/s | 0°C | 0% | 0hPa | 0V | 00:00:00 | 00:00:00 | 00:00:00 | |
| SQ6EMJ | 2026-09-02 00:04:13 | 51.10363 | 17.58756 | 104° | 55km/h | 16088m | 3.5m/s | 0°C | 0% | 0hPa | 0V | 00:00:00 | 00:00:00 | 00:00:00 | |
| KRY50SP | 2026-09-02 00:04:12 | 51.10367 | 17.58733 | 105° | 62km/h | 16083m | 4.3m/s | 0°C | 0% | 0hPa | 0V | 00:00:00 | 00:00:00 | 00:00:00 | |
| SQ6EMJ | 2026-09-02 00:04:08 | 51.10371 | 17.58622 | 88° | 68km/h | 16060m | 4.0m/s | 0°C | 0% | 0hPa | 0V | 00:00:00 | 00:00:00 | 00:00:00 | |
| KRY50SP | 2026-09-02 00:04:06 | 51.10371 | 17.58574 | 100° | 55km/h | 16053m | 6.1m/s | 0°C | 0% | 0hPa | 0V | 00:00:00 | 00:00:00 | 00:00:00 | |
| KRY50SP | 2026-09-02 00:03:57 | 51.10404 | 17.58317 | 113° | 49km/h | 15995m | 4.3m/s | 0°C | 0% | 0hPa | 0V | 00:00:00 | 00:00:00 | 00:00:00 | |
| SQ6EMJ | 2026-09-02 00:03:55 | 51.10412 | 17.58274 | 104° | 58km/h | 15988m | 5.0m/s | 0°C | 0% | 0hPa | 0V | 00:00:00 | 00:00:00 | 00:00:00 | |
| KRY50SP | 2026-09-02 00:03:52 | 51.10419 | 17.58177 | 99° | 57km/h | 15968m | 4.9m/s | 0°C | 0% | 0hPa | 0V | 00:00:00 | 00:00:00 | 00:00:00 | |
| SQ6EMJ | 2026-09-02 00:03:51 | 51.10422 | 17.58134 | 97° | 55km/h | 15961m | 6.4m/s | 0°C | 0% | 0hPa | 0V | 00:00:00 | 00:00:00 | 00:00:00 | |
| KRY50SP | 2026-09-02 00:03:48 | 51.10424 | 17.58064 | 94° | 58km/h | 15943m | 4.2m/s | 0°C | 0% | 0hPa | 0V | 00:00:00 | 00:00:00 | 00:00:00 | |
| SQ6EMJ | 2026-09-02 00:03:46 | 51.10425 | 17.58015 | 88° | 57km/h | 15935m | 3.8m/s | 0°C | 0% | 0hPa | 0V | 00:00:00 | 00:00:00 | 00:00:00 | |
| KRY50SP | 2026-09-02 00:03:38 | 51.10430 | 17.57934 | 107° | 51km/h | 15918m | 4.2m/s | 0°C | 0% | 0hPa | 0V | 00:00:00 | 00:00:00 | 00:00:00 | |
| SQ6EMJ | 2026-09-02 00:03:35 | 51.10435 | 17.57893 | 97° | 55km/h | 15907m | 5.9m/s | 0°C | 0% | 0hPa | 0V | 00:00:00 | 00:00:00 | 00:00:00 | |
| KRY50SP | 2026-09-02 00:03:31 | 51.10440 | 17.57773 | 92° | 57km/h | 15883m | 3.2m/s | 0°C | 0% | 0hPa | 0V | 00:00:00 | 00:00:00 | 00:00:00 | |
| SQ6EMJ | 2026-09-02 00:03:30 | 51.10440 | 17.57750 | 93° | 57km/h | 15878m | 5.2m/s | 0°C | 0% | 0hPa | 0V | 00:00:00 | 00:00:00 | 00:00:00 | |
| KRY50SP | 2026-09-02 00:03:28 | 51.10447 | 17.57630 | 91° | 62km/h | 15856m | 4.6m/s | 0°C | 0% | 0hPa | 0V | 00:00:00 | 00:00:00 | 00:00:00 | |
| SQ6EMJ | 2026-09-02 00:03:27 | 51.10448 | 17.57605 | 95° | 62km/h | 15852m | 5.2m/s | 0°C | 0% | 0hPa | 0V | 00:00:00 | 00:00:00 | 00:00:00 | |
| KRY50SP | 2026-09-02 00:03:23 | 51.10451 | 17.57514 | 94° | 55km/h | 15834m | 5.2m/s | 0°C | 0% | 0hPa | 0V | 00:00:00 | 00:00:00 | 00:00:00 | |
| KRY50SP | 2026-09-02 00:03:22 | 51.10455 | 17.57401 | 91° | 55km/h | 15811m | 3.5m/s | 0°C | 0% | 0hPa | 0V | 00:00:00 | 00:00:00 | 00:00:00 | |
| SQ6EMJ | 2026-09-02 00:03:21 | 51.10458 | 17.57340 | 93° | 47km/h | 15800m | 4.9m/s | 0°C | 0% | 0hPa | 0V | 00:00:00 | 00:00:00 | 00:00:00 | |
| SP3BTT-10 | 2026-09-02 00:03:20 | 51.10459 | 17.57253 | 93° | 57km/h | 15783m | 5.5m/s | 0°C | 0% | 0hPa | 0V | 00:00:00 | 00:00:00 | 00:00:00 | |
| SQ6EMJ | 2026-09-02 00:03:19 | 51.10458 | 17.57207 | 86° | 53km/h | 15772m | 5.3m/s | 0°C | 0% | 0hPa | 0V | 00:00:00 | 00:00:00 | 00:00:00 | |
| KRY50SP | 2026-09-02 00:03:17 | 51.10457 | 17.57166 | 95° | 55km/h | 15762m | 6.0m/s | 0°C | 0% | 0hPa | 0V | 00:00:00 | 00:00:00 | 00:00:00 | |
| SQ6EMJ | 2026-09-02 00:03:13 | 51.10459 | 17.57077 | 95° | 60km/h | 15744m | 4.4m/s | 0°C | 0% | 0hPa | 0V | 00:00:00 | 00:00:00 | 00:00:00 | |
| KRY50SP | 2026-09-02 00:03:11 | 51.10462 | 17.57027 | 94° | 62km/h | 15734m | 4.9m/s | 0°C | 0% | 0hPa | 0V | 00:00:00 | 00:00:00 | 00:00:00 | |
| SQ6EMJ | 2026-09-02 00:03:08 | 51.10462 | 17.56929 | 89° | 55km/h | 15715m | 4.0m/s | 0°C | 0% | 0hPa | 0V | 00:00:00 | 00:00:00 | 00:00:00 | |
| SQ6EMJ | 2026-09-02 00:03:00 | 51.10464 | 17.56824 | 97° | 60km/h | 15694m | 3.5m/s | 0°C | 0% | 0hPa | 0V | 00:00:00 | 00:00:00 | 00:00:00 | |
| KRY50SP | 2026-09-02 00:02:56 | 51.10464 | 17.56776 | 90° | 62km/h | 15686m | 4.9m/s | 0°C | 0% | 0hPa | 0V | 00:00:00 | 00:00:00 | 00:00:00 | |
| SQ6EMJ | 2026-09-02 00:02:51 | 51.10458 | 17.56681 | 74° | 53km/h | 15666m | 6.1m/s | 0°C | 0% | 0hPa | 0V | 00:00:00 | 00:00:00 | 00:00:00 | |
| KRY50SP | 2026-09-02 00:02:45 | 51.10450 | 17.56576 | 94° | 64km/h | 15643m | 4.0m/s | 0°C | 0% | 0hPa | 0V | 00:00:00 | 00:00:00 | 00:00:00 | |
| SQ6EMJ | 2026-09-02 00:02:44 | 51.10449 | 17.56550 | 84° | 66km/h | 15640m | 4.8m/s | 0°C | 0% | 0hPa | 0V | 00:00:00 | 00:00:00 | 00:00:00 | |
| KRY50SP | 2026-09-02 00:02:40 | 51.10433 | 17.56404 | 84° | 55km/h | 15606m | 4.6m/s | 0°C | 0% | 0hPa | 0V | 00:00:00 | 00:00:00 | 00:00:00 | |
| SQ6EMJ | 2026-09-02 00:02:34 | 51.10431 | 17.56316 | 87° | 60km/h | 15590m | 5.7m/s | 0°C | 0% | 0hPa | 0V | 00:00:00 | 00:00:00 | 00:00:00 | |
| KRY50SP | 2026-09-02 00:02:33 | 51.10429 | 17.56290 | 84° | 66km/h | 15584m | 5.6m/s | 0°C | 0% | 0hPa | 0V | 00:00:00 | 00:00:00 | 00:00:00 | |
| SQ6EMJ | 2026-09-02 00:02:28 | 51.10427 | 17.56178 | 94° | 53km/h | 15559m | 3.7m/s | 0°C | 0% | 0hPa | 0V | 00:00:00 | 00:00:00 | 00:00:00 | |
| KRY50SP | 2026-09-02 00:02:26 | 51.10428 | 17.56157 | 95° | 51km/h | 15556m | 3.1m/s | 0°C | 0% | 0hPa | 0V | 00:00:00 | 00:00:00 | 00:00:00 | |
| SQ6EMJ | 2026-09-02 00:02:20 | 51.10429 | 17.56068 | 83° | 58km/h | 15539m | 4.0m/s | 0°C | 0% | 0hPa | 0V | 00:00:00 | 00:00:00 | 00:00:00 | |
| KRY50SP | 2026-09-02 00:02:18 | 51.10428 | 17.56023 | 96° | 53km/h | 15531m | 5.5m/s | 0°C | 0% | 0hPa | 0V | 00:00:00 | 00:00:00 | 00:00:00 | |
| SQ6EMJ | 2026-09-02 00:02:16 | 51.10435 | 17.55939 | 96° | 55km/h | 15510m | 3.1m/s | 0°C | 0% | 0hPa | 0V | 00:00:00 | 00:00:00 | 00:00:00 | |
| KRY50SP | 2026-09-02 00:02:15 | 51.10436 | 17.55917 | 99° | 58km/h | 15505m | 3.9m/s | 0°C | 0% | 0hPa | 0V | 00:00:00 | 00:00:00 | 00:00:00 | |
| SP3BTT-10 | 2026-09-02 00:02:13 | 51.10440 | 17.55869 | 92° | 62km/h | 15497m | 4.2m/s | 0°C | 0% | 0hPa | 0V | 00:00:00 | 00:00:00 | 00:00:00 | |
| KRY50SP | 2026-09-02 00:02:09 | 51.10442 | 17.55777 | 99° | 57km/h | 15480m | 5.2m/s | 0°C | 0% | 0hPa | 0V | 00:00:00 | 00:00:00 | 00:00:00 | |
| PETON7-10 | 2026-09-02 00:02:08 | 51.10442 | 17.55777 | 98° | 58km/h | 15480m | 5.1m/s | 0°C | 0% | 0hPa | 0V | 00:00:00 | 00:00:00 | 00:00:00 | |
| SQ6EMJ | 2026-09-02 00:02:02 | 51.10448 | 17.55694 | 93° | 60km/h | 15457m | 5.4m/s | 0°C | 0% | 0hPa | 0V | 00:00:00 | 00:00:00 | 00:00:00 | |
| KRY50SP | 2026-09-02 00:02:00 | 51.10449 | 17.55642 | 92° | 68km/h | 15449m | 3.1m/s | 0°C | 0% | 0hPa | 0V | 00:00:00 | 00:00:00 | 00:00:00 | |
| KRY50SP | 2026-09-02 00:01:56 | 51.10451 | 17.55475 | 89° | 69km/h | 15417m | 4.1m/s | 0°C | 0% | 0hPa | 0V | 00:00:00 | 00:00:00 | 00:00:00 | |
| SQ6EMJ | 2026-09-02 00:01:54 | 51.10447 | 17.55421 | 80° | 62km/h | 15410m | 4.6m/s | 0°C | 0% | 0hPa | 0V | 00:00:00 | 00:00:00 | 00:00:00 | |
| KRY50SP | 2026-09-02 00:01:52 | 51.10441 | 17.55331 | 81° | 57km/h | 15390m | 4.3m/s | 0°C | 0% | 0hPa | 0V | 00:00:00 | 00:00:00 | 00:00:00 | |
| SQ6EMJ | 2026-09-02 00:01:48 | 51.10436 | 17.55284 | 86° | 62km/h | 15380m | 4.9m/s | 0°C | 0% | 0hPa | 0V | 00:00:00 | 00:00:00 | 00:00:00 | |
| PETON7-10 | 2026-09-02 00:01:43 | 51.10426 | 17.55181 | 76° | 62km/h | 15365m | 4.7m/s | 0°C | 0% | 0hPa | 0V | 00:00:00 | 00:00:00 | 00:00:00 | |
| KRY50SP | 2026-09-02 00:01:42 | 51.10421 | 17.55132 | 88° | 58km/h | 15353m | 4.7m/s | 0°C | 0% | 0hPa | 0V | 00:00:00 | 00:00:00 | 00:00:00 | |
| SQ6EMJ | 2026-09-02 00:01:36 | 51.10409 | 17.55006 | 84° | 68km/h | 15327m | 4.4m/s | 0°C | 0% | 0hPa | 0V | 00:00:00 | 00:00:00 | 00:00:00 | |
| KRY50SP | 2026-09-02 00:01:32 | 51.10403 | 17.54956 | 74° | 64km/h | 15319m | 4.6m/s | 0°C | 0% | 0hPa | 0V | 00:00:00 | 00:00:00 | 00:00:00 | |
| SQ6EMJ | 2026-09-02 00:01:27 | 51.10387 | 17.54852 | 74° | 66km/h | 15299m | 5.8m/s | 0°C | 0% | 0hPa | 0V | 00:00:00 | 00:00:00 | 00:00:00 | |
| KRY50SP | 2026-09-02 00:01:25 | 51.10382 | 17.54828 | 73° | 57km/h | 15293m | 2.6m/s | 0°C | 0% | 0hPa | 0V | 00:00:00 | 00:00:00 | 00:00:00 | |
| PETON7-10 | 2026-09-02 00:01:23 | 51.10374 | 17.54780 | 78° | 64km/h | 15285m | 5.1m/s | 0°C | 0% | 0hPa | 0V | 00:00:00 | 00:00:00 | 00:00:00 | |
| SQ6EMJ | 2026-09-02 00:01:20 | 51.10360 | 17.54702 | 69° | 66km/h | 15271m | 3.9m/s | 0°C | 0% | 0hPa | 0V | 00:00:00 | 00:00:00 | 00:00:00 | |
| KRY50SP | 2026-09-02 00:01:18 | 51.10354 | 17.54677 | 70° | 66km/h | 15267m | 6.2m/s | 0°C | 0% | 0hPa | 0V | 00:00:00 | 00:00:00 | 00:00:00 | |
| SQ6EMJ | 2026-09-02 00:01:15 | 51.10324 | 17.54550 | 76° | 69km/h | 15243m | 4.4m/s | 0°C | 0% | 0hPa | 0V | 00:00:00 | 00:00:00 | 00:00:00 | |
| KRY50SP | 2026-09-02 00:01:13 | 51.10320 | 17.54523 | 81° | 66km/h | 15238m | 4.4m/s | 0°C | 0% | 0hPa | 0V | 00:00:00 | 00:00:00 | 00:00:00 | |
| SQ6EMJ | 2026-09-02 00:01:07 | 51.10301 | 17.54431 | 69° | 57km/h | 15218m | 4.3m/s | 0°C | 0% | 0hPa | 0V | 00:00:00 | 00:00:00 | 00:00:00 | |
| PETON7-10 | 2026-09-02 00:01:05 | 51.10296 | 17.54409 | 67° | 66km/h | 15213m | 4.5m/s | 0°C | 0% | 0hPa | 0V | 00:00:00 | 00:00:00 | 00:00:00 | |
| SQ6EMJ | 2026-09-02 00:01:00 | 51.10276 | 17.54304 | 73° | 68km/h | 15194m | 3.7m/s | 0°C | 0% | 0hPa | 0V | 00:00:00 | 00:00:00 | 00:00:00 | |
| KRY50SP | 2026-09-02 00:00:59 | 51.10271 | 17.54280 | 75° | 58km/h | 15190m | 5.3m/s | 0°C | 0% | 0hPa | 0V | 00:00:00 | 00:00:00 | 00:00:00 | |
| SQ6EMJ | 2026-09-02 00:00:55 | 51.10247 | 17.54162 | 68° | 73km/h | 15168m | 4.3m/s | 0°C | 0% | 0hPa | 0V | 00:00:00 | 00:00:00 | 00:00:00 | |
| KRY50SP | 2026-09-02 00:00:53 | 51.10240 | 17.54135 | 69° | 69km/h | 15163m | 5.1m/s | 0°C | 0% | 0hPa | 0V | 00:00:00 | 00:00:00 | 00:00:00 | |
| KRY50SP | 2026-09-02 00:00:50 | 51.10213 | 17.54015 | 69° | 58km/h | 15139m | 4.6m/s | 0°C | 0% | 0hPa | 0V | 00:00:00 | 00:00:00 | 00:00:00 | |
| KRY50SP | 2026-09-02 00:00:46 | 51.10180 | 17.53873 | 74° | 62km/h | 15117m | 4.7m/s | 0°C | 0% | 0hPa | 0V | 00:00:00 | 00:00:00 | 00:00:00 | |
| SQ6EMJ | 2026-09-02 00:00:39 | 51.10155 | 17.53760 | 62° | 57km/h | 15094m | 5.9m/s | 0°C | 0% | 0hPa | 0V | 00:00:00 | 00:00:00 | 00:00:00 | |
| KRY50SP | 2026-09-02 00:00:37 | 51.10147 | 17.53740 | 62° | 64km/h | 15088m | 5.5m/s | 0°C | 0% | 0hPa | 0V | 00:00:00 | 00:00:00 | 00:00:00 | |
| KRY50SP | 2026-09-02 00:00:36 | 51.10117 | 17.53644 | 66° | 46km/h | 15062m | 4.2m/s | 0°C | 0% | 0hPa | 0V | 00:00:00 | 00:00:00 | 00:00:00 | |
| KRY50SP | 2026-09-02 00:00:29 | 51.10072 | 17.53530 | 55° | 58km/h | 15035m | 3.4m/s | 0°C | 0% | 0hPa | 0V | 00:00:00 | 00:00:00 | 00:00:00 | |
| SQ6EMJ | 2026-09-02 00:00:27 | 51.10051 | 17.53456 | 76° | 46km/h | 15017m | 5.9m/s | 0°C | 0% | 0hPa | 0V | 00:00:00 | 00:00:00 | 00:00:00 | |
| SP3BTT-10 | 2026-09-02 00:00:25 | 51.10041 | 17.53416 | 60° | 64km/h | 15006m | 4.0m/s | 0°C | 0% | 0hPa | 0V | 00:00:00 | 00:00:00 | 00:00:00 | |
| SQ6EMJ | 2026-09-02 00:00:21 | 51.10014 | 17.53336 | 66° | 46km/h | 14985m | 6.1m/s | 0°C | 0% | 0hPa | 0V | 00:00:00 | 00:00:00 | 00:00:00 | |
| KRY50SP | 2026-09-02 00:00:20 | 51.10005 | 17.53306 | 71° | 40km/h | 14975m | 5.6m/s | 0°C | 0% | 0hPa | 0V | 00:00:00 | 00:00:00 | 00:00:00 | |
| SQ6EMJ | 2026-09-02 00:00:13 | 51.09990 | 17.53232 | 63° | 57km/h | 14953m | 4.3m/s | 0°C | 0% | 0hPa | 0V | 00:00:00 | 00:00:00 | 00:00:00 | |
| KRY50SP | 2026-09-02 00:00:12 | 51.09983 | 17.53211 | 62° | 58km/h | 14948m | 3.0m/s | 0°C | 0% | 0hPa | 0V | 00:00:00 | 00:00:00 | 00:00:00 | |
| SQ6EMJ | 2026-09-02 00:00:05 | 51.09970 | 17.53139 | 86° | 35km/h | 14929m | 5.0m/s | 0°C | 0% | 0hPa | 0V | 00:00:00 | 00:00:00 | 00:00:00 | |
| SQ6EMJ | 2026-09-01 23:59:58 | 51.09956 | 17.53023 | 73° | 60km/h | 14900m | 5.0m/s | 0°C | 0% | 0hPa | 0V | 00:00:00 | 00:00:00 | 00:00:00 | |
| KRY50SP | 2026-09-01 23:59:56 | 51.09947 | 17.52984 | 74° | 49km/h | 14890m | 5.8m/s | 0°C | 0% | 0hPa | 0V | 00:00:00 | 00:00:00 | 00:00:00 | |
| SQ6EMJ | 2026-09-01 23:59:52 | 51.09941 | 17.52915 | 81° | 44km/h | 14869m | 6.6m/s | 0°C | 0% | 0hPa | 0V | 00:00:00 | 00:00:00 | 00:00:00 | |
| KRY50SP | 2026-09-01 23:59:50 | 51.09938 | 17.52881 | 85° | 47km/h | 14861m | 6.2m/s | 0°C | 0% | 0hPa | 0V | 00:00:00 | 00:00:00 | 00:00:00 | |
| SQ6EMJ | 2026-09-01 23:59:47 | 51.09934 | 17.52822 | 83° | 53km/h | 14844m | 4.4m/s | 0°C | 0% | 0hPa | 0V | 00:00:00 | 00:00:00 | 00:00:00 | |
| KRY50SP | 2026-09-01 23:59:44 | 51.09932 | 17.52762 | 88° | 44km/h | 14832m | 3.2m/s | 0°C | 0% | 0hPa | 0V | 00:00:00 | 00:00:00 | 00:00:00 | |
| SQ6EMJ | 2026-09-01 23:59:41 | 51.09927 | 17.52709 | 75° | 47km/h | 14819m | 2.1m/s | 0°C | 0% | 0hPa | 0V | 00:00:00 | 00:00:00 | 00:00:00 | |
| KRY50SP | 2026-09-01 23:59:39 | 51.09922 | 17.52674 | 90° | 44km/h | 14810m | 4.5m/s | 0°C | 0% | 0hPa | 0V | 00:00:00 | 00:00:00 | 00:00:00 | |
| SQ6EMJ | 2026-09-01 23:59:36 | 51.09925 | 17.52619 | 94° | 51km/h | 14797m | 5.7m/s | 0°C | 0% | 0hPa | 0V | 00:00:00 | 00:00:00 | 00:00:00 | |
| KRY50SP | 2026-09-01 23:59:33 | 51.09925 | 17.52556 | 92° | 57km/h | 14782m | 3.9m/s | 0°C | 0% | 0hPa | 0V | 00:00:00 | 00:00:00 | 00:00:00 | |
| SQ6EMJ | 2026-09-01 23:59:31 | 51.09921 | 17.52488 | 77° | 51km/h | 14767m | 3.6m/s | 0°C | 0% | 0hPa | 0V | 00:00:00 | 00:00:00 | 00:00:00 | |
| KRY50SP | 2026-09-01 23:59:27 | 51.09920 | 17.52438 | 106° | 49km/h | 14754m | 4.7m/s | 0°C | 0% | 0hPa | 0V | 00:00:00 | 00:00:00 | 00:00:00 | |
| SQ6EMJ | 2026-09-01 23:59:24 | 51.09928 | 17.52375 | 93° | 60km/h | 14738m | 4.0m/s | 0°C | 0% | 0hPa | 0V | 00:00:00 | 00:00:00 | 00:00:00 | |
| KRY50SP | 2026-09-01 23:59:23 | 51.09929 | 17.52326 | 93° | 64km/h | 14730m | 6.2m/s | 0°C | 0% | 0hPa | 0V | 00:00:00 | 00:00:00 | 00:00:00 | |
| SQ6EMJ | 2026-09-01 23:59:18 | 51.09927 | 17.52231 | 90° | 57km/h | 14708m | 3.8m/s | 0°C | 0% | 0hPa | 0V | 00:00:00 | 00:00:00 | 00:00:00 | |
| KRY50SP | 2026-09-01 23:59:16 | 51.09927 | 17.52185 | 98° | 58km/h | 14700m | 4.3m/s | 0°C | 0% | 0hPa | 0V | 00:00:00 | 00:00:00 | 00:00:00 | |
| SQ6EMJ | 2026-09-01 23:59:12 | 51.09927 | 17.52079 | 89° | 69km/h | 14683m | 5.3m/s | 0°C | 0% | 0hPa | 0V | 00:00:00 | 00:00:00 | 00:00:00 | |
| KRY50SP | 2026-09-01 23:59:10 | 51.09928 | 17.52024 | 91° | 68km/h | 14673m | 4.7m/s | 0°C | 0% | 0hPa | 0V | 00:00:00 | 00:00:00 | 00:00:00 | |
| SQ6EMJ | 2026-09-01 23:59:07 | 51.09926 | 17.51947 | 86° | 60km/h | 14660m | 6.0m/s | 0°C | 0% | 0hPa | 0V | 00:00:00 | 00:00:00 | 00:00:00 | |
| SP3BTT-10 | 2026-09-01 23:59:04 | 51.09925 | 17.51869 | 86° | 69km/h | 14645m | 4.5m/s | 0°C | 0% | 0hPa | 0V | 00:00:00 | 00:00:00 | 00:00:00 | |
| SQ6EMJ | 2026-09-01 23:59:01 | 51.09920 | 17.51782 | 86° | 66km/h | 14629m | 4.0m/s | 0°C | 0% | 0hPa | 0V | 00:00:00 | 00:00:00 | 00:00:00 | |
| KRY50SP | 2026-09-01 23:58:58 | 51.09911 | 17.51710 | 84° | 58km/h | 14615m | 4.7m/s | 0°C | 0% | 0hPa | 0V | 00:00:00 | 00:00:00 | 00:00:00 | |
| SQ6EMJ | 2026-09-01 23:58:56 | 51.09910 | 17.51663 | 95° | 60km/h | 14607m | 5.0m/s | 0°C | 0% | 0hPa | 0V | 00:00:00 | 00:00:00 | 00:00:00 | |
| KRY50SP | 2026-09-01 23:58:53 | 51.09909 | 17.51587 | 83° | 60km/h | 14591m | 2.4m/s | 0°C | 0% | 0hPa | 0V | 00:00:00 | 00:00:00 | 00:00:00 | |
| SQ6EMJ | 2026-09-01 23:58:50 | 51.09904 | 17.51514 | 91° | 55km/h | 14579m | 4.1m/s | 0°C | 0% | 0hPa | 0V | 00:00:00 | 00:00:00 | 00:00:00 | |
| KRY50SP | 2026-09-01 23:58:47 | 51.09902 | 17.51448 | 87° | 53km/h | 14567m | 4.1m/s | 0°C | 0% | 0hPa | 0V | 00:00:00 | 00:00:00 | 00:00:00 | |
| SQ6EMJ | 2026-09-01 23:58:46 | 51.09901 | 17.51404 | 90° | 60km/h | 14559m | 4.1m/s | 0°C | 0% | 0hPa | 0V | 00:00:00 | 00:00:00 | 00:00:00 | |
| KRY50SP | 2026-09-01 23:58:42 | 51.09895 | 17.51329 | 79° | 66km/h | 14544m | 4.1m/s | 0°C | 0% | 0hPa | 0V | 00:00:00 | 00:00:00 | 00:00:00 | |
| SQ6EMJ | 2026-09-01 23:58:39 | 51.09893 | 17.51252 | 99° | 60km/h | 14530m | 3.4m/s | 0°C | 0% | 0hPa | 0V | 00:00:00 | 00:00:00 | 00:00:00 | |
| KRY50SP | 2026-09-01 23:58:36 | 51.09892 | 17.51183 | 84° | 57km/h | 14515m | 5.8m/s | 0°C | 0% | 0hPa | 0V | 00:00:00 | 00:00:00 | 00:00:00 | |
| SQ6EMJ | 2026-09-01 23:58:34 | 51.09889 | 17.51141 | 93° | 51km/h | 14505m | 3.8m/s | 0°C | 0% | 0hPa | 0V | 00:00:00 | 00:00:00 | 00:00:00 | |
| KRY50SP | 2026-09-01 23:58:30 | 51.09891 | 17.51053 | 95° | 62km/h | 14488m | 3.7m/s | 0°C | 0% | 0hPa | 0V | 00:00:00 | 00:00:00 | 00:00:00 | |
| SQ6EMJ | 2026-09-01 23:58:28 | 51.09893 | 17.50999 | 94° | 68km/h | 14479m | 3.3m/s | 0°C | 0% | 0hPa | 0V | 00:00:00 | 00:00:00 | 00:00:00 | |
| KRY50SP | 2026-09-01 23:58:24 | 51.09892 | 17.50896 | 96° | 60km/h | 14458m | 5.6m/s | 0°C | 0% | 0hPa | 0V | 00:00:00 | 00:00:00 | 00:00:00 | |
| SQ6EMJ | 2026-09-01 23:58:23 | 51.09894 | 17.50872 | 96° | 58km/h | 14453m | 3.7m/s | 0°C | 0% | 0hPa | 0V | 00:00:00 | 00:00:00 | 00:00:00 | |
| KRY50SP | 2026-09-01 23:58:13 | 51.09905 | 17.50637 | 93° | 66km/h | 14412m | 4.3m/s | 0°C | 0% | 0hPa | 0V | 00:00:00 | 00:00:00 | 00:00:00 | |
| SQ6EMJ | 2026-09-01 23:58:12 | 51.09905 | 17.50610 | 92° | 73km/h | 14407m | 3.4m/s | 0°C | 0% | 0hPa | 0V | 00:00:00 | 00:00:00 | 00:00:00 | |
| SP3BTT-10 | 2026-09-01 23:58:05 | 51.09912 | 17.50418 | 92° | 68km/h | 14373m | 4.6m/s | 0°C | 0% | 0hPa | 0V | 00:00:00 | 00:00:00 | 00:00:00 | |
| KRY50SP | 2026-09-01 23:58:02 | 51.09913 | 17.50330 | 91° | 73km/h | 14359m | 5.6m/s | 0°C | 0% | 0hPa | 0V | 00:00:00 | 00:00:00 | 00:00:00 | |
| SQ6EMJ | 2026-09-01 23:58:01 | 51.09913 | 17.50302 | 92° | 66km/h | 14354m | 3.0m/s | 0°C | 0% | 0hPa | 0V | 00:00:00 | 00:00:00 | 00:00:00 | |
| SQ6EMJ | 2026-09-01 23:57:56 | 51.09923 | 17.50135 | 89° | 75km/h | 14329m | 2.6m/s | 0°C | 0% | 0hPa | 0V | 00:00:00 | 00:00:00 | 00:00:00 | |
| SQ6EMJ | 2026-09-01 23:57:50 | 51.09926 | 17.49981 | 94° | 71km/h | 14308m | 4.8m/s | 0°C | 0% | 0hPa | 0V | 00:00:00 | 00:00:00 | 00:00:00 | |
| KRY50SP | 2026-09-01 23:57:45 | 51.09927 | 17.49834 | 86° | 75km/h | 14287m | 5.7m/s | 0°C | 0% | 0hPa | 0V | 00:00:00 | 00:00:00 | 00:00:00 | |
| SQ6EMJ | 2026-09-01 23:57:44 | 51.09925 | 17.49805 | 84° | 69km/h | 14282m | 5.0m/s | 0°C | 0% | 0hPa | 0V | 00:00:00 | 00:00:00 | 00:00:00 | |
| KRY50SP | 2026-09-01 23:57:39 | 51.09928 | 17.49656 | 90° | 71km/h | 14260m | 5.5m/s | 0°C | 0% | 0hPa | 0V | 00:00:00 | 00:00:00 | 00:00:00 | |
| SQ6EMJ | 2026-09-01 23:57:38 | 51.09927 | 17.49626 | 91° | 75km/h | 14254m | 6.2m/s | 0°C | 0% | 0hPa | 0V | 00:00:00 | 00:00:00 | 00:00:00 | |
| KRY50SP | 2026-09-01 23:57:34 | 51.09921 | 17.49482 | 86° | 73km/h | 14228m | 4.6m/s | 0°C | 0% | 0hPa | 0V | 00:00:00 | 00:00:00 | 00:00:00 | |
| SQ6EMJ | 2026-09-01 23:57:32 | 51.09920 | 17.49452 | 90° | 73km/h | 14224m | 3.3m/s | 0°C | 0% | 0hPa | 0V | 00:00:00 | 00:00:00 | 00:00:00 | |
| KRY50SP | 2026-09-01 23:57:28 | 51.09913 | 17.49336 | 82° | 71km/h | 14208m | 3.9m/s | 0°C | 0% | 0hPa | 0V | 00:00:00 | 00:00:00 | 00:00:00 | |
| SQ6EMJ | 2026-09-01 23:57:26 | 51.09906 | 17.49278 | 75° | 73km/h | 14200m | 3.7m/s | 0°C | 0% | 0hPa | 0V | 00:00:00 | 00:00:00 | 00:00:00 | |
| KRY50SP | 2026-09-01 23:57:22 | 51.09890 | 17.49173 | 80° | 71km/h | 14185m | 3.9m/s | 0°C | 0% | 0hPa | 0V | 00:00:00 | 00:00:00 | 00:00:00 | |
| SQ6EMJ | 2026-09-01 23:57:21 | 51.09887 | 17.49144 | 83° | 69km/h | 14183m | 3.7m/s | 0°C | 0% | 0hPa | 0V | 00:00:00 | 00:00:00 | 00:00:00 | |
| KRY50SP | 2026-09-01 23:57:16 | 51.09878 | 17.49007 | 80° | 73km/h | 14161m | 5.4m/s | 0°C | 0% | 0hPa | 0V | 00:00:00 | 00:00:00 | 00:00:00 | |
| SQ6EMJ | 2026-09-01 23:57:15 | 51.09873 | 17.48979 | 76° | 68km/h | 14156m | 5.7m/s | 0°C | 0% | 0hPa | 0V | 00:00:00 | 00:00:00 | 00:00:00 | |
| KRY50SP | 2026-09-01 23:57:09 | 51.09847 | 17.48834 | 82° | 62km/h | 14127m | 4.8m/s | 0°C | 0% | 0hPa | 0V | 00:00:00 | 00:00:00 | 00:00:00 | |
| SQ6EMJ | 2026-09-01 23:57:04 | 51.09827 | 17.48716 | 71° | 60km/h | 14102m | 5.3m/s | 0°C | 0% | 0hPa | 0V | 00:00:00 | 00:00:00 | 00:00:00 | |
| KRY50SP | 2026-09-01 23:57:01 | 51.09809 | 17.48645 | 69° | 64km/h | 14089m | 5.1m/s | 0°C | 0% | 0hPa | 0V | 00:00:00 | 00:00:00 | 00:00:00 | |
| SQ6EMJ | 2026-09-01 23:56:58 | 51.09800 | 17.48578 | 82° | 58km/h | 14073m | 5.9m/s | 0°C | 0% | 0hPa | 0V | 00:00:00 | 00:00:00 | 00:00:00 | |
| SQ6EMJ | 2026-09-01 23:56:53 | 51.09780 | 17.48471 | 65° | 58km/h | 14047m | 4.4m/s | 0°C | 0% | 0hPa | 0V | 00:00:00 | 00:00:00 | 00:00:00 | |
| KRY50SP | 2026-09-01 23:56:52 | 51.09774 | 17.48449 | 72° | 58km/h | 14043m | 4.7m/s | 0°C | 0% | 0hPa | 0V | 00:00:00 | 00:00:00 | 00:00:00 | |
| SQ6EMJ | 2026-09-01 23:56:48 | 51.09760 | 17.48363 | 76° | 57km/h | 14025m | 4.4m/s | 0°C | 0% | 0hPa | 0V | 00:00:00 | 00:00:00 | 00:00:00 | |
| KRY50SP | 2026-09-01 23:56:47 | 51.09757 | 17.48342 | 79° | 53km/h | 14021m | 4.7m/s | 0°C | 0% | 0hPa | 0V | 00:00:00 | 00:00:00 | 00:00:00 | |
| SQ6EMJ | 2026-09-01 23:56:42 | 51.09736 | 17.48247 | 77° | 57km/h | 13996m | 5.1m/s | 0°C | 0% | 0hPa | 0V | 00:00:00 | 00:00:00 | 00:00:00 | |
| KRY50SP | 2026-09-01 23:56:41 | 51.09733 | 17.48224 | 82° | 58km/h | 13990m | 4.4m/s | 0°C | 0% | 0hPa | 0V | 00:00:00 | 00:00:00 | 00:00:00 | |
| KRY50SP | 2026-09-01 23:56:32 | 51.09714 | 17.48033 | 77° | 60km/h | 13953m | 4.9m/s | 0°C | 0% | 0hPa | 0V | 00:00:00 | 00:00:00 | 00:00:00 | |
| SQ6EMJ | 2026-09-01 23:56:31 | 51.09711 | 17.48010 | 80° | 57km/h | 13948m | 5.8m/s | 0°C | 0% | 0hPa | 0V | 00:00:00 | 00:00:00 | 00:00:00 | |
| KRY50SP | 2026-09-01 23:56:27 | 51.09703 | 17.47923 | 89° | 53km/h | 13930m | 5.6m/s | 0°C | 0% | 0hPa | 0V | 00:00:00 | 00:00:00 | 00:00:00 | |
| SQ6EMJ | 2026-09-01 23:56:26 | 51.09703 | 17.47900 | 88° | 58km/h | 13926m | 4.1m/s | 0°C | 0% | 0hPa | 0V | 00:00:00 | 00:00:00 | 00:00:00 | |
| KRY50SP | 2026-09-01 23:56:21 | 51.09690 | 17.47786 | 80° | 53km/h | 13905m | 6.0m/s | 0°C | 0% | 0hPa | 0V | 00:00:00 | 00:00:00 | 00:00:00 | |
| SQ6EMJ | 2026-09-01 23:56:20 | 51.09687 | 17.47764 | 84° | 53km/h | 13899m | 3.0m/s | 0°C | 0% | 0hPa | 0V | 00:00:00 | 00:00:00 | 00:00:00 | |
| KRY50SP | 2026-09-01 23:56:15 | 51.09684 | 17.47646 | 78° | 58km/h | 13878m | 5.1m/s | 0°C | 0% | 0hPa | 0V | 00:00:00 | 00:00:00 | 00:00:00 | |
| SQ6EMJ | 2026-09-01 23:56:14 | 51.09681 | 17.47625 | 76° | 53km/h | 13873m | 6.2m/s | 0°C | 0% | 0hPa | 0V | 00:00:00 | 00:00:00 | 00:00:00 | |
| KRY50SP | 2026-09-01 23:56:10 | 51.09675 | 17.47544 | 87° | 53km/h | 13854m | 6.5m/s | 0°C | 0% | 0hPa | 0V | 00:00:00 | 00:00:00 | 00:00:00 | |
| SQ6EMJ | 2026-09-01 23:56:08 | 51.09673 | 17.47501 | 87° | 53km/h | 13844m | 6.2m/s | 0°C | 0% | 0hPa | 0V | 00:00:00 | 00:00:00 | 00:00:00 | |
| KRY50SP | 2026-09-01 23:56:04 | 51.09669 | 17.47412 | 81° | 51km/h | 13825m | 3.8m/s | 0°C | 0% | 0hPa | 0V | 00:00:00 | 00:00:00 | 00:00:00 | |
| SQ6EMJ | 2026-09-01 23:56:02 | 51.09668 | 17.47371 | 93° | 57km/h | 13816m | 5.4m/s | 0°C | 0% | 0hPa | 0V | 00:00:00 | 00:00:00 | 00:00:00 | |
| KRY50SP | 2026-09-01 23:55:58 | 51.09664 | 17.47270 | 80° | 66km/h | 13797m | 3.2m/s | 0°C | 0% | 0hPa | 0V | 00:00:00 | 00:00:00 | 00:00:00 | |
| SQ6EMJ | 2026-09-01 23:55:56 | 51.09660 | 17.47225 | 94° | 47km/h | 13789m | 6.3m/s | 0°C | 0% | 0hPa | 0V | 00:00:00 | 00:00:00 | 00:00:00 | |
| KRY50SP | 2026-09-01 23:55:53 | 51.09668 | 17.47170 | 98° | 53km/h | 13776m | 5.8m/s | 0°C | 0% | 0hPa | 0V | 00:00:00 | 00:00:00 | 00:00:00 | |
| SQ6EMJ | 2026-09-01 23:55:51 | 51.09666 | 17.47123 | 84° | 66km/h | 13763m | 5.0m/s | 0°C | 0% | 0hPa | 0V | 00:00:00 | 00:00:00 | 00:00:00 | |
| KRY50SP | 2026-09-01 23:55:46 | 51.09663 | 17.46999 | 101° | 60km/h | 13740m | 4.8m/s | 0°C | 0% | 0hPa | 0V | 00:00:00 | 00:00:00 | 00:00:00 | |
| KRY50SP | 2026-09-01 23:55:40 | 51.09680 | 17.46858 | 91° | 73km/h | 13715m | 4.7m/s | 0°C | 0% | 0hPa | 0V | 00:00:00 | 00:00:00 | 00:00:00 | |
| SQ6EMJ | 2026-09-01 23:55:35 | 51.09693 | 17.46701 | 113° | 62km/h | 13684m | 2.3m/s | 0°C | 0% | 0hPa | 0V | 00:00:00 | 00:00:00 | 00:00:00 | |
| KRY50SP | 2026-09-01 23:55:34 | 51.09693 | 17.46701 | 113° | 62km/h | 13684m | 2.3m/s | 0°C | 0% | 0hPa | 0V | 00:00:00 | 00:00:00 | 00:00:00 | |
| KRY50SP | 2026-09-01 23:55:29 | 51.09705 | 17.46577 | 94° | 71km/h | 13662m | 3.8m/s | 0°C | 0% | 0hPa | 0V | 00:00:00 | 00:00:00 | 00:00:00 | |
| SQ6EMJ | 2026-09-01 23:55:28 | 51.09706 | 17.46547 | 94° | 73km/h | 13658m | 4.8m/s | 0°C | 0% | 0hPa | 0V | 00:00:00 | 00:00:00 | 00:00:00 | |
| KRY50SP | 2026-09-01 23:55:23 | 51.09716 | 17.46404 | 103° | 66km/h | 13633m | 5.4m/s | 0°C | 0% | 0hPa | 0V | 00:00:00 | 00:00:00 | 00:00:00 | |
| SQ6EMJ | 2026-09-01 23:55:22 | 51.09718 | 17.46378 | 96° | 64km/h | 13627m | 7.6m/s | 0°C | 0% | 0hPa | 0V | 00:00:00 | 00:00:00 | 00:00:00 | |
| KRY50SP | 2026-09-01 23:55:16 | 51.09725 | 17.46195 | 97° | 88km/h | 13596m | 7.4m/s | 0°C | 0% | 0hPa | 0V | 00:00:00 | 00:00:00 | 00:00:00 | |
| KRY50SP | 2026-09-01 23:55:10 | 51.09733 | 17.46025 | 89° | 77km/h | 13561m | 7.7m/s | 0°C | 0% | 0hPa | 0V | 00:00:00 | 00:00:00 | 00:00:00 | |
| KRY50SP | 2026-09-01 23:55:05 | 51.09733 | 17.45871 | 96° | 71km/h | 13530m | 2.6m/s | 0°C | 0% | 0hPa | 0V | 00:00:00 | 00:00:00 | 00:00:00 | |
| SQ6EMJ | 2026-09-01 23:55:04 | 51.09735 | 17.45843 | 100° | 71km/h | 13525m | 8.0m/s | 0°C | 0% | 0hPa | 0V | 00:00:00 | 00:00:00 | 00:00:00 | |
| KRY50SP | 2026-09-01 23:54:59 | 51.09735 | 17.45692 | 87° | 75km/h | 13498m | 3.1m/s | 0°C | 0% | 0hPa | 0V | 00:00:00 | 00:00:00 | 00:00:00 | |
| SQ6EMJ | 2026-09-01 23:54:58 | 51.09734 | 17.45663 | 91° | 68km/h | 13493m | 6.9m/s | 0°C | 0% | 0hPa | 0V | 00:00:00 | 00:00:00 | 00:00:00 | |
| KRY50SP | 2026-09-01 23:54:53 | 51.09748 | 17.45529 | 88° | 68km/h | 13467m | 5.7m/s | 0°C | 0% | 0hPa | 0V | 00:00:00 | 00:00:00 | 00:00:00 | |
| SQ6EMJ | 2026-09-01 23:54:52 | 51.09747 | 17.45501 | 85° | 71km/h | 13460m | 9.1m/s | 0°C | 0% | 0hPa | 0V | 00:00:00 | 00:00:00 | 00:00:00 | |
| SQ6EMJ | 2026-09-01 23:54:47 | 51.09752 | 17.45347 | 100° | 77km/h | 13430m | 5.2m/s | 0°C | 0% | 0hPa | 0V | 00:00:00 | 00:00:00 | 00:00:00 | |
| KRY50SP | 2026-09-01 23:54:41 | 51.09770 | 17.45185 | 95° | 82km/h | 13394m | 7.2m/s | 0°C | 0% | 0hPa | 0V | 00:00:00 | 00:00:00 | 00:00:00 | |
| SQ6EMJ | 2026-09-01 23:54:30 | 51.09801 | 17.44837 | 92° | 77km/h | 13344m | 5.7m/s | 0°C | 0% | 0hPa | 0V | 00:00:00 | 00:00:00 | 00:00:00 | |
| KRY50SP | 2026-09-01 23:54:29 | 51.09801 | 17.44806 | 92° | 73km/h | 13340m | 4.9m/s | 0°C | 0% | 0hPa | 0V | 00:00:00 | 00:00:00 | 00:00:00 | |
| KRY50SP | 2026-09-01 23:54:24 | 51.09811 | 17.44643 | 96° | 91km/h | 13313m | 4.4m/s | 0°C | 0% | 0hPa | 0V | 00:00:00 | 00:00:00 | 00:00:00 | |
| KRY50SP | 2026-09-01 23:54:17 | 51.09824 | 17.44424 | 90° | 84km/h | 13275m | 4.7m/s | 0°C | 0% | 0hPa | 0V | 00:00:00 | 00:00:00 | 00:00:00 | |
| KRY50SP | 2026-09-01 23:54:10 | 51.09823 | 17.44202 | 90° | 78km/h | 13234m | 7.0m/s | 0°C | 0% | 0hPa | 0V | 00:00:00 | 00:00:00 | 00:00:00 | |
| KRY50SP | 2026-09-01 23:54:04 | 51.09821 | 17.43994 | 89° | 84km/h | 13203m | 5.6m/s | 0°C | 0% | 0hPa | 0V | 00:00:00 | 00:00:00 | 00:00:00 | |
| KRY50SP | 2026-09-01 23:53:59 | 51.09819 | 17.43828 | 93° | 82km/h | 13176m | 4.8m/s | 0°C | 0% | 0hPa | 0V | 00:00:00 | 00:00:00 | 00:00:00 | |
| KRY50SP | 2026-09-01 23:53:53 | 51.09814 | 17.43615 | 86° | 95km/h | 13144m | 5.7m/s | 0°C | 0% | 0hPa | 0V | 00:00:00 | 00:00:00 | 00:00:00 | |
| KRY50SP | 2026-09-01 23:53:47 | 51.09801 | 17.43390 | 87° | 93km/h | 13116m | 6.1m/s | 0°C | 0% | 0hPa | 0V | 00:00:00 | 00:00:00 | 00:00:00 | |
| KRY50SP | 2026-09-01 23:53:42 | 51.09792 | 17.43216 | 86° | 88km/h | 13082m | 4.1m/s | 0°C | 0% | 0hPa | 0V | 00:00:00 | 00:00:00 | 00:00:00 | |
| KRY50SP | 2026-09-01 23:53:36 | 51.09780 | 17.43014 | 87° | 84km/h | 13047m | 3.8m/s | 0°C | 0% | 0hPa | 0V | 00:00:00 | 00:00:00 | 00:00:00 | |
| KRY50SP | 2026-09-01 23:53:31 | 51.09772 | 17.42840 | 87° | 89km/h | 13020m | 5.0m/s | 0°C | 0% | 0hPa | 0V | 00:00:00 | 00:00:00 | 00:00:00 | |
| KRY50SP | 2026-09-01 23:53:24 | 51.09766 | 17.42611 | 85° | 77km/h | 12986m | 5.7m/s | 0°C | 0% | 0hPa | 0V | 00:00:00 | 00:00:00 | 00:00:00 | |
| SP3BTT-10 | 2026-09-01 23:53:21 | 51.09761 | 17.42507 | 84° | 89km/h | 12966m | 8.2m/s | 0°C | 0% | 0hPa | 0V | 00:00:00 | 00:00:00 | 00:00:00 | |
| KRY50SP | 2026-09-01 23:53:18 | 51.09757 | 17.42410 | 91° | 73km/h | 12947m | 5.0m/s | 0°C | 0% | 0hPa | 0V | 00:00:00 | 00:00:00 | 00:00:00 | |
| KRY50SP | 2026-09-01 23:53:11 | 51.09755 | 17.42183 | 84° | 88km/h | 12917m | 5.5m/s | 0°C | 0% | 0hPa | 0V | 00:00:00 | 00:00:00 | 00:00:00 | |
| KRY50SP | 2026-09-01 23:53:05 | 51.09746 | 17.41990 | 90° | 82km/h | 12880m | 0.9m/s | 0°C | 0% | 0hPa | 0V | 00:00:00 | 00:00:00 | 00:00:00 | |
| SP3BTT-10 | 2026-09-01 23:52:02 | 51.09522 | 17.39774 | 68° | 88km/h | 12539m | 10.0m/s | 0°C | 0% | 0hPa | 0V | 00:00:00 | 00:00:00 | 00:00:00 | |
| SP3BTT-10 | 2026-09-01 23:49:31 | 51.09105 | 17.34518 | 81° | 84km/h | 11735m | 7.7m/s | 0°C | 0% | 0hPa | 0V | 00:00:00 | 00:00:00 | 00:00:00 | |
| SP3BTT-10 | 2026-09-01 23:48:46 | 51.09050 | 17.33023 | 93° | 89km/h | 11486m | 4.8m/s | 0°C | 0% | 0hPa | 0V | 00:00:00 | 00:00:00 | 00:00:00 | |
| SQ6EMJ | 2026-09-01 23:48:39 | 51.09047 | 17.32777 | 82° | 102km/h | 11450m | 5.7m/s | 0°C | 0% | 0hPa | 0V | 00:00:00 | 00:00:00 | 00:00:00 | |
| SQ6EMJ | 2026-09-01 23:48:31 | 51.09040 | 17.32484 | 87° | 99km/h | 11409m | 4.5m/s | 0°C | 0% | 0hPa | 0V | 00:00:00 | 00:00:00 | 00:00:00 | |
| SQ6EMJ | 2026-09-01 23:48:25 | 51.09035 | 17.32266 | 98° | 95km/h | 11373m | 4.5m/s | 0°C | 0% | 0hPa | 0V | 00:00:00 | 00:00:00 | 00:00:00 | |
| SQ6EMJ | 2026-09-01 23:48:08 | 51.09029 | 17.31622 | 95° | 91km/h | 11295m | 4.0m/s | 0°C | 0% | 0hPa | 0V | 00:00:00 | 00:00:00 | 00:00:00 | |
| SQ6EMJ | 2026-09-01 23:48:02 | 51.09020 | 17.31390 | 81° | 99km/h | 11270m | 4.9m/s | 0°C | 0% | 0hPa | 0V | 00:00:00 | 00:00:00 | 00:00:00 | |
| SQ6EMJ | 2026-09-01 23:47:52 | 51.09008 | 17.30989 | 82° | 97km/h | 11228m | 4.8m/s | 0°C | 0% | 0hPa | 0V | 00:00:00 | 00:00:00 | 00:00:00 | |
| SP3BTT-10 | 2026-09-01 23:47:46 | 51.08992 | 17.30803 | 86° | 91km/h | 11199m | 7.5m/s | 0°C | 0% | 0hPa | 0V | 00:00:00 | 00:00:00 | 00:00:00 | |
| SQ6EMJ | 2026-09-01 23:47:40 | 51.08982 | 17.30536 | 94° | 93km/h | 11168m | 6.2m/s | 0°C | 0% | 0hPa | 0V | 00:00:00 | 00:00:00 | 00:00:00 | |
| SQ6EMJ | 2026-09-01 23:47:34 | 51.08980 | 17.30326 | 77° | 110km/h | 11124m | 6.8m/s | 0°C | 0% | 0hPa | 0V | 00:00:00 | 00:00:00 | 00:00:00 | |
| SQ6EMJ | 2026-09-01 23:47:27 | 51.08955 | 17.30077 | 86° | 86km/h | 11083m | 5.5m/s | 0°C | 0% | 0hPa | 0V | 00:00:00 | 00:00:00 | 00:00:00 | |
| SQ6EMJ | 2026-09-01 23:47:21 | 51.08945 | 17.29883 | 88° | 89km/h | 11052m | 5.1m/s | 0°C | 0% | 0hPa | 0V | 00:00:00 | 00:00:00 | 00:00:00 | |
| SQ6EMJ | 2026-09-01 23:47:13 | 51.08929 | 17.29481 | 87° | 77km/h | 10996m | 3.5m/s | 0°C | 0% | 0hPa | 0V | 00:00:00 | 00:00:00 | 00:00:00 | |
| SQ6EMJ | 2026-09-01 23:47:03 | 51.08918 | 17.29280 | 90° | 91km/h | 10970m | 4.4m/s | 0°C | 0% | 0hPa | 0V | 00:00:00 | 00:00:00 | 00:00:00 | |
| SQ6EMJ | 2026-09-01 23:46:58 | 51.08910 | 17.29103 | 90° | 75km/h | 10948m | 3.9m/s | 0°C | 0% | 0hPa | 0V | 00:00:00 | 00:00:00 | 00:00:00 | |
| SQ6EMJ | 2026-09-01 23:46:52 | 51.08904 | 17.28908 | 95° | 86km/h | 10920m | 6.6m/s | 0°C | 0% | 0hPa | 0V | 00:00:00 | 00:00:00 | 00:00:00 | |
| SP3BTT-10 | 2026-09-01 23:46:46 | 51.08897 | 17.28713 | 91° | 84km/h | 10890m | 4.5m/s | 0°C | 0% | 0hPa | 0V | 00:00:00 | 00:00:00 | 00:00:00 | |
| SQ6EMJ | 2026-09-01 23:46:40 | 51.08896 | 17.28511 | 84° | 82km/h | 10858m | 6.5m/s | 0°C | 0% | 0hPa | 0V | 00:00:00 | 00:00:00 | 00:00:00 | |
| KRY50SP | 2026-09-01 23:46:38 | 51.08895 | 17.28449 | 98° | 71km/h | 10846m | 6.5m/s | 0°C | 0% | 0hPa | 0V | 00:00:00 | 00:00:00 | 00:00:00 | |
| SQ6EMJ | 2026-09-01 23:46:35 | 51.08902 | 17.28361 | 94° | 84km/h | 10831m | 1.8m/s | 0°C | 0% | 0hPa | 0V | 00:00:00 | 00:00:00 | 00:00:00 | |
| KRY50SP | 2026-09-01 23:46:31 | 51.08899 | 17.28217 | 85° | 88km/h | 10809m | 6.0m/s | 0°C | 0% | 0hPa | 0V | 00:00:00 | 00:00:00 | 00:00:00 | |
| SQ6EMJ | 2026-09-01 23:46:30 | 51.08897 | 17.28183 | 87° | 84km/h | 10805m | 3.4m/s | 0°C | 0% | 0hPa | 0V | 00:00:00 | 00:00:00 | 00:00:00 | |
| SQ6EMJ | 2026-09-01 23:46:26 | 51.08898 | 17.28007 | 89° | 80km/h | 10776m | 4.9m/s | 0°C | 0% | 0hPa | 0V | 00:00:00 | 00:00:00 | 00:00:00 | |
| SQ6EMJ | 2026-09-01 23:46:19 | 51.08893 | 17.27810 | 100° | 86km/h | 10742m | 2.8m/s | 0°C | 0% | 0hPa | 0V | 00:00:00 | 00:00:00 | 00:00:00 | |
| SP3BTT-10 | 2026-09-01 23:46:16 | 51.08892 | 17.27706 | 81° | 77km/h | 10727m | 6.5m/s | 0°C | 0% | 0hPa | 0V | 00:00:00 | 00:00:00 | 00:00:00 | |
| SQ6EMJ | 2026-09-01 23:46:13 | 51.08888 | 17.27607 | 95° | 77km/h | 10710m | 6.3m/s | 0°C | 0% | 0hPa | 0V | 00:00:00 | 00:00:00 | 00:00:00 | |
| SQ6EMJ | 2026-09-01 23:46:08 | 51.08890 | 17.27456 | 83° | 91km/h | 10681m | 5.7m/s | 0°C | 0% | 0hPa | 0V | 00:00:00 | 00:00:00 | 00:00:00 | |
| SQ6EMJ | 2026-09-01 23:46:02 | 51.08886 | 17.27248 | 93° | 73km/h | 10647m | 8.3m/s | 0°C | 0% | 0hPa | 0V | 00:00:00 | 00:00:00 | 00:00:00 | |
| SQ6EMJ | 2026-09-01 23:45:57 | 51.08879 | 17.27091 | 89° | 88km/h | 10620m | 7.7m/s | 0°C | 0% | 0hPa | 0V | 00:00:00 | 00:00:00 | 00:00:00 | |
| SQ6EMJ | 2026-09-01 23:45:50 | 51.08887 | 17.26865 | 88° | 89km/h | 10582m | 6.5m/s | 0°C | 0% | 0hPa | 0V | 00:00:00 | 00:00:00 | 00:00:00 | |
| SQ6EMJ | 2026-09-01 23:45:45 | 51.08881 | 17.26712 | 91° | 71km/h | 10556m | 5.4m/s | 0°C | 0% | 0hPa | 0V | 00:00:00 | 00:00:00 | 00:00:00 | |
| SQ6EMJ | 2026-09-01 23:45:39 | 51.08886 | 17.26516 | 91° | 71km/h | 10521m | 6.5m/s | 0°C | 0% | 0hPa | 0V | 00:00:00 | 00:00:00 | 00:00:00 | |
| SQ6EMJ | 2026-09-01 23:45:33 | 51.08883 | 17.26346 | 92° | 77km/h | 10487m | 5.5m/s | 0°C | 0% | 0hPa | 0V | 00:00:00 | 00:00:00 | 00:00:00 | |
| SQ6EMJ | 2026-09-01 23:45:28 | 51.08887 | 17.26197 | 94° | 71km/h | 10459m | 4.9m/s | 0°C | 0% | 0hPa | 0V | 00:00:00 | 00:00:00 | 00:00:00 | |
| SQ6EMJ | 2026-09-01 23:45:23 | 51.08897 | 17.26013 | 93° | 71km/h | 10421m | 4.8m/s | 0°C | 0% | 0hPa | 0V | 00:00:00 | 00:00:00 | 00:00:00 | |
| SQ6EMJ | 2026-09-01 23:45:17 | 51.08895 | 17.25864 | 90° | 80km/h | 10394m | 6.6m/s | 0°C | 0% | 0hPa | 0V | 00:00:00 | 00:00:00 | 00:00:00 | |
| SQ6EMJ | 2026-09-01 23:45:12 | 51.08901 | 17.25708 | 93° | 73km/h | 10364m | 3.6m/s | 0°C | 0% | 0hPa | 0V | 00:00:00 | 00:00:00 | 00:00:00 | |
| SQ6EMJ | 2026-09-01 23:45:06 | 51.08904 | 17.25529 | 92° | 68km/h | 10330m | 6.0m/s | 0°C | 0% | 0hPa | 0V | 00:00:00 | 00:00:00 | 00:00:00 | |
| SP3BTT-10 | 2026-09-01 23:45:00 | 51.08909 | 17.25340 | 92° | 78km/h | 10299m | 3.6m/s | 0°C | 0% | 0hPa | 0V | 00:00:00 | 00:00:00 | 00:00:00 | |
| SQ6EMJ | 2026-09-01 23:44:54 | 51.08917 | 17.25153 | 91° | 86km/h | 10266m | 6.9m/s | 0°C | 0% | 0hPa | 0V | 00:00:00 | 00:00:00 | 00:00:00 | |
| SQ6EMJ | 2026-09-01 23:44:48 | 51.08914 | 17.24965 | 101° | 71km/h | 10231m | 4.8m/s | 0°C | 0% | 0hPa | 0V | 00:00:00 | 00:00:00 | 00:00:00 | |
| SQ6EMJ | 2026-09-01 23:44:42 | 51.08923 | 17.24773 | 94° | 86km/h | 10199m | 2.7m/s | 0°C | 0% | 0hPa | 0V | 00:00:00 | 00:00:00 | 00:00:00 | |
| SQ6EMJ | 2026-09-01 23:44:37 | 51.08924 | 17.24608 | 95° | 86km/h | 10171m | 7.7m/s | 0°C | 0% | 0hPa | 0V | 00:00:00 | 00:00:00 | 00:00:00 | |
| SQ6EMJ | 2026-09-01 23:44:32 | 51.08935 | 17.24416 | 93° | 73km/h | 10139m | 7.2m/s | 0°C | 0% | 0hPa | 0V | 00:00:00 | 00:00:00 | 00:00:00 | |
| SQ6EMJ | 2026-09-01 23:44:25 | 51.08939 | 17.24227 | 92° | 93km/h | 10101m | 4.6m/s | 0°C | 0% | 0hPa | 0V | 00:00:00 | 00:00:00 | 00:00:00 | |
| SQ6EMJ | 2026-09-01 23:44:19 | 51.08949 | 17.24048 | 98° | 68km/h | 10069m | 6.5m/s | 0°C | 0% | 0hPa | 0V | 00:00:00 | 00:00:00 | 00:00:00 | |
| SQ6EMJ | 2026-09-01 23:44:14 | 51.08953 | 17.23867 | 98° | 64km/h | 10026m | 4.9m/s | 0°C | 0% | 0hPa | 0V | 00:00:00 | 00:00:00 | 00:00:00 | |
| SQ6EMJ | 2026-09-01 23:44:08 | 51.08962 | 17.23714 | 94° | 86km/h | 9997m | 5.8m/s | 0°C | 0% | 0hPa | 0V | 00:00:00 | 00:00:00 | 00:00:00 | |
| SQ6EMJ | 2026-09-01 23:44:02 | 51.08966 | 17.23527 | 101° | 71km/h | 9963m | 5.8m/s | 0°C | 0% | 0hPa | 0V | 00:00:00 | 00:00:00 | 00:00:00 | |
| SQ6EMJ | 2026-09-01 23:43:57 | 51.08970 | 17.23362 | 95° | 71km/h | 9935m | 5.1m/s | 0°C | 0% | 0hPa | 0V | 00:00:00 | 00:00:00 | 00:00:00 | |
| SQ6EMJ | 2026-09-01 23:43:51 | 51.08990 | 17.23183 | 96° | 91km/h | 9904m | 5.3m/s | 0°C | 0% | 0hPa | 0V | 00:00:00 | 00:00:00 | 00:00:00 | |
| SQ6EMJ | 2026-09-01 23:43:45 | 51.08993 | 17.22995 | 83° | 68km/h | 9876m | 2.5m/s | 0°C | 0% | 0hPa | 0V | 00:00:00 | 00:00:00 | 00:00:00 | |
| SQ6EMJ | 2026-09-01 23:43:39 | 51.09012 | 17.22819 | 97° | 75km/h | 9841m | 6.6m/s | 0°C | 0% | 0hPa | 0V | 00:00:00 | 00:00:00 | 00:00:00 | |
| SQ6EMJ | 2026-09-01 23:43:34 | 51.09026 | 17.22659 | 105° | 77km/h | 9813m | 7.7m/s | 0°C | 0% | 0hPa | 0V | 00:00:00 | 00:00:00 | 00:00:00 | |
| SQ6EMJ | 2026-09-01 23:43:29 | 51.09045 | 17.22490 | 110° | 88km/h | 9779m | 3.5m/s | 0°C | 0% | 0hPa | 0V | 00:00:00 | 00:00:00 | 00:00:00 | |
| SQ6EMJ | 2026-09-01 23:43:22 | 51.09066 | 17.22305 | 91° | 78km/h | 9745m | 3.8m/s | 0°C | 0% | 0hPa | 0V | 00:00:00 | 00:00:00 | 00:00:00 | |
| SQ6EMJ | 2026-09-01 23:43:17 | 51.09083 | 17.22147 | 98° | 82km/h | 9715m | 3.5m/s | 0°C | 0% | 0hPa | 0V | 00:00:00 | 00:00:00 | 00:00:00 | |
| SQ6EMJ | 2026-09-01 23:43:11 | 51.09099 | 17.21960 | 112° | 77km/h | 9682m | 4.3m/s | 0°C | 0% | 0hPa | 0V | 00:00:00 | 00:00:00 | 00:00:00 | |
| SQ6EMJ | 2026-09-01 23:43:06 | 51.09113 | 17.21808 | 89° | 91km/h | 9654m | 5.3m/s | 0°C | 0% | 0hPa | 0V | 00:00:00 | 00:00:00 | 00:00:00 | |
| SQ6EMJ | 2026-09-01 23:43:00 | 51.09135 | 17.21621 | 100° | 69km/h | 9626m | 5.2m/s | 0°C | 0% | 0hPa | 0V | 00:00:00 | 00:00:00 | 00:00:00 | |
| SQ6EMJ | 2026-09-01 23:42:55 | 51.09142 | 17.21451 | 101° | 82km/h | 9597m | 6.0m/s | 0°C | 0% | 0hPa | 0V | 00:00:00 | 00:00:00 | 00:00:00 | |
| SQ6EMJ | 2026-09-01 23:42:49 | 51.09152 | 17.21267 | 94° | 80km/h | 9560m | 6.7m/s | 0°C | 0% | 0hPa | 0V | 00:00:00 | 00:00:00 | 00:00:00 | |
| SQ6EMJ | 2026-09-01 23:42:43 | 51.09169 | 17.21071 | 96° | 71km/h | 9523m | 6.8m/s | 0°C | 0% | 0hPa | 0V | 00:00:00 | 00:00:00 | 00:00:00 | |
| SQ6EMJ | 2026-09-01 23:42:39 | 51.09177 | 17.20908 | 96° | 80km/h | 9493m | 5.2m/s | 0°C | 0% | 0hPa | 0V | 00:00:00 | 00:00:00 | 00:00:00 | |
| SQ6EMJ | 2026-09-01 23:42:32 | 51.09190 | 17.20720 | 92° | 82km/h | 9456m | 7.6m/s | 0°C | 0% | 0hPa | 0V | 00:00:00 | 00:00:00 | 00:00:00 | |
| SQ6EMJ | 2026-09-01 23:42:26 | 51.09203 | 17.20513 | 94° | 77km/h | 9425m | 6.7m/s | 0°C | 0% | 0hPa | 0V | 00:00:00 | 00:00:00 | 00:00:00 | |
| SQ6EMJ | 2026-09-01 23:42:21 | 51.09206 | 17.20350 | 95° | 97km/h | 9395m | 5.3m/s | 0°C | 0% | 0hPa | 0V | 00:00:00 | 00:00:00 | 00:00:00 | |
| SQ6EMJ | 2026-09-01 23:42:15 | 51.09216 | 17.20148 | 93° | 69km/h | 9367m | 4.6m/s | 0°C | 0% | 0hPa | 0V | 00:00:00 | 00:00:00 | 00:00:00 | |
| KRY50SP | 2026-09-01 23:42:10 | 51.09216 | 17.19987 | 91° | 82km/h | 9341m | 7.3m/s | 0°C | 0% | 0hPa | 0V | 00:00:00 | 00:00:00 | 00:00:00 | |
| SQ6EMJ | 2026-09-01 23:42:09 | 51.09217 | 17.19955 | 92° | 77km/h | 9335m | 4.9m/s | 0°C | 0% | 0hPa | 0V | 00:00:00 | 00:00:00 | 00:00:00 | |
| SQ6EMJ | 2026-09-01 23:42:04 | 51.09219 | 17.19789 | 95° | 89km/h | 9299m | 9.0m/s | 0°C | 0% | 0hPa | 0V | 00:00:00 | 00:00:00 | 00:00:00 | |
| SP3BTT-10 | 2026-09-01 23:42:01 | 51.09225 | 17.19683 | 100° | 77km/h | 9283m | 1.4m/s | 0°C | 0% | 0hPa | 0V | 00:00:00 | 00:00:00 | 00:00:00 | |
| SQ6EMJ | 2026-09-01 23:41:59 | 51.09231 | 17.19594 | 94° | 69km/h | 9265m | 7.1m/s | 0°C | 0% | 0hPa | 0V | 00:00:00 | 00:00:00 | 00:00:00 | |
| KRY50SP | 2026-09-01 23:41:57 | 51.09232 | 17.19566 | 93° | 69km/h | 9259m | 4.9m/s | 0°C | 0% | 0hPa | 0V | 00:00:00 | 00:00:00 | 00:00:00 | |
| KRY50SP | 2026-09-01 23:41:52 | 51.09233 | 17.19410 | 93° | 75km/h | 9230m | 8.4m/s | 0°C | 0% | 0hPa | 0V | 00:00:00 | 00:00:00 | 00:00:00 | |
| SQ6EMJ | 2026-09-01 23:41:47 | 51.09242 | 17.19269 | 101° | 77km/h | 9196m | 6.1m/s | 0°C | 0% | 0hPa | 0V | 00:00:00 | 00:00:00 | 00:00:00 | |
| KRY50SP | 2026-09-01 23:41:44 | 51.09251 | 17.19173 | 98° | 88km/h | 9181m | 7.3m/s | 0°C | 0% | 0hPa | 0V | 00:00:00 | 00:00:00 | 00:00:00 | |
| SQ6EMJ | 2026-09-01 23:41:41 | 51.09255 | 17.19069 | 91° | 73km/h | 9166m | 4.5m/s | 0°C | 0% | 0hPa | 0V | 00:00:00 | 00:00:00 | 00:00:00 | |
| KRY50SP | 2026-09-01 23:41:38 | 51.09252 | 17.18995 | 90° | 64km/h | 9153m | 1.7m/s | 0°C | 0% | 0hPa | 0V | 00:00:00 | 00:00:00 | 00:00:00 | |
| KRY50SP | 2026-09-01 23:41:30 | 51.09267 | 17.18736 | 86° | 84km/h | 9103m | 4.7m/s | 0°C | 0% | 0hPa | 0V | 00:00:00 | 00:00:00 | 00:00:00 | |
| SQ6EMJ | 2026-09-01 23:41:24 | 51.09277 | 17.18550 | 97° | 80km/h | 9071m | 6.5m/s | 0°C | 0% | 0hPa | 0V | 00:00:00 | 00:00:00 | 00:00:00 | |
| KRY50SP | 2026-09-01 23:41:23 | 51.09278 | 17.18517 | 89° | 88km/h | 9065m | 5.2m/s | 0°C | 0% | 0hPa | 0V | 00:00:00 | 00:00:00 | 00:00:00 | |
| SQ6EMJ | 2026-09-01 23:41:18 | 51.09273 | 17.18343 | 97° | 84km/h | 9039m | 7.4m/s | 0°C | 0% | 0hPa | 0V | 00:00:00 | 00:00:00 | 00:00:00 | |
| SQ6EMJ | 2026-09-01 23:41:12 | 51.09285 | 17.18165 | 85° | 78km/h | 8999m | 7.2m/s | 0°C | 0% | 0hPa | 0V | 00:00:00 | 00:00:00 | 00:00:00 | |
| SQ6EMJ | 2026-09-01 23:41:06 | 51.09301 | 17.17953 | 96° | 82km/h | 8966m | 6.6m/s | 0°C | 0% | 0hPa | 0V | 00:00:00 | 00:00:00 | 00:00:00 | |
| SQ6EMJ | 2026-09-01 23:41:01 | 51.09301 | 17.17814 | 92° | 73km/h | 8936m | 2.6m/s | 0°C | 0% | 0hPa | 0V | 00:00:00 | 00:00:00 | 00:00:00 | |
| SQ6EMJ | 2026-09-01 23:40:56 | 51.09300 | 17.17646 | 92° | 75km/h | 8910m | 3.2m/s | 0°C | 0% | 0hPa | 0V | 00:00:00 | 00:00:00 | 00:00:00 | |
| SQ6EMJ | 2026-09-01 23:40:50 | 51.09315 | 17.17461 | 101° | 68km/h | 8878m | 6.6m/s | 0°C | 0% | 0hPa | 0V | 00:00:00 | 00:00:00 | 00:00:00 | |
| KRY50SP | 2026-09-01 23:40:49 | 51.09317 | 17.17434 | 98° | 66km/h | 8872m | 5.3m/s | 0°C | 0% | 0hPa | 0V | 00:00:00 | 00:00:00 | 00:00:00 | |
| SQ6EMJ | 2026-09-01 23:40:44 | 51.09321 | 17.17272 | 97° | 73km/h | 8846m | 7.3m/s | 0°C | 0% | 0hPa | 0V | 00:00:00 | 00:00:00 | 00:00:00 | |
| SQ6EMJ | 2026-09-01 23:40:38 | 51.09328 | 17.17084 | 82° | 84km/h | 8813m | 3.9m/s | 0°C | 0% | 0hPa | 0V | 00:00:00 | 00:00:00 | 00:00:00 | |
| KRY50SP | 2026-09-01 23:40:34 | 51.09328 | 17.16960 | 105° | 78km/h | 8792m | 3.9m/s | 0°C | 0% | 0hPa | 0V | 00:00:00 | 00:00:00 | 00:00:00 | |
| SQ6EMJ | 2026-09-01 23:40:32 | 51.09337 | 17.16894 | 99° | 88km/h | 8782m | 5.1m/s | 0°C | 0% | 0hPa | 0V | 00:00:00 | 00:00:00 | 00:00:00 | |
| KRY50SP | 2026-09-01 23:40:28 | 51.09340 | 17.16766 | 94° | 68km/h | 8760m | 5.0m/s | 0°C | 0% | 0hPa | 0V | 00:00:00 | 00:00:00 | 00:00:00 | |
| SQ6EMJ | 2026-09-01 23:40:27 | 51.09341 | 17.16739 | 97° | 68km/h | 8755m | 4.8m/s | 0°C | 0% | 0hPa | 0V | 00:00:00 | 00:00:00 | 00:00:00 | |
| SQ6EMJ | 2026-09-01 23:40:21 | 51.09354 | 17.16551 | 100° | 77km/h | 8726m | 6.3m/s | 0°C | 0% | 0hPa | 0V | 00:00:00 | 00:00:00 | 00:00:00 | |
| SQ6EMJ | 2026-09-01 23:40:16 | 51.09356 | 17.16403 | 95° | 82km/h | 8697m | 6.2m/s | 0°C | 0% | 0hPa | 0V | 00:00:00 | 00:00:00 | 00:00:00 | |
| SQ6EMJ | 2026-09-01 23:40:10 | 51.09364 | 17.16222 | 100° | 75km/h | 8667m | 4.9m/s | 0°C | 0% | 0hPa | 0V | 00:00:00 | 00:00:00 | 00:00:00 | |
| SQ6EMJ | 2026-09-01 23:40:06 | 51.09363 | 17.16052 | 82° | 82km/h | 8640m | 4.3m/s | 0°C | 0% | 0hPa | 0V | 00:00:00 | 00:00:00 | 00:00:00 | |
| SQ6EMJ | 2026-09-01 23:39:59 | 51.09367 | 17.15858 | 90° | 77km/h | 8599m | 6.9m/s | 0°C | 0% | 0hPa | 0V | 00:00:00 | 00:00:00 | 00:00:00 | |
| SQ6EMJ | 2026-09-01 23:39:53 | 51.09369 | 17.15664 | 107° | 86km/h | 8569m | 3.9m/s | 0°C | 0% | 0hPa | 0V | 00:00:00 | 00:00:00 | 00:00:00 | |
| SQ6EMJ | 2026-09-01 23:39:48 | 51.09374 | 17.15504 | 91° | 88km/h | 8542m | 6.4m/s | 0°C | 0% | 0hPa | 0V | 00:00:00 | 00:00:00 | 00:00:00 | |
| SQ6EMJ | 2026-09-01 23:39:42 | 51.09386 | 17.15305 | 99° | 62km/h | 8510m | 6.7m/s | 0°C | 0% | 0hPa | 0V | 00:00:00 | 00:00:00 | 00:00:00 | |
| SQ6EMJ | 2026-09-01 23:39:37 | 51.09394 | 17.15117 | 105° | 88km/h | 8481m | 4.0m/s | 0°C | 0% | 0hPa | 0V | 00:00:00 | 00:00:00 | 00:00:00 | |
| SQ6EMJ | 2026-09-01 23:39:31 | 51.09408 | 17.14965 | 97° | 71km/h | 8459m | 6.2m/s | 0°C | 0% | 0hPa | 0V | 00:00:00 | 00:00:00 | 00:00:00 | |
| SQ6EMJ | 2026-09-01 23:39:25 | 51.09412 | 17.14775 | 101° | 77km/h | 8423m | 9.6m/s | 0°C | 0% | 0hPa | 0V | 00:00:00 | 00:00:00 | 00:00:00 | |
| SQ6EMJ | 2026-09-01 23:39:19 | 51.09425 | 17.14586 | 93° | 75km/h | 8388m | 5.7m/s | 0°C | 0% | 0hPa | 0V | 00:00:00 | 00:00:00 | 00:00:00 | |
| SQ6EMJ | 2026-09-01 23:39:14 | 51.09440 | 17.14396 | 99° | 71km/h | 8354m | 6.7m/s | 0°C | 0% | 0hPa | 0V | 00:00:00 | 00:00:00 | 00:00:00 | |
| SQ6EMJ | 2026-09-01 23:39:08 | 51.09453 | 17.14236 | 98° | 95km/h | 8329m | 4.8m/s | 0°C | 0% | 0hPa | 0V | 00:00:00 | 00:00:00 | 00:00:00 | |
| SQ6EMJ | 2026-09-01 23:39:03 | 51.09462 | 17.14048 | 98° | 80km/h | 8296m | 8.1m/s | 0°C | 0% | 0hPa | 0V | 00:00:00 | 00:00:00 | 00:00:00 | |
| SQ6EMJ | 2026-09-01 23:38:57 | 51.09481 | 17.13887 | 108° | 75km/h | 8264m | 6.5m/s | 0°C | 0% | 0hPa | 0V | 00:00:00 | 00:00:00 | 00:00:00 | |
| SQ6EMJ | 2026-09-01 23:38:51 | 51.09489 | 17.13702 | 97° | 75km/h | 8235m | 4.4m/s | 0°C | 0% | 0hPa | 0V | 00:00:00 | 00:00:00 | 00:00:00 | |
| SQ6EMJ | 2026-09-01 23:38:44 | 51.09512 | 17.13489 | 89° | 82km/h | 8203m | 4.9m/s | 0°C | 0% | 0hPa | 0V | 00:00:00 | 00:00:00 | 00:00:00 | |
| KRY50SP | 2026-09-01 23:38:39 | 51.09524 | 17.13346 | 106° | 82km/h | 8180m | 5.1m/s | 0°C | 0% | 0hPa | 0V | 00:00:00 | 00:00:00 | 00:00:00 | |
| SQ6EMJ | 2026-09-01 23:38:38 | 51.09529 | 17.13312 | 103° | 91km/h | 8174m | 4.9m/s | 0°C | 0% | 0hPa | 0V | 00:00:00 | 00:00:00 | 00:00:00 | |
| SQ6EMJ | 2026-09-01 23:38:27 | 51.09565 | 17.12962 | 106° | 69km/h | 8120m | 2.3m/s | 0°C | 0% | 0hPa | 0V | 00:00:00 | 00:00:00 | 00:00:00 | |
| SQ6EMJ | 2026-09-01 23:38:21 | 51.09567 | 17.12767 | 98° | 73km/h | 8089m | 3.6m/s | 0°C | 0% | 0hPa | 0V | 00:00:00 | 00:00:00 | 00:00:00 | |
| SQ6EMJ | 2026-09-01 23:38:06 | 51.09587 | 17.12291 | 103° | 71km/h | 8003m | 2.7m/s | 0°C | 0% | 0hPa | 0V | 00:00:00 | 00:00:00 | 00:00:00 | |
| KRY50SP | 2026-09-01 23:38:00 | 51.09608 | 17.12120 | 97° | 80km/h | 7968m | 2.7m/s | 0°C | 0% | 0hPa | 0V | 00:00:00 | 00:00:00 | 00:00:00 | |
| SQ6EMJ | 2026-09-01 23:37:55 | 51.09625 | 17.11973 | 98° | 66km/h | 7943m | 3.5m/s | 0°C | 0% | 0hPa | 0V | 00:00:00 | 00:00:00 | 00:00:00 | |
| KRY50SP | 2026-09-01 23:37:51 | 51.09627 | 17.11866 | 87° | 71km/h | 7922m | 1.5m/s | 0°C | 0% | 0hPa | 0V | 00:00:00 | 00:00:00 | 00:00:00 | |
| SQ6EMJ | 2026-09-01 23:37:46 | 51.09644 | 17.11714 | 104° | 84km/h | 7896m | 6.4m/s | 0°C | 0% | 0hPa | 0V | 00:00:00 | 00:00:00 | 00:00:00 | |
| KRY50SP | 2026-09-01 23:37:38 | 51.09653 | 17.11486 | 95° | 80km/h | 7842m | 6.2m/s | 0°C | 0% | 0hPa | 0V | 00:00:00 | 00:00:00 | 00:00:00 | |
| KRY50SP | 2026-09-01 23:37:31 | 51.09669 | 17.11273 | 99° | 60km/h | 7810m | 4.2m/s | 0°C | 0% | 0hPa | 0V | 00:00:00 | 00:00:00 | 00:00:00 | |
| SQ6EMJ | 2026-09-01 23:37:28 | 51.09672 | 17.11198 | 93° | 68km/h | 7793m | 6.0m/s | 0°C | 0% | 0hPa | 0V | 00:00:00 | 00:00:00 | 00:00:00 | |
| SQ6EMJ | 2026-09-01 23:37:22 | 51.09689 | 17.11012 | 106° | 75km/h | 7762m | 6.1m/s | 0°C | 0% | 0hPa | 0V | 00:00:00 | 00:00:00 | 00:00:00 | |
| SQ6EMJ | 2026-09-01 23:37:16 | 51.09699 | 17.10856 | 86° | 66km/h | 7727m | 3.1m/s | 0°C | 0% | 0hPa | 0V | 00:00:00 | 00:00:00 | 00:00:00 | |
| SQ6EMJ | 2026-09-01 23:37:11 | 51.09716 | 17.10702 | 103° | 71km/h | 7697m | 6.8m/s | 0°C | 0% | 0hPa | 0V | 00:00:00 | 00:00:00 | 00:00:00 | |
| SQ6EMJ | 2026-09-01 23:37:04 | 51.09716 | 17.10518 | 86° | 66km/h | 7667m | 4.3m/s | 0°C | 0% | 0hPa | 0V | 00:00:00 | 00:00:00 | 00:00:00 | |
| SQ6EMJ | 2026-09-01 23:36:59 | 51.09733 | 17.10385 | 93° | 73km/h | 7641m | 5.6m/s | 0°C | 0% | 0hPa | 0V | 00:00:00 | 00:00:00 | 00:00:00 | |
| SQ6EMJ | 2026-09-01 23:36:53 | 51.09737 | 17.10208 | 93° | 73km/h | 7608m | 2.8m/s | 0°C | 0% | 0hPa | 0V | 00:00:00 | 00:00:00 | 00:00:00 | |
| SQ6EMJ | 2026-09-01 23:36:48 | 51.09747 | 17.10085 | 100° | 62km/h | 7587m | 3.7m/s | 0°C | 0% | 0hPa | 0V | 00:00:00 | 00:00:00 | 00:00:00 | |
| SQ6EMJ | 2026-09-01 23:36:42 | 51.09755 | 17.09927 | 83° | 49km/h | 7559m | 3.7m/s | 0°C | 0% | 0hPa | 0V | 00:00:00 | 00:00:00 | 00:00:00 | |
| SQ6EMJ | 2026-09-01 23:36:35 | 51.09769 | 17.09744 | 92° | 55km/h | 7520m | 6.7m/s | 0°C | 0% | 0hPa | 0V | 00:00:00 | 00:00:00 | 00:00:00 | |
| SQ6EMJ | 2026-09-01 23:36:31 | 51.09786 | 17.09631 | 109° | 62km/h | 7486m | 2.8m/s | 0°C | 0% | 0hPa | 0V | 00:00:00 | 00:00:00 | 00:00:00 | |
| SQ6EMJ | 2026-09-01 23:36:25 | 51.09795 | 17.09505 | 108° | 62km/h | 7457m | 3.3m/s | 0°C | 0% | 0hPa | 0V | 00:00:00 | 00:00:00 | 00:00:00 | |
| SQ6EMJ | 2026-09-01 23:36:20 | 51.09813 | 17.09369 | 98° | 78km/h | 7428m | 5.9m/s | 0°C | 0% | 0hPa | 0V | 00:00:00 | 00:00:00 | 00:00:00 | |
| SQ6EMJ | 2026-09-01 23:36:14 | 51.09815 | 17.09222 | 88° | 71km/h | 7396m | 3.0m/s | 0°C | 0% | 0hPa | 0V | 00:00:00 | 00:00:00 | 00:00:00 | |
| SQ6EMJ | 2026-09-01 23:35:56 | 51.09834 | 17.08775 | 110° | 53km/h | 7286m | 5.0m/s | 0°C | 0% | 0hPa | 0V | 00:00:00 | 00:00:00 | 00:00:00 | |
| SQ6EMJ | 2026-09-01 23:35:46 | 51.09845 | 17.08576 | 103° | 60km/h | 7235m | 7.8m/s | 0°C | 0% | 0hPa | 0V | 00:00:00 | 00:00:00 | 00:00:00 | |
| SQ6EMJ | 2026-09-01 23:35:41 | 51.09840 | 17.08453 | 73° | 62km/h | 7208m | 3.4m/s | 0°C | 0% | 0hPa | 0V | 00:00:00 | 00:00:00 | 00:00:00 | |
| SQ6EMJ | 2026-09-01 23:35:34 | 51.09847 | 17.08314 | 106° | 64km/h | 7175m | 4.9m/s | 0°C | 0% | 0hPa | 0V | 00:00:00 | 00:00:00 | 00:00:00 | |
| SQ6EMJ | 2026-09-01 23:35:29 | 51.09853 | 17.08189 | 92° | 58km/h | 7142m | 6.6m/s | 0°C | 0% | 0hPa | 0V | 00:00:00 | 00:00:00 | 00:00:00 | |
| SQ6EMJ | 2026-09-01 23:35:24 | 51.09852 | 17.08077 | 78° | 53km/h | 7117m | 4.0m/s | 0°C | 0% | 0hPa | 0V | 00:00:00 | 00:00:00 | 00:00:00 | |
| SQ6EMJ | 2026-09-01 23:35:07 | 51.09864 | 17.07683 | 98° | 49km/h | 7036m | 2.4m/s | 0°C | 0% | 0hPa | 0V | 00:00:00 | 00:00:00 | 00:00:00 | |
| SQ6EMJ | 2026-09-01 23:35:02 | 51.09865 | 17.07527 | 100° | 66km/h | 7000m | 6.7m/s | 0°C | 0% | 0hPa | 0V | 00:00:00 | 00:00:00 | 00:00:00 | |
| SQ6EMJ | 2026-09-01 23:34:56 | 51.09871 | 17.07414 | 82° | 69km/h | 6969m | 5.8m/s | 0°C | 0% | 0hPa | 0V | 00:00:00 | 00:00:00 | 00:00:00 | |
| SQ6EMJ | 2026-09-01 23:34:49 | 51.09844 | 17.07214 | 76° | 44km/h | 6918m | 4.3m/s | 0°C | 0% | 0hPa | 0V | 00:00:00 | 00:00:00 | 00:00:00 | |
| SQ6EMJ | 2026-09-01 23:34:39 | 51.09818 | 17.06982 | 94° | 51km/h | 6868m | 8.1m/s | 0°C | 0% | 0hPa | 0V | 00:00:00 | 00:00:00 | 00:00:00 | |
| SQ6EMJ | 2026-09-01 23:34:31 | 51.09797 | 17.06813 | 87° | 73km/h | 6814m | 6.2m/s | 0°C | 0% | 0hPa | 0V | 00:00:00 | 00:00:00 | 00:00:00 | |
| SQ6EMJ | 2026-09-01 23:34:21 | 51.09784 | 17.06601 | 85° | 46km/h | 6749m | 6.7m/s | 0°C | 0% | 0hPa | 0V | 00:00:00 | 00:00:00 | 00:00:00 | |
| SQ6EMJ | 2026-09-01 23:34:15 | 51.09780 | 17.06499 | 80° | 68km/h | 6718m | 7.5m/s | 0°C | 0% | 0hPa | 0V | 00:00:00 | 00:00:00 | 00:00:00 | |
| SQ6EMJ | 2026-09-01 23:33:49 | 51.09755 | 17.05915 | 69° | 55km/h | 6554m | 3.1m/s | 0°C | 0% | 0hPa | 0V | 00:00:00 | 00:00:00 | 00:00:00 | |
| SQ6EMJ | 2026-09-01 23:33:42 | 51.09760 | 17.05782 | 98° | 42km/h | 6515m | 4.8m/s | 0°C | 0% | 0hPa | 0V | 00:00:00 | 00:00:00 | 00:00:00 | |
| SQ6EMJ | 2026-09-01 23:33:35 | 51.09758 | 17.05618 | 105° | 62km/h | 6476m | 5.9m/s | 0°C | 0% | 0hPa | 0V | 00:00:00 | 00:00:00 | 00:00:00 | |
| SQ6EMJ | 2026-09-01 23:33:28 | 51.09756 | 17.05466 | 97° | 44km/h | 6431m | 6.0m/s | 0°C | 0% | 0hPa | 0V | 00:00:00 | 00:00:00 | 00:00:00 | |
| SQ6EMJ | 2026-09-01 23:33:23 | 51.09765 | 17.05376 | 87° | 46km/h | 6397m | 5.0m/s | 0°C | 0% | 0hPa | 0V | 00:00:00 | 00:00:00 | 00:00:00 | |
| SQ6EMJ | 2026-09-01 23:33:15 | 51.09764 | 17.05212 | 110° | 55km/h | 6345m | 6.5m/s | 0°C | 0% | 0hPa | 0V | 00:00:00 | 00:00:00 | 00:00:00 | |
| SQ6EMJ | 2026-09-01 23:33:09 | 51.09772 | 17.05067 | 99° | 66km/h | 6304m | 5.3m/s | 0°C | 0% | 0hPa | 0V | 00:00:00 | 00:00:00 | 00:00:00 | |
| SQ6EMJ | 2026-09-01 23:33:04 | 51.09782 | 17.04967 | 108° | 38km/h | 6276m | 6.4m/s | 0°C | 0% | 0hPa | 0V | 00:00:00 | 00:00:00 | 00:00:00 | |
| SQ6EMJ | 2026-09-01 23:32:57 | 51.09788 | 17.04800 | 97° | 60km/h | 6233m | 6.3m/s | 0°C | 0% | 0hPa | 0V | 00:00:00 | 00:00:00 | 00:00:00 | |
| SQ6EMJ | 2026-09-01 23:32:50 | 51.09796 | 17.04657 | 102° | 60km/h | 6180m | 6.0m/s | 0°C | 0% | 0hPa | 0V | 00:00:00 | 00:00:00 | 00:00:00 | |
| SQ6EMJ | 2026-09-01 23:32:43 | 51.09824 | 17.04477 | 92° | 46km/h | 6135m | 6.2m/s | 0°C | 0% | 0hPa | 0V | 00:00:00 | 00:00:00 | 00:00:00 | |
| SQ6EMJ | 2026-09-01 23:32:37 | 51.09831 | 17.04346 | 102° | 60km/h | 6102m | 4.3m/s | 0°C | 0% | 0hPa | 0V | 00:00:00 | 00:00:00 | 00:00:00 | |
| SQ6EMJ | 2026-09-01 23:32:31 | 51.09832 | 17.04196 | 110° | 66km/h | 6068m | 6.9m/s | 0°C | 0% | 0hPa | 0V | 00:00:00 | 00:00:00 | 00:00:00 | |
| SQ6EMJ | 2026-09-01 23:32:25 | 51.09842 | 17.04071 | 107° | 38km/h | 6032m | 7.5m/s | 0°C | 0% | 0hPa | 0V | 00:00:00 | 00:00:00 | 00:00:00 | |
| SQ6EMJ | 2026-09-01 23:31:58 | 51.09882 | 17.03506 | 86° | 60km/h | 5861m | 5.5m/s | 0°C | 0% | 0hPa | 0V | 00:00:00 | 00:00:00 | 00:00:00 | |
| SQ6EMJ | 2026-09-01 23:31:50 | 51.09895 | 17.03317 | 98° | 58km/h | 5811m | 3.8m/s | 0°C | 0% | 0hPa | 0V | 00:00:00 | 00:00:00 | 00:00:00 | |
| SQ6EMJ | 2026-09-01 23:31:44 | 51.09899 | 17.03195 | 70° | 58km/h | 5780m | 2.0m/s | 0°C | 0% | 0hPa | 0V | 00:00:00 | 00:00:00 | 00:00:00 | |
| SQ6EMJ | 2026-09-01 23:31:39 | 51.09901 | 17.03101 | 114° | 49km/h | 5754m | 4.8m/s | 0°C | 0% | 0hPa | 0V | 00:00:00 | 00:00:00 | 00:00:00 | |
| SQ6EMJ | 2026-09-01 23:31:22 | 51.09920 | 17.02688 | 87° | 49km/h | 5640m | 7.9m/s | 0°C | 0% | 0hPa | 0V | 00:00:00 | 00:00:00 | 00:00:00 | |
| SQ6EMJ | 2026-09-01 23:31:15 | 51.09934 | 17.02556 | 109° | 51km/h | 5613m | 4.7m/s | 0°C | 0% | 0hPa | 0V | 00:00:00 | 00:00:00 | 00:00:00 | |
| SQ6EMJ | 2026-09-01 23:31:01 | 51.09950 | 17.02227 | 100° | 51km/h | 5544m | 2.8m/s | 0°C | 0% | 0hPa | 0V | 00:00:00 | 00:00:00 | 00:00:00 | |
| SQ6EMJ | 2026-09-01 23:30:55 | 51.09947 | 17.02077 | 92° | 55km/h | 5517m | 4.3m/s | 0°C | 0% | 0hPa | 0V | 00:00:00 | 00:00:00 | 00:00:00 | |
| SQ6EMJ | 2026-09-01 23:30:49 | 51.09958 | 17.01941 | 96° | 66km/h | 5482m | 6.7m/s | 0°C | 0% | 0hPa | 0V | 00:00:00 | 00:00:00 | 00:00:00 | |
| SQ6EMJ | 2026-09-01 23:30:44 | 51.09978 | 17.01815 | 107° | 69km/h | 5455m | 3.9m/s | 0°C | 0% | 0hPa | 0V | 00:00:00 | 00:00:00 | 00:00:00 | |
| SQ6EMJ | 2026-09-01 23:30:38 | 51.09981 | 17.01641 | 106° | 71km/h | 5422m | 4.2m/s | 0°C | 0% | 0hPa | 0V | 00:00:00 | 00:00:00 | 00:00:00 | |
| SQ6EMJ | 2026-09-01 23:30:04 | 51.10018 | 17.00751 | 87° | 78km/h | 5229m | 6.0m/s | 0°C | 0% | 0hPa | 0V | 00:00:00 | 00:00:00 | 00:00:00 | |
| SQ6EMJ | 2026-09-01 23:29:59 | 51.10032 | 17.00603 | 96° | 77km/h | 5204m | 3.1m/s | 0°C | 0% | 0hPa | 0V | 00:00:00 | 00:00:00 | 00:00:00 | |
| SQ6EMJ | 2026-09-01 23:29:53 | 51.10029 | 17.00443 | 76° | 55km/h | 5173m | 3.6m/s | 0°C | 0% | 0hPa | 0V | 00:00:00 | 00:00:00 | 00:00:00 | |
| SQ6EMJ | 2026-09-01 23:29:48 | 51.10022 | 17.00302 | 101° | 78km/h | 5149m | 4.5m/s | 0°C | 0% | 0hPa | 0V | 00:00:00 | 00:00:00 | 00:00:00 | |
| SQ6EMJ | 2026-09-01 23:29:41 | 51.10034 | 17.00116 | 99° | 53km/h | 5113m | 4.0m/s | 0°C | 0% | 0hPa | 0V | 00:00:00 | 00:00:00 | 00:00:00 | |
| SQ6EMJ | 2026-09-01 23:29:27 | 51.10043 | 16.99756 | 99° | 78km/h | 5036m | 6.5m/s | 0°C | 0% | 0hPa | 0V | 00:00:00 | 00:00:00 | 00:00:00 | |
| SQ6EMJ | 2026-09-01 23:29:17 | 51.10064 | 16.99507 | 97° | 42km/h | 4979m | 5.5m/s | 0°C | 0% | 0hPa | 0V | 00:00:00 | 00:00:00 | 00:00:00 | |
| SQ6EMJ | 2026-09-01 23:29:00 | 51.10075 | 16.99101 | 87° | 75km/h | 4886m | 4.2m/s | 0°C | 0% | 0hPa | 0V | 00:00:00 | 00:00:00 | 00:00:00 | |
| SQ6EMJ | 2026-09-01 23:28:52 | 51.10078 | 16.98898 | 87° | 68km/h | 4841m | 6.2m/s | 0°C | 0% | 0hPa | 0V | 00:00:00 | 00:00:00 | 00:00:00 | |
| SQ6EMJ | 2026-09-01 23:28:40 | 51.10088 | 16.98623 | 100° | 64km/h | 4775m | 3.6m/s | 0°C | 0% | 0hPa | 0V | 00:00:00 | 00:00:00 | 00:00:00 | |
| SQ6EMJ | 2026-09-01 23:28:32 | 51.10079 | 16.98403 | 87° | 60km/h | 4728m | 4.0m/s | 0°C | 0% | 0hPa | 0V | 00:00:00 | 00:00:00 | 00:00:00 | |
| SQ6EMJ | 2026-09-01 23:28:18 | 51.10080 | 16.98136 | 85° | 40km/h | 4649m | 2.4m/s | 0°C | 0% | 0hPa | 0V | 00:00:00 | 00:00:00 | 00:00:00 | |
| SQ6EMJ | 2026-09-01 23:28:12 | 51.10080 | 16.98045 | 74° | 40km/h | 4617m | 4.4m/s | 0°C | 0% | 0hPa | 0V | 00:00:00 | 00:00:00 | 00:00:00 | |
| SQ6EMJ | 2026-09-01 23:27:50 | 51.10097 | 16.97601 | 89° | 51km/h | 4500m | 5.9m/s | 0°C | 0% | 0hPa | 0V | 00:00:00 | 00:00:00 | 00:00:00 | |
| SQ6EMJ | 2026-09-01 23:27:01 | 51.10082 | 16.96602 | 77° | 66km/h | 4219m | 4.2m/s | 0°C | 0% | 0hPa | 0V | 00:00:00 | 00:00:00 | 00:00:00 | |
| SQ6EMJ | 2026-09-01 23:26:51 | 51.10069 | 16.96405 | 76° | 66km/h | 4162m | 3.2m/s | 0°C | 0% | 0hPa | 0V | 00:00:00 | 00:00:00 | 00:00:00 | |
| SQ6EMJ | 2026-09-01 23:26:42 | 51.10060 | 16.96225 | 85° | 60km/h | 4118m | 5.4m/s | 0°C | 0% | 0hPa | 0V | 00:00:00 | 00:00:00 | 00:00:00 | |
| SQ6EMJ | 2026-09-01 23:26:24 | 51.10042 | 16.95914 | 71° | 31km/h | 4008m | 4.8m/s | 0°C | 0% | 0hPa | 0V | 00:00:00 | 00:00:00 | 00:00:00 |